Aviation Digital Data Service (ADDS)

Output produced by METARs form (0219 UTC 30 March 2015)
found at http://aviationweather.gov/adds/metars/
 
K04V 300215Z AUTO 02008KT 10SM CLR 10/M18 A3025 RMK AO2
K04W 300213Z AUTO 29004KT 10SM CLR 06/M02 A2988 RMK AO2
K05U 300220Z AUTO 00000KT 10SM SCT110 17/M10 A3018 RMK AO1
K06D 300215Z AUTO 25005KT 10SM CLR 02/M01 A2991 RMK AO2
K0A9 300215Z AUTO 00000KT 10SM CLR 02/M06 A3012 RMK
K0CO 300215Z AUTO 29020G24KT 10SM CLR M01/M05 A3046 RMK AO2
K0E0 300215Z AUTO 10015G20KT 10SM SCT110 16/M04 A3026 RMK AO2 T01601040
K0F2 300155Z AUTO 36005KT 10SM CLR 22/11 A3006 RMK AO2 T02200105
K0J4 300158Z AUTO 21005KT 10SM BKN038 13/08 A3031 RMK AO2 SLP264 T01330078
K0V4 300215Z AUTO 19005KT 10SM CLR 07/M08 A3018 RMK AO1 T00721084
K0VG 300155Z AUTO 00000KT 10SM FEW031 FEW047 BKN120 05/M03 A3012 RMK AO2
K11R 300215Z AUTO 17013G19KT 10SM CLR 22/17 A3009 RMK AO2 T02150170
K12N 300154Z AUTO 19003KT 00/M08 A3011 RMK AO1 SLP208 T00001083
K14Y 300215Z AUTO 25004KT 10SM SCT095 05/M03 A2994 RMK AO2
K19A 300215Z AUTO 17004KT 10SM OVC050 12/M03 A3025 RMK AO2
K1A5 300215Z AUTO 00000KT 10SM 09/M12 A3024 RMK AO2 T00881118
K1A6 300215Z AUTO 21008G23KT 170V230 10SM CLR 12/M05 A3009 RMK AO2 T01231050
K1A9 300215Z AUTO 00000KT 10SM CLR 12/07 A3023 RMK AO2 T01170067
K1F0 300155Z AUTO 04005KT 10SM CLR 22/08 A3007 RMK AO2
K1H2 300215Z AUTO 20006KT 10SM SCT060 08/04 A3001 RMK AO2 T00830037
K1II 300215Z AUTO 21003KT 10SM BKN047 OVC050 06/03 A2998 RMK AO2
K1J0 300158Z AUTO 00000KT 10SM CLR 12/07 A3032 RMK AO2 SLP251 T01220072
K1K1 300215Z AUTO 34004KT 10SM CLR 14/00 A3015 RMK AO2 T01440004
K1L0 300215Z AUTO 17008KT 10SM CLR 20/16 A3021 RMK AO2 T02030161
K1M4 300156Z AUTO 16007KT 10SM CLR 13/06 A3014 RMK AO2 T01330055 SLP217
K1P1 300215Z AUTO 00000KT 10SM CLR M03/M06 A3002 RMK AO2 T10301059
K1QW 292357Z AUTO 19006KT M /// /// M 13/02 A3013 RMK AO2 SLP211 T01310015 10140 20100 57012 $
K1R7 300215Z AUTO 16008KT CLR 19/16 A3018 RMK AO2
K1S5 300215Z AUTO 00000KT 10SM CLR 18/03 A3010 RMK AO2 T01820031
K1V4 300154Z AUTO M02/M11 A2997 RMK AO1 SLP163 T10171111
K1V6 300215Z AUTO 04004KT 10SM CLR 11/M02 A3022 RMK AO2
K1YT 300156Z AUTO 26004KT 10SM FEW170 17/03 A3011 RMK AO2 SLPNO T01740028
K20U 300155Z AUTO 24007KT 10SM CLR 08/00 A2997 RMK AO2
K20V 300216Z AUTO 30003KT 10SM CLR 10/M13 A3025 RMK AO2
K21D 300211Z AUTO 29007KT 10SM CLR 07/M02 A2992 RMK AO2
K24J 300215Z AUTO 00000KT 6SM CLR 09/07 A3034 RMK AO1
K28J 300155Z AUTO 11005KT 10SM CLR 10/06 A3036 RMK AO2
K2C8 300155Z AUTO 27009KT CLR 05/M01 A2988 RMK AO2
K2D5 300215Z AUTO 24005KT 10SM 06/M02 A2997 RMK AO2
K2DP 300156Z AUTO 21002KT 10SM CLR M01/M01 A3032 RMK AO2 SLPNO T10071014
K2G4 300210Z AUTO 19008KT 10SM SCT070 BKN075 OVC095 02/M11 A2997 RMK AO1
K2G9 300215Z AUTO 18004KT 10SM SCT060 BKN080 OVC090 02/M13 A2997 RMK AO2
K2I0 300215Z AUTO 26006KT 10SM OVC110 14/05 A3004 RMK AO2 T01400050
K2J9 300155Z AUTO 00000KT 10SM SCT055 11/05 A3033 RMK AO1
K2V5 300215Z AUTO 14003KT 10SM CLR 11/M08 A3017 RMK AO2 T01081080
K2W6 300212Z AUTO 14004KT 10SM CLR 01/M06 A3022 RMK AO1
K2WX 300156Z AUTO 29006KT 11/M03 A2995 RMK AO1 SLP153 T01061028
K33V 300216Z AUTO 23006KT 10SM CLR 06/M12 A3027 RMK AO2
K36U 300215Z AUTO 32003KT 10SM CLR 13/M07 A3021 RMK AO2
K3AU 300155Z AUTO 36005KT 10SM CLR 15/01 A3014 RMK AO2
K3D2 300215Z AUTO 28009G16KT 10SM OVC029 02/00 A2965 RMK AO2 T00230003
K3I2 300215Z AUTO 00000KT 10SM SCT060 08/M11 A3001 RMK AO2
K3J7 300215Z AUTO 14004KT 10SM CLR 11/M03 A3024 RMK AO2
K3K3 300155Z AUTO 08010KT 10SM CLR 12/M03 A3018 RMK AO2
K3LF 300215Z AUTO 25006KT 10SM SCT048 07/03 A3001 RMK AO2 T00700032
K3N8 300155Z AUTO 21004KT 10SM SCT070 SCT100 03/M01 A2990 RMK AO2 T00251010
K3R7 300215Z AUTO 19006KT 10SM SCT034 20/17 A3017 RMK AO2 T01950172
K3T5 300155Z AUTO 17013KT 10SM CLR 21/17 A3005 RMK AO2 T02140171
K40B 300219Z AUTO VRB05KT M04/M14 A2990 RMK AO1 SLP144 T10411139 58008
K40J 300215Z AUTO 00000KT 10SM CLR 10/07 A3033 RMK AO2 T00970066
K42J 300215Z AUTO 11007KT 10SM CLR 11/06 A3035 RMK AO1 TSNO
K46D 300215Z AUTO 29005KT 10SM SCT075 06/M01 A2995 RMK AO2
K4A6 300155Z AUTO 20006KT 10SM CLR 13/01 A3018 RMK AO2
K4A9 300215Z AUTO 20003KT 10SM CLR 12/M02 A3018 RMK AO2
K4BM 300217Z AUTO 27007G15KT 230V300 10SM CLR 04/M21 A3044 RMK AO2
K4I3 300216Z AUTO 20008G14KT 10SM -RA SCT014 BKN050 03/00 A2996 RMK AO2
K4I7 300215Z AUTO 24007KT 10SM SCT070 07/02 A2996 RMK AO2
K4M9 300215Z AUTO 31003KT 10SM 13/11 A3009 RMK AO2
K4MR 300156Z AUTO 08011KT 10SM FEW240 16/M04 A3022 RMK AO2 SLP195 T01591038 $
K4O4 300215Z AUTO 00000KT 10SM SCT065 SCT080 22/11 A3004 RMK AO2
K54J 300215Z AUTO 19004KT 10SM SCT042 12/08 A3031 RMK AO2 T01230081
K5A6 300215Z AUTO 00000KT 10SM CLR 17/11 A3009 RMK AO2 T01700107
K5C1 300215Z AUTO 18006KT 10SM CLR 21/12 A3008 RMK AO1
K5H4 300155Z AUTO 35004KT 10SM SCT070 07/M01 A2994 RMK AO2
K5M9 300155Z AUTO 27007KT 10SM SCT042 OVC110 12/06 A3005 RMK AO2 T01230057
K5R8 300215Z AUTO 18005KT 10SM CLR 19/18 A3016 RMK AO2 T01910176
K5SM 300214Z AUTO 00000KT 10SM CLR 03/M11 A3044 RMK AO2
K5T9 300215Z AUTO 14005KT 10SM CLR 23/13 A3001 RMK A01
K65S 300215Z AUTO 00000KT 10SM CLR 12/03 A3010 RMK AO2
K66R 300215Z AUTO 16010G17KT 10SM CLR 20/18 A3009 RMK AO2 T02000177
K6A2 300215Z AUTO 18006KT 10SM OVC048 13/M01 A3028 RMK AO2
K6B0 300215Z AUTO 17005KT 10SM CLR 01/M13 A3000 RMK AO2 T00121132
K6I2 300210Z AUTO 19007KT 10SM FEW120 12/M02 A3002 RMK AO2
K6L4 300215Z AUTO 18007G15KT 150V210 10SM OVC120 10/M15 A3000 RMK AO2
K6R3 300215Z AUTO 18007KT 7SM CLR 20/17 A3013 RMK AO2 T01960170
K6R6 300153Z AUTO 10006KT 23/11 A3003 RMK AO1 SLP141 T02330111
K79J 300156Z AUTO VRB03KT 10SM CLR 16/07 A3029 RMK AO2 SLP255 T01610067
K7BM 300215Z AUTO 32004KT 10SM CLR 10/M22 A3037 RMK AO2
K7L2 300155Z AUTO 00000KT 10SM CLR 06/00 A2998 RMK AO2
K7N0 300215Z AUTO 16010KT A3022 RMK AO1
K7R4 292205Z 18007KT 7SM SCT032 22/11 A3016
K7W4 300215Z AUTO 10SM CLR 04/M13 A3017 RMK AO1 T00421129
K82C 300215Z AUTO 00000KT 10SM CLR 00/00 A2984 RMK AO2 T00040002
K82V 300215Z AUTO 20007KT 10SM CLR 06/M05 A3015 RMK AO2
K8A0 300155Z AUTO 16006KT 10SM CLR 11/05 A3017 RMK AO2
K8D3 300156Z AUTO 29009KT 07/M02 A2996 RMK AO1 SLP155 T00671022
K8S0 300140Z 25013KT
K8W2 300215Z AUTO 21009G18KT 10SM BKN120 07/M12 A3007 RMK AO1 T00701120
K96D 300155Z AUTO 27007KT 10SM 05/00 A2989 RMK AO2
K9D7 300155Z AUTO 32004KT 10SM CLR 03/00 A2992 RMK AO2
K9L2 300155Z AUTO 25012KT 10SM CLR 27/M09 A2997 RMK AO2 SLP142 T02671094 $
K9MN 300214Z AUTO 28012G18KT 10SM CLR 07/M01 A2993 RMK AO1 T00651012
K9V9 300155Z AUTO 24006KT 10SM CLR 05/M05 A3005 RMK AO2 T00471052
KA08 300155Z AUTO 19008KT 10SM CLR 16/10 A3020 RMK AO2 T01590095
KAAA 300215Z AUTO 27006KT 10SM SCT046 SCT050 12/05 A2996 RMK AO2 T01170048
KAAF 300153Z AUTO 18005KT 10SM CLR 16/07 A3031 RMK AO2 SLP263 T01610067
KAAO 300154Z AUTO 36008KT 10SM CLR 13/00 A3014 RMK AO2 SLP207 T01330000
KAAT 300155Z AUTO 34006KT 10SM CLR 17/M04 A3014 RMK AO2 SLP203 T01721044
KABE 300151Z 20008KT 10SM CLR 03/M12 A3013 RMK AO2 SLP205 T00331117
KABH 300156Z AUTO 16006KT 10SM CLR A3023 RMK AO2 SLPNO $
KABI 300152Z 36008KT 10SM CLR 22/09 A3009 RMK AO2 SLP169 T02220094
KABQ 300152Z 11017G20KT 10SM SCT090 BKN210 21/M07 A3014 RMK AO2 SLP148 VIRGA SE AND NW T02111072
KABR 300153Z AUTO 00000KT 10SM CLR 06/M06 A3000 RMK AO2 SLP167 T00561056
KABY 300153Z AUTO 00000KT 10SM OVC050 12/03 A3033 RMK AO2 SLP269 T01220028
KACB 300215Z AUTO 23005KT 7SM -SN OVC006 01/00 A2958 RMK AO2 T00110001
KACJ 300155Z AUTO 17003KT 10SM BKN049 10/02 A3032 RMK AO2
KACK 300153Z AUTO 23010KT 10SM CLR M01/M06 A3017 RMK AO2 SLP216 T10061061
KACP 300155Z AUTO 00000KT 10SM OVC023 20/16 A3016 RMK AO2 T01960157
KACQ 300139Z AUTO 30009KT 10SM CLR 06/M01 A2998 RMK AO2
KACT 300151Z 18015KT 10SM CLR 23/13 A3001 RMK AO2 SLP157 T02280128
KACV 300153Z AUTO 33012KT 8SM CLR 13/09 A3017 RMK AO2 SLP222 T01280094
KACY 300154Z 21007KT 10SM CLR 01/M09 A3021 RMK AO2 SLP229 T00111094
KADC 300215Z AUTO 24003KT 10SM BKN080 OVC090 04/M03 A2992 RMK AO2
KADF 300156Z AUTO 00000KT 10SM SCT090 18/16 A3003 RMK AO2 T01830155 SLP183
KADG 300153Z AUTO 23016G25KT 10SM BKN045 OVC070 04/M03 A2979 RMK AO2 PK WND 23028/0133 SLP098 T00441028 TSNO
KADH 300215Z AUTO 03005KT 7SM CLR 18/09 A3011 RMK AO2
KADM 300155Z AUTO 02010G17KT 10SM CLR 22/11 A3006 RMK AO2 T02150111
KADS 300047Z 16012G18KT 15SM SCT080 26/10 A2998
KADU 300215Z AUTO 33003KT 10SM CLR 04/M05 A3010 RMK AO2
KADW 300158Z AUTO 16009KT 10SM CLR 01/M11 A3016 RMK AO2 SLP223 T00111111 $
KAEG 300148Z 11007KT 10SM BKN170 17/M10 A3017
KAEJ 300215Z AUTO 29008KT 10SM CLR 08/M12 A3026 RMK AO2 T00771119
KAEL 300214Z AUTO 30007KT 10SM CLR 07/M01 A2998 RMK AO2
KAEX 300153Z 18010KT 10SM CLR 21/14 A3012 RMK AO2 SLP204 T02060144
KAFF 300058Z AUTO 16014KT 10SM CLR 13/M06 A3022 RMK AO2 SLP201 T01271065
KAFJ 300215Z AUTO 20008KT 10SM BKN050 OVC070 06/M13 A3000 RMK AO1
KAFK 300215Z AUTO 31006KT 10SM CLR 10/M07 A3013 RMK AO2 T00951066
KAFN 300152Z AUTO 18004KT 10SM CLR M04/M11 A3004 RMK AO2 SLP193 T10441106
KAFO 300155Z AUTO 00000KT 10SM CLR 08/M03 A3023 RMK AO2
KAFP 300215Z AUTO 15004KT 10SM CLR 06/M09 A3028 RMK AO2 T00631093
KAFW 300153Z 17008KT 10SM OVC090 22/13 A3000 RMK AO2 SLP152 T02220133
KAGC 300153Z 16007KT 10SM OVC080 05/M16 A2997 RMK AO2 SLP164 T00501156
KAGS 300153Z 18003KT 10SM CLR 04/M03 A3031 RMK AO2 SLP262 T00391033
KAHN 300151Z AUTO 17004KT 10SM SCT055 10/M07 A3027 RMK AO2 SLP252 T01001067
KAHQ 300215Z AUTO 30005KT 10SM CLR 08/M07 A3012 RMK AO2 T00811067
KAIA 300153Z AUTO 19007KT 10SM CLR 10/M04 A3011 RMK AO2 SLP193 T01001039
KAIB 300215Z AUTO 26006KT 10SM CLR 16/M16 A3022 RMK AO2
KAIG 300155Z AUTO 31016G21KT 10SM SCT018 SCT023 OVC049 02/00 A2974 RMK AO2 T00160000
KAIK 300215Z AUTO 17004KT 10SM CLR 06/M06 A3033 RMK AO2
KAIO 300155Z AUTO 28006KT 10SM CLR 08/M05 A3009 RMK AO2
KAIT 300212Z AUTO 26003KT 10SM CLR 06/M03 A2987 RMK AO2
KAIZ 300215Z AUTO 27004KT 10SM FEW055 12/04 A3009 RMK AO1
KAJG 300215Z AUTO 24008KT 10SM CLR 11/06 A3001 RMK AO2
KAJL 300215Z AUTO 25016G21KT 10SM CLR M01/M10 A3028 RMK AO2 T10111099
KAJO 300156Z AUTO 29008KT 10SM CLR 23/07 A2996 RMK AO2 T02330066 SLP140 $
KAJZ 300215Z AUTO 26003KT 10SM CLR 20/M16 A3013 RMK AO2 T02031159
KAKH 300154Z AUTO 20006KT 10SM CLR 08/M09 A3025 RMK AO2 SLP247 T00781089
KAKO 300153Z AUTO 16005KT 10SM CLR 10/M06 A3017 RMK AO2 SLP208 T01001056
KAKQ 300154Z AUTO 00000KT 10SM CLR 01/M07 A3025 RMK AO2 SLP245 T00061067 TSNO
KAKR 300154Z AUTO 22023G33KT 10SM OVC047 07/M08 A2992 RMK AO2 PK WND 24033/0152 SLP139 T00721078
KALB 300151Z 00000KT 10SM FEW200 M02/M11 A3007 RMK AO2 SLP185 T10171111
KALI 300153Z AUTO 15012KT 10SM CLR 22/17 A3006 RMK AO2 SLP176 T02220172 $
KALK 300156Z AUTO 24009KT 10SM CLR 21/M06 A3018 RMK AO2 SLP146 T02111056 $
KALM 300215Z AUTO 19005KT 10SM CLR 20/M08 A3013 RMK AO2
KALN 300050Z 18008KT 10SM SKC 10/02 A2998
KALO 300154Z 31009KT 10SM CLR 08/00 A2998 RMK AO2 SLP159 T00780000 $
KALS 300152Z AUTO 26014G21KT 10SM CLR 15/M12 A3022 RMK AO2 PK WND 26027/0054 SLP175 T01501117
KALW 300153Z AUTO 11003KT 10SM CLR 18/03 A3013 RMK AO2 SLP202 T01830028
KALX 300155Z AUTO 14003KT 10SM CLR 12/05 A3024 RMK AO2 T01230046
KAMA 300153Z 10006KT 10SM CLR 14/M04 A3022 RMK AO2 SLP204 T01441039
KAMG 300153Z AUTO 13007KT 10SM CLR 10/02 A3034 RMK AO2 SLP272 T01000022
KAMN 300215Z AUTO 22011G14KT 3SM -SN OVC007 03/02 A2967 RMK AO2 T00250020
KAMW 300153Z AUTO 31009KT 10SM CLR 10/M04 A3003 RMK AO2 SLP170 T01001044
KANB 300153Z AUTO 00000KT 10SM CLR 11/04 A3022 RMK AO2 SLP239 T01110039
KAND 300156Z AUTO 16005KT 10SM CLR 08/M06 A3026 RMK AO2 SLP249 T00831061
KANE 300214Z AUTO 28007KT 10SM CLR 07/M02 A2992 RMK AO2
KANJ 300155Z AUTO 27008KT 1 1/2SM -SN BR OVC005 01/M01 A2945 RMK AO2 CIG 004V009 SLP979 P0003 T00061006
KANK 300215Z AUTO 13011G15KT 10SM CLR 11/M05 A3033 RMK AO1 T01131048
KANQ 300235Z AUTO 23014KT 10SM OVC035 05/M01 A2980 RMK
KANW 300215Z AUTO 20003KT 10SM CLR 05/M06 A3011 RMK AO2 T00521058
KAOH 300153Z AUTO 20013KT 10SM OVC045 06/M01 A2989 RMK AO2 RAE04 SLP129 P0000 T00561011
KAOO 300153Z AUTO 20010KT 10SM FEW110 03/M14 A3001 RMK AO2 SLP177 T00331139
KAPA 300153Z 17014KT 10SM FEW110 SCT220 12/M04 A3016 RMK AO2 SLP196 T01221044
KAPC 300154Z 19007KT 10SM CLR 19/11 A3000 RMK AO2 SLP149 T01890106
KAPF 300153Z AUTO 05003KT 10SM CLR 18/08 A3029 RMK AO2 SLP255 T01830078 $
KAPN 300154Z AUTO 21009KT 10SM OVC018 02/M01 A2954 RMK AO2 SLP011 T00171011
KAPY 300155Z AUTO 14009G16KT 10SM CLR 24/16 A3002 RMK AO2 T02420161
KAQO 300155Z AUTO 16005KT 10SM CLR 24/13 A3007 RMK AO2
KAQP 300215Z AUTO 25007KT 10SM CLR 03/M03 A2998 RMK AO2
KAQR 300155Z AUTO 03007KT 10SM CLR 21/08 A3008 RMK AO2
KAQV 300156Z AUTO VRB06KT 10SM CLR 21/15 A3010 RMK AO2 SLP192 T02110150 $
KAQW 300152Z AUTO 00000KT 10SM CLR M03/M09 A3006 RMK AO2 SLP188 T10331089
KAQX 300215Z AUTO 17003KT 10SM CLR 09/M00 A3032 RMK AO2
KARA 300153Z 16007KT 10SM CLR 19/17 A3019 RMK AO2 SLP223 T01940172
KARB 300153Z AUTO 21013G21KT 10SM OVC040 04/M04 A2977 RMK AO2 SLP087 T00441039
KARM 300155Z AUTO 16009KT 10SM CLR 20/18 A3013 RMK AO2 T01950175
KARR 300152Z 29011KT 10SM CLR 06/01 A2989 RMK AO2 SLP128 T00560006
KART 300156Z AUTO 17010G18KT 10SM CLR 03/M12 A2991 RMK AO2 SLP134 T00331122
KARV 300155Z AUTO 32013G20KT 10SM OVC047 03/00 A2975 RMK AO2 T00251003
KARW 300215Z AUTO 18004KT 7SM CLR 08/02 A3034 RMK AO2
KASD 300153Z AUTO 16006KT 10SM CLR 19/17 A3021 RMK AO2 SLP229 T01940172
KASE 300153Z 23009KT 10SM CLR 09/M09 A3026 RMK AO2 SLP187 T00891089
KASG 300148Z 30004KT 10SM FEW100 14/07 A3013
KASH 300151Z AUTO 00000KT 10SM CLR M01/M09 A3009 RMK AO2 FZRANO T10111088 SLP449 $
KASJ 300155Z AUTO 16003KT 10SM CLR 01/M05 A3027 RMK AO2 T00051050
KASL 300155Z AUTO 00000KT 10SM SCT034 SCT050 BKN120 23/16 A3007 RMK AO1 T02300155
KASN 300215Z AUTO 17003KT 10SM CLR 13/03 A3022 RMK AO2 T01310031
KAST 300209Z AUTO 22008KT 10SM BKN022 OVC075 12/10 A3019 RMK AO2 T01220100
KASW 300215Z AUTO 24011G18KT 10SM BKN039 BKN045 OVC050 06/01 A2983 RMK AO2
KASX 300153Z AUTO 26004KT 10SM SCT060 03/M02 A2981 RMK AO2 SLP103 T00331022 $
KATL 300152Z 18008KT 10SM OVC046 14/M03 A3026 RMK AO2 SLP248 T01441033
KATP 300215Z AUTO 14016KT 10SM FEW039 SCT049 SCT055 M40/ A3026 RMK A01
KATS 300215Z AUTO 09008KT 10SM CLR 23/M02 A3012 RMK AO2
KATT 300151Z AUTO 16005KT 10SM CLR 22/13 A3006 RMK AO2 SLP172 T02220133
KATW 300145Z 30015G24KT 10SM SCT027 BKN033 OVC050 04/M01 A2977
KATY 300153Z AUTO 27006KT 10SM CLR 04/M04 A3001 RMK AO2 SLP174 T00391039
KAUG 300153Z AUTO 20005KT 10SM CLR M02/M08 A3005 RMK AO2 SLP180 T10171078
KAUH 300155Z AUTO 00000KT 10SM CLR 06/M07 A3015 RMK AO2 T00601072
KAUM 300216Z AUTO 30011G15KT 10SM CLR 06/M01 A2996 RMK AO2
KAUN 300215Z AUTO 00000KT 10SM CLR 19/07 A3003 RMK AO1
KAUO 300215Z AUTO 16006KT 10SM CLR 12/M01 A3029 RMK AO1
KAUS 300153Z 16009KT 10SM CLR 21/14 A3004 RMK AO2 SLP169 T02110144
KAUW 300154Z AUTO 29009KT 10SM OVC049 03/M01 A2977 RMK AO2 RAB09E20 SLP098 P0000 T00331006
KAVC 300216Z AUTO 17004KT 10SM CLR 03/M06 A3028 RMK AO2 T00261064
KAVK 300210Z AUTO 02005KT 10SM FEW046 15/00 A3016 RMK AO2
KAVL 300154Z 17009KT 10SM CLR 06/M08 A3020 RMK AO2 SLP233 T00561078
KAVP 300154Z AUTO 23007KT 10SM CLR 03/M14 A3005 RMK AO2 SLP184 T00281144
KAVQ 300155Z AUTO 23005KT 10SM CLR 28/M03 A2998 RMK AO2 T02781033
KAVX 300151Z AUTO 24004KT 10SM CLR 21/01 A3002 RMK AO2 SLP146 T02060011
KAWG 300155Z AUTO 30010KT 10SM CLR 09/M01 A2999 RMK AO2
KAWM 300204Z AUTO 00000KT 1/4SM HZ CLR 14/12 A3005 RMK AO2 T01440117
KAWO 300215Z AUTO 14010KT 10SM OVC037 14/07 A3017 RMK AO1
KAXA 300155Z AUTO 32008KT 10SM CLR 08/M03 A3003 RMK AO2
KAXH 300155Z AUTO 16006KT 10SM CLR 22/20 A3014 RMK AO2 T02220203
KAXN 300153Z AUTO 26006KT 10SM BKN080 OVC095 04/M03 A2995 RMK AO2 SLP154 T00391033
KAXS 300215Z AUTO 05008KT 10SM CLR 18/00 A3014 RMK AO2 T01841004
KAXV 300214Z AUTO 19012KT 10SM OVC046 05/00 A2990 RMK AO2
KAXX 300215Z AUTO 15018G31KT 10SM -DZ SCT033 BKN050 OVC080 09/00 A3041 RMK AO2 T00860000
KAYS 300215Z AUTO 14004KT 10SM CLR 11/05 A3034 RMK AO2 T01100047
KAZC 300215Z AUTO 31006KT 10SM CLR 20/M07 A3015 RMK AO2 T02041070
KAZE 300155Z AUTO 14006KT 10SM CLR 10/03 A3032 RMK AO2
KAZO 300200Z 24010KT 7SM -RA BKN024 OVC033 05/02 A2978 RMK AO2 RAB0154 P0000 T00500017 $
KBAB 300158Z AUTO 08004KT 10SM CLR 25/08 A2995 RMK AO2 SLP145 T02480075 $
KBAC 300215Z AUTO 29006KT 10SM BKN075 04/M01 A2993 RMK AO2
KBAD 300158Z AUTO 19008KT 10SM CLR 23/13 A3005 RMK AO2 SLP178 T02280133 $
KBAF 300153Z AUTO 28003KT 10SM CLR M02/M12 A3008 RMK AO2 SLP194 T10221117
KBAK 300045Z 32005KT 10SM -RA OVC046 05/02 A2996
KBAN 300152Z AUTO VRB04KT 10SM SCT090 BKN110 12/00 A3022 RMK AO2 RAE24 SLP221 P0001 T01170000 $
KBAX 300215Z AUTO 22017G24KT 10SM OVC025 02/M01 A2966 RMK AO2 T00201011
KBAZ 300151Z AUTO 17011KT 10SM CLR 22/17 A3004 RMK AO2 SLP167 T02220172
KBBB 300213Z AUTO 29003KT 10SM CLR 03/M02 A2997 RMK AO2
KBBD 300215Z AUTO 27017KT 230V300 10SM CLR 24/11 A3005 RMK
KBBF 300215Z AUTO 18019KT 6SM HZ CLR 22/19 A3013 RMK A01
KBBG 300215Z AUTO 00000KT 10SM FEW070 13/07 A3012 RMK AO2
KBBP 300215Z AUTO 18003KT 10SM CLR 07/ A3030 RMK AO2
KBBW 300153Z AUTO 00000KT 10SM CLR 04/M09 A3014 RMK AO2 SLP212 T00391094
KBCB 300215Z AUTO 21005KT 10SM CLR 04/M11 A3015 RMK AO2 T00411110
KBCE 300153Z AUTO 00000KT 10SM CLR 08/M01 A3028 RMK AO2 SLP205 T00831006
KBCK 300215Z AUTO 31008G16KT 10SM CLR 08/M04 A2985 RMK AO2 T00781039
KBCT 300147Z 02010KT 10SM SCT032 18/07 A3029
KBDE 300153Z AUTO 28007KT 10SM CLR 04/M03 A2981 RMK AO2 SLP106 T00391033 TSNO
KBDG 300155Z AUTO 33008KT 10SM CLR 15/M10 A3024 RMK AO1 T01531096
KBDH 300215Z AUTO 27004KT 10SM CLR 04/M02 A2999 RMK AO2
KBDL 300151Z 17006KT 10SM SCT250 00/M13 A3008 RMK AO2 SLP188 T00001128
KBDN 300215Z AUTO 35008KT 10SM CLR 15/00 A3015 RMK AO2
KBDR 300152Z AUTO 20012KT 10SM CLR 02/M04 A3013 RMK AO2 SLP202 T00221039 TSNO
KBDU 300217Z AUTO 36003KT 10SM CLR 12/M02 A3016 RMK AO2
KBEA 300215Z AUTO 16013G18KT 10SM CLR 20/17 A3008 RMK AO2 T02020170
KBED 300156Z 22004KT 10SM CLR M01/M13 A3009 RMK AO2 SLP207 T10061128
KBEH 300153Z AUTO 26019G26KT 10SM FEW023 OVC034 05/02 A2983 RMK AO2 PK WND 23027/0138 SLP106 T00500022
KBFD 300153Z AUTO VRB06G15KT 10SM BKN085 OVC110 02/M14 A2992 RMK AO2 SLP153 T00171139
KBFF 300153Z AUTO 11004KT 10SM CLR 11/M05 A3012 RMK AO2 SLP190 T01111050
KBFI 300153Z 18004KT 10SM BKN043 OVC050 16/08 A3017 RMK AO2 SLP216 T01610078
KBFL 300154Z AUTO 30007KT 10SM CLR 27/00 A2997 RMK AO2 SLP144 T02720000 TSNO
KBFM 300153Z AUTO 12007KT 10SM FEW023 BKN031 OVC049 17/13 A3027 RMK AO2 SLP251 T01720128
KBFW 300214Z AUTO 28005KT 10SM CLR 05/M03 A2974 RMK AO2
KBGD 300151Z AUTO 05006KT 10SM CLR 18/M06 A3020 RMK AO2 SLP200 T01831056
KBGE 300215Z AUTO 20003KT 10SM CLR 15/08 A3031 RMK AO2
KBGF 300215Z AUTO 18008KT 10SM CLR 12/01 A3015 RMK
KBGM 300153Z 19009KT 10SM CLR 01/M12 A2998 RMK AO2 SLP170 T00061122 $
KBGR 300153Z 20007KT 10SM CLR M02/M07 A3004 RMK AO2 SLP174 T10171067
KBHB 300215Z 20006KT 10SM CLR M02/M04 A3007 RMK AO1
KBHC 300215Z AUTO 14005KT 10SM CLR 10/02 A3034 RMK AO2
KBHK 300151Z AUTO 25008KT 10SM CLR 09/M01 A3000 RMK AO2 SLP170 T00891006
KBHM 300153Z VRB03KT 10SM CLR 14/03 A3020 RMK AO2 SLP227 T01390033
KBID 300215Z AUTO 23009KT 10SM CLR 02/M03 A3014 RMK AO1
KBIE 300155Z AUTO 32006KT 10SM CLR 04/M03 A3015 RMK AO2 T00431030
KBIF 300158Z AUTO 28005KT 10SM CLR 25/M12 A3010 RMK AO2 SLP143 T02471117
KBIH 300156Z AUTO 14007KT 10SM CLR 22/M12 A3004 RMK AO2 SLP139 T02221117
KBIJ 300155Z AUTO 00000KT 10SM CLR 11/06 A3030 RMK AO2
KBIL 300153Z 31004KT 10SM SCT120 BKN250 14/M07 A3002 RMK AO2 SLP165 ACSL ALQDS T01391072
KBIS 300152Z AUTO 00000KT 10SM CLR 11/M03 A2997 RMK AO2 SLP160 T01061028
KBIV 300209Z AUTO 28016G25KT 10SM FEW023 SCT028 OVC036 06/01 A2978 RMK AO2 PK WND 25026/0155 T00560011
KBIX 300158Z AUTO 16005KT 10SM OVC055 19/17 A3024 RMK AO2 SLP243 T01920168
KBJC 300147Z 06007KT 50SM FEW150 SCT200 14/M03 A3016
KBJI 300212Z AUTO 25005KT 10SM CLR 03/M03 A2987 RMK AO2 T00331035
KBJJ 300205Z AUTO 22013KT 7SM -RA BKN021 BKN028 OVC036 02/00 A2995 RMK AO2 P0001 T00170000 FZRANO TSNO $
KBKB 300154Z AUTO 10SM CLR 22/15 A3012 RMK AO2 SLP226 T02170150
KBKD 300155Z AUTO 02009G14KT 10SM CLR 24/09 A3005 RMK AO2 T02400093
KBKE 300153Z AUTO 10010KT 10SM CLR 14/01 A3015 RMK AO2 SLP220 T01390006 TSNO
KBKF 300158Z 16010KT 10SM SCT200 12/M04 A3017 RMK AO2A SLP187 T01221041
KBKL 300153Z 21021G30KT 10SM FEW043 OVC050 07/M07 A2990 RMK AO2 PK WND 19032/0142 RAB04E13 SLP131 P0000 T00671072
KBKS 300215Z AUTO 15012KT 10SM CLR 22/16 A3007 RMK AO1 T02230162
KBKT 300155Z AUTO 17006KT 10SM CLR 04/M10 A3021 RMK AO1 T00361098
KBKV 300153Z AUTO 07007KT 10SM CLR 13/04 A3033 RMK AO2 SLP271 T01330039
KBKW 300151Z AUTO 17010KT 10SM BKN090 OVC110 08/M16 A3002 RMK AO2 SLP189 T00781156 $
KBLF 300152Z AUTO 17009G16KT 140V200 10SM CLR 07/M13 A3005 RMK AO2 SLP185 T00721133
KBLH 300152Z AUTO 00000KT 10SM CLR 33/M01 A2987 RMK AO2 SLP109 T03281006
KBLI 300153Z 00000KT 3SM -RA BR FEW004 SCT029 OVC033 12/10 A3015 RMK AO2 SLP216 P0004 T01170100
KBLM 300215Z AUTO 21006KT 10SM CLR 01/M08 A3017 RMK AO1
KBLU 300152Z AUTO 27004KT 10SM CLR 17/02 A3020 RMK AO2 SLP161 T01670022
KBLV 300158Z AUTO 24002KT 10SM CLR 08/07 A3001 RMK AO2 SLP168 T00800069 $
KBMC 300155Z AUTO 00000KT 10SM CLR 16/M10 A3019 RMK AO1 T01561099
KBMG 300153Z AUTO 24006KT 10SM OVC046 08/04 A2998 RMK AO2 RAE0055 SLP156 P0000 T00780039
KBMI 300156Z 28014KT 10SM FEW041 11/06 A2994 RMK AO2 T01050055 SLP148
KBML 300152Z AUTO 18003KT 10SM CLR M04/M11 A2997 RMK AO2 SLP168 T10441106
KBMQ 300153Z AUTO 18005KT 10SM CLR 22/13 A3006 RMK AO2 SLP169 T02220128 $
KBMT 300215Z AUTO 17005KT 10SM SCT028 19/17 A3015 RMK AO2 T01900173
KBNA 300153Z 21008G16KT 10SM SCT150 13/03 A3011 RMK AO2 PRESRR SLP195 T01330028
KBNL 300215Z AUTO 16007KT 10SM CLR 08/M02 A3032 RMK AO2
KBNO 300153Z AUTO 05004KT 10SM CLR 14/M01 A3016 RMK AO2 SLP213 T01441011
KBNW 300155Z AUTO 31007KT 10SM CLR 10/M05 A3003 RMK AO2
KBOI 300153Z 30005KT 10SM CLR 17/M03 A3016 RMK AO2 SLP210 T01671033
KBOK 300156Z AUTO 31005KT 8SM CLR 14/10 A3015 RMK AO2 T01440100 SLP210
KBOS 300154Z 18010KT 10SM CLR 01/M09 A3012 RMK AO2 SLP197 T00111089
KBOW 300215Z AUTO 08005KT 10SM CLR 12/04 A3034 RMK AO2
KBPC 300215Z AUTO 08003KT 10SM CLR 16/M04 A3020 RMK AO2
KBPG 300155Z AUTO 04018G23KT 10SM CLR 23/03 A3013 RMK AO2 T02330030
KBPI 300153Z AUTO 36011KT 10SM CLR 08/M11 A3023 RMK AO2 SLP226 T00831106
KBPK 300153Z AUTO 33005KT 10SM FEW110 16/07 A3009 RMK AO2 RAB18E27 SLP188 P0000 T01560072
KBPT 300153Z 17008KT 10SM CLR 20/17 A3015 RMK AO2 SLP208 T02000172 $
KBQK 300155Z AUTO 09003KT 10SM CLR 06/03 A3037 RMK AO1
KBQP 300155Z AUTO 20010G17KT 10SM CLR 23/13 A3008 RMK AO2 T02320130
KBQX 300215Z AUTO 16014KT 9SM CLR 21/18 A3015 RMK A01
KBRD 300153Z AUTO 30008KT 10SM CLR 07/M06 A2990 RMK AO2 SLP138 T00671056
KBRL 300153Z AUTO 30006KT 10SM CLR 10/01 A2998 RMK AO2 SLP157 T01000006 $
KBRO 300153Z 15010KT 10SM CLR 21/19 A3011 RMK AO2 SLP194 T02110189
KBTA 300215Z AUTO 29004KT 10SM CLR 11/M07 A3011 RMK AO2 T01091069
KBTL 300153Z 22016KT 5SM -RA BR BKN025 BKN030 OVC036 03/01 A2976 RMK AO2 PK WND 21028/0119 SLP086 P0000 T00330011
KBTM 300153Z AUTO 30007KT 10SM CLR 09/M04 A3016 RMK AO2 SLP225 T00941039
KBTP 300215Z AUTO 18006KT 10SM OVC065 04/M13 A2997 RMK AO1
KBTR 300153Z 19009KT 10SM CLR 21/14 A3019 RMK AO2 SLP221 T02110144
KBTV 300154Z 18012G22KT 10SM CLR 02/M12 A2997 RMK AO2 SLP154 T00221122
KBUF 300154Z 23022G41KT 5SM -RA SQ BKN055 OVC070 04/M08 A2990 RMK AO2 PK WND 20041/0148 RAB50 SLP131 P0000 T00441083
KBUR 300153Z 17005KT 10SM CLR 24/06 A2997 RMK AO2 SLP136 T02390056
KBUU 300155Z AUTO 29008KT 10SM SCT029 BKN037 OVC055 05/01 A2985 RMK AO2 T00480011
KBUY 300154Z AUTO 18006KT 10SM CLR 07/M11 A3023 RMK AO2 SLP237 T00721111
KBVE 300151Z AUTO 15008KT 10SM FEW047 19/17 A3025 RMK AO2 SLP243 T01940167
KBVI 292047Z 20012G16KT 10SM CLR 07/M12 A3010
KBVN 300215Z AUTO 00000KT 10SM CLR 05/M07 A3013 RMK AO2 T00491072
KBVO 300153Z AUTO 02003KT 10SM CLR 09/06 A3012 RMK AO2 SLP198 T00940061
KBVS 300155Z AUTO 10SM OVC033 14/09 A3015 RMK A01
KBVU 300215Z AUTO 09004KT 10SM CLR 28/M07 A2997 RMK AO2
KBVX 300215Z 00000KT 10SM BKN075 16/10 A3008 RMK AO1
KBVY 300153Z AUTO 00000KT 10SM CLR 00/M07 A3010 RMK AO2 SLP191 T00001067
KBWD 300155Z AUTO 03009G15KT 10SM FEW047 FEW060 24/10 A3004 RMK AO2
KBWG 300153Z AUTO 22007KT 10SM BKN055 13/02 A3009 RMK AO2 SLP190 T01330017 $
KBWI 300154Z 15005KT 10SM BKN250 02/M11 A3016 RMK AO2 SLP216 T00221106
KBWP 300150Z AUTO 27005KT 10SM OVC095 05/M01 A2995 RMK AO1
KBXA 300215Z AUTO 16005KT 10SM 20/15 A3022 RMK AO2 T01950154
KBXK 300155Z AUTO 04003KT 10SM SCT120 30/M05 A2992 RMK AO1
KBYG 300153Z AUTO 17005KT 10SM CLR 09/M04 A3008 RMK AO2 SLP177 T00941044 $
KBYI 300153Z AUTO 29004KT 10SM CLR 13/M06 A3017 RMK AO2 SLP217 T01331061
KBYS 300155Z AUTO 07004KT 10SM CLR 28/M09 A2998 RMK AO2 SLP117 T02751093 $
KBYY 300215Z AUTO 16005KT 10SM CLR 20/18 A3014 RMK AO2 T01990191
KBZN 300156Z 33008KT 10SM OVC100 12/M04 A3009 RMK AO2 SLP201 T01171039
KC09 300155Z AUTO 31010KT 10SM SCT044 06/01 A2991 RMK AO2 T00640014
KC29 300155Z AUTO 25003KT 10SM BKN035 OVC041 04/01 A2985 RMK AO1 T00420010
KC35 300155Z AUTO 00000KT 10SM SCT050 03/01 A2984 RMK AO2 T00250013
KC75 300155Z AUTO 31005KT 10SM CLR 09/03 A2993 RMK AO2 T00850030
KCAD 300215Z AUTO 27007G14KT 10SM -SN OVC007 01/00 A2959 RMK AO2 T00110002
KCAE 300156Z 22004KT 10SM CLR 08/M06 A3030 RMK AO2 SLP260 T00781061
KCAG 300153Z AUTO 22007KT 10SM CLR 08/M06 A3019 RMK AO2 SLP220 T00831061 $
KCAK 300151Z 23023G31KT 10SM OVC047 06/M08 A2993 RMK AO2 PK WND 23036/0132 SLP146 T00611083 $
KCAO 300155Z AUTO 12007KT 9SM BKN036 13/M04 A3025 RMK AO2 SLP203 T01331039
KCAR 300154Z AUTO 21006KT 10SM CLR M02/M13 A2992 RMK AO2 SLP143 T10171128
KCAV 300155Z AUTO 32008KT 10SM CLR 05/M01 A3002 RMK AO2
KCBE 300213Z AUTO 19003KT 10SM CLR 06/M12 A3007 RMK AO1
KCBF 300155Z AUTO 30005KT 10SM CLR 12/M05 A3011 RMK AO2
KCBG 300216Z AUTO 27003KT 10SM CLR 07/M02 A2989 RMK AO2
KCBK 300155Z AUTO 10005KT 10SM CLR 11/M03 A3019 RMK AO2
KCBM 300203Z AUTO 15008KT 2 1/2SM R13C/3500FT HZ FEW150 14/08 A3010 RMK AO2 VIS 2 1/2V3 $
KCCA 300215Z AUTO 00000KT 10SM SCT075 14/11 A3010 RMK AO2
KCCO 300215Z AUTO 18003KT 10SM SCT042 14/01 A3026 RMK AO2 T01400013
KCCR 300153Z 24007KT 10SM CLR 24/08 A2999 RMK AO2 SLP142 T02440078
KCCU 300215Z AUTO 27016G22KT 10SM CLR 03/M23 A3046 RMK AO2
KCCY 300215Z AUTO 31011KT 10SM CLR 06/01 A2999 RMK AO2
KCDA 300215Z AUTO 00000KT 10SM CLR M01/M17 A2998 RMK AO2 T10061168
KCDC 300153Z AUTO 36005KT 10SM CLR 16/M07 A3016 RMK AO2 SLP179 T01611067
KCDD 300121Z AUTO 27003KT 10SM CLR 03/M04 A2979 RMK AO2
KCDH 300155Z AUTO 10SM CLR 20/12 A3003 RMK AO2
KCDJ 300152Z AUTO 27004KT 12/02 A3010 RMK AO1 SLP196 T01170017
KCDN 300215Z AUTO 00000KT 10SM CLR 06/M06 A3031 RMK AO2 TSNO
KCDR 300153Z AUTO 14005KT 10SM CLR 09/M02 A3006 RMK AO2 SLP189 T00891022
KCDS 300153Z AUTO 05007KT 10SM CLR 20/M05 A3014 RMK AO2 SLP191 T02001050
KCDW 300153Z 22004KT 10SM CLR 03/M14 A3014 RMK AO2 SLP214 T00331139
KCEC 300156Z AUTO 33007KT 7SM CLR 12/10 A3018 RMK AO2 SLP219 T01220100
KCEF 300158Z AUTO 16002KT 10SM FEW160 M03/M09 A3007 RMK AO2 SLP192 T10341095
KCEU 300154Z AUTO 00000KT 10SM FEW055 09/M05 A3026 RMK AO2 SLP248 T00941050
KCEW 300153Z AUTO 00000KT 10SM CLR 12/08 A3031 RMK AO2 SLP264 T01170078
KCEY 300215Z AUTO 20008KT 150V230 10SM BKN120 13/05 A3005 RMK AO1
KCEZ 300153Z AUTO 15004KT 10SM CLR 13/M07 A3019 RMK AO2 SLP188 T01331072
KCFD 300155Z AUTO 17010G21KT 10SM CLR 21/16 A3008 RMK AO2 T02120159
KCFE 300145Z AUTO 27005KT 10SM CLR 07/M03 A2995 RMK AO2
KCFS 300215Z AUTO 21015G23KT 10SM BKN023 OVC029 03/00 A2967 RMK AO2 T00251002
KCFV 300152Z AUTO 20003KT 10SM CLR 15/07 A3011 RMK AO2 SLP197 T01500067
KCGC 300215Z AUTO 00000KT 10SM CLR 11/05 A3034 RMK AO2
KCGE 300212Z AUTO 17004KT 10SM CLR 02/M04 A3022 RMK AO1
KCGF 300145Z 20010G20KT 10SM SCT040 OVC060 07/M09 A2990
KCGI 300153Z AUTO 26009KT 10SM CLR 12/08 A3008 RMK AO2 SLP186 T01170083 TSNO
KCGS 300210Z AUTO 16004KT 10SM CLR 05/M13 A3016 RMK AO1
KCGZ 300215Z AUTO 00000KT 10SM CLR 30/M04 A2994 RMK AO1
KCHA 300153Z 17009KT 10SM OVC039 15/M02 A3017 RMK AO2 SLP217 T01501017
KCHD 300147Z 35005KT 15SM BKN200 31/M07 A2993
KCHK 300155Z AUTO 04005KT 10SM CLR 15/07 A3012 RMK AO2
KCHO 300153Z 18011KT 10SM CLR 07/M13 A3014 RMK AO2 SLP208 T00671128
KCHS 300156Z 19003KT 10SM CLR 07/00 A3035 RMK AO2 SLP277 T00720000
KCIC 300215Z AUTO 00000KT 10SM CLR 27/04 A2996 RMK AO1
KCID 300152Z 31010KT 10SM CLR 07/M02 A2997 RMK AO2 SLP154 T00721017
KCIN 300155Z AUTO 30008KT 10SM CLR 07/M05 A3006 RMK AO2
KCIR 300215Z AUTO 26006KT 10SM SCT060 BKN110 13/09 A3008 RMK AO2 T01280090
KCIU 300215Z AUTO 24008KT 5SM OVC005 01/00 A2946 RMK AO1
KCJR 300155Z AUTO 17005KT 10SM CLR 06/M13 A3014 RMK AO2
KCKB 300153Z 00000KT 10SM SCT060 OVC075 06/M12 A3000 RMK AO2 SLP165 T00611122
KCKC 300213Z AUTO 30010G17KT 229V319 10SM SCT050 01/M04 A2968 RMK AO2
KCKF 300215Z AUTO 00000KT 10SM CLR 10/01 A3032 RMK AO2 T01040014
KCKI 300215Z AUTO 00000KT 10SM CLR 03/03 A3033 RMK AO2
KCKM 300155Z AUTO 16005KT CLR 18/14 A3006 RMK AO1
KCKN 300215Z AUTO 27006KT 10SM CLR 03/M03 A2990 RMK AO2
KCKP 300155Z AUTO 33006KT 10SM CLR 08/M05 A3007 RMK AO2 T00831051
KCKV 300152Z AUTO 24003KT 10SM CLR 14/05 A3009 RMK AO2 SLP190 T01440050 $
KCLE 300151Z 23020G29KT 10SM -RA BKN040 OVC048 06/M05 A2994 RMK AO2 PK WND 20033/0122 RAB31 SLP146 P0000 T00561050 $
KCLI 300215Z AUTO 29010G15KT 10SM SCT047 OVC050 04/00 A2977 RMK AO2
KCLK 300215Z AUTO 04010KT 10SM CLR 14/M01 A3016 RMK AO2
KCLL 300153Z AUTO 17011G19KT 10SM CLR 22/16 A3006 RMK AO2 PK WND 16026/0130 SLP176 T02170156
KCLM 300153Z AUTO 00000KT 10SM OVC013 12/09 A3014 RMK AO2 SLP209 T01170094
KCLS 300215Z AUTO 00000KT 10SM OVC070 16/10 A3017 RMK AO2
KCLT 300152Z 19008KT 10SM FEW250 07/M09 A3026 RMK AO2 SLP247 T00721089 $
KCLW 300215Z AUTO 02003KT 10SM CLR 15/07 A3031 RMK AO2
KCMA 300155Z 24006KT 10SM CLR 19/13 A2997 RMK AO2 SLP158 T01890128
KCMD 300215Z AUTO 16008KT 10SM CLR 12/03 A3016 RMK AO2 T01200028
KCMH 300151Z 22003KT 10SM -RA OVC055 05/01 A2998 RMK AO2 PK WND 22028/0101 RAB0057PLB06E21 SLP157 P0003 T00500006
KCMI 300153Z 22011KT 10SM FEW048 OVC060 08/04 A2993 RMK AO2 SLP140 T00780044
KCMR 300215Z AUTO 20006KT 10SM CLR 13/M09 A3032 RMK AO2
KCMX 300153Z AUTO 31016G28KT 10SM FEW028 SCT045 OVC055 02/M01 A2964 RMK AO2 PK WND 30028/0148 SNB0054E21 SLP047 P0001 T00171011
KCMY 300155Z AUTO 28007KT 10SM CLR 06/M01 A2986 RMK AO2 T00631006
KCNB 300214Z AUTO 25005KT 10SM CLR 06/M03 A3002 RMK AO2 T00551035
KCNC 300155Z AUTO 29007KT 10SM CLR 10/M04 A3005 RMK AO2
KCNI 300215Z AUTO 15003KT 10SM OVC046 13/M12 A3024 RMK AO2
KCNK 300155Z AUTO 00000KT 10SM CLR 12/M06 A3016 RMK AO2 SLP212 T01171056
KCNM 300153Z AUTO 08009KT 10SM CLR 22/M01 A3007 RMK AO2 SLP142 T02221006
KCNO 300153Z 27009KT 10SM FEW200 23/06 A2997 RMK AO2 SLP146 T02330061
KCNU 300152Z AUTO 36010KT 10SM CLR 16/04 A3012 RMK AO2 SLP200 T01560039
KCNW 300153Z 17007KT 10SM SKC 23/13 A3002
KCNY 300153Z AUTO 26005KT 10SM CLR 17/M19 A3009 RMK AO2 SLP164 T01671189
KCOD 300215Z 26011G23KT 10SM CLR 13/M12 A3009 RMK AO1
KCOE 300215Z AUTO 15005KT 10SM CLR 12/03 A3014 RMK AO1
KCOF 300158Z AUTO 36007KT 10SM CLR 15/04 A3032 RMK AO2 SLP272 T01460042 $
KCOM 300155Z AUTO 02012G17KT 10SM CLR 24/11 A3006 RMK AO2 T02350110
KCON 300151Z AUTO 00000KT 10SM CLR M03/M08 A3007 RMK AO2 SLP187 T10331078
KCOQ 300216Z AUTO 28005KT 10SM CLR 04/M05 A2984 RMK AO2
KCOS 300154Z 15010KT 10SM FEW230 11/M06 A3024 RMK AO2 SLP216 T01061061
KCOT 300153Z AUTO 15010KT 10SM CLR 26/15 A3001 RMK AO2 SLP156 T02560150
KCOU 300154Z 33014KT 10SM FEW050 13/06 A3007 RMK AO2 SLP182 T01280056
KCPC 300155Z AUTO 00000KT 10SM CLR 04/M01 A3031 RMK AO2 T00361009
KCPK 300215Z AUTO 00000KT 10SM CLR 03/M03 A3027 RMK AO2
KCPR 300153Z 07004KT 10SM CLR 08/M09 A3011 RMK AO2 SLP196 T00781089
KCPS 300153Z 24004KT 10SM CLR 09/06 A3002 RMK AO2 SLP165 T00940056
KCPT 300155Z AUTO 16009KT 10SM CLR 23/14 A3002 RMK AO2
KCPW 300215Z AUTO 27006KT 10SM SCT025 BKN080 OVC090 02/M09 A3051 RMK AO2
KCQB 300155Z AUTO 00000KT 10SM CLR 18/10 A3012 RMK AO2
KCQC 300153Z AUTO 11010KT 10SM CLR 14/M03 A3030 RMK AO2 SLP201 T01391028
KCQF 300155Z AUTO 00000KT 10SM SCT030 BKN039 BKN045 16/13 A3026 RMK AO2
KCQM 300214Z AUTO 26003KT 10SM CLR 02/M04 A2980 RMK AO2
KCQT 300147Z AUTO 00000KT 10SM CLR 21/12 A2997 RMK AO2 SLP147 T02060122
KCQW 300215Z AUTO 20004KT 10SM CLR 04/M09 A3029 RMK AO2
KCQX 300152Z AUTO 22006KT 10SM CLR 00/M07 A3016 RMK AO2 SLP216 T00001072
KCRE 300153Z AUTO 21005KT 10SM CLR 07/M01 A3034 RMK AO1 SLP273 T00671006
KCRG 300153Z 00000KT 10SM CLR 09/05 A3036 RMK AO2 SLP279 T00940050
KCRP 300151Z 16017G25KT 10SM CLR 21/18 A3008 RMK AO2 PK WND 15026/0104 SLP185 T02110178 $
KCRQ 300153Z 25005KT 10SM CLR 18/14 A2998 RMK AO2 SLP151 T01830144
KCRS 300153Z AUTO 16008KT 10SM CLR 21/13 A3004 RMK AO2 SLP169 T02110133
KCRW 300154Z 21007KT 10SM BKN090 OVC120 11/M16 A2999 RMK AO2 SLP161 T01111156
KCRX 300215Z AUTO 16006KT 10SM CLR 14/07 A3008 RMK AO2
KCSG 300151Z AUTO 20004KT 10SM FEW050 14/01 A3028 RMK AO2 SLP253 T01440006
KCSM 300153Z AUTO 05008KT 10SM CLR 16/M01 A3016 RMK AO2 SLP205 T01561006
KCSQ 300155Z AUTO 30008KT 10SM CLR 07/M03 A3009 RMK AO2
KCSV 300153Z AUTO 20009G19KT 10SM CLR 11/M03 A3010 RMK AO2 SLP197 T01111033 $
KCTB 300156Z AUTO 24018KT 10SM CLR 09/M02 A2997 RMK AO2 SLP153 T00891017
KCTY 300153Z AUTO 00000KT 10/06 A3032 RMK AO1 SLP266 T01000061
KCTZ 300155Z AUTO 17003KT 10SM CLR 04/M04 A3030 RMK AO2 T00441041
KCUB 300153Z AUTO 00000KT 10SM CLR 07/M03 A3032 RMK AO2 SLP266 T00721033
KCUH 300215Z AUTO 00000KT 10SM CLR 11/10 A3012 RMK AO2
KCUL 300215Z AUTO 22006KT 10SM BKN050 BKN110 12/05 A3004 RMK AO2 T01160046
KCUT 300153Z AUTO 00000KT 10SM CLR 07/M07 A3010 RMK AO2 SLP185 T00721067
KCVB 300155Z AUTO 14007KT 10SM CLR 23/14 A3006 RMK AO2 T02250139
KCVC 300215Z AUTO 18005KT 10SM OVC055 13/M02 A3027 RMK AO2
KCVG 300217Z 30013KT 7SM -RA BKN046 OVC070 07/03 A2998 RMK AO2 WSHFT 0157 P0002
KCVH 300210Z AUTO 22004KT 10SM CLR 21/06 A3002 RMK AO1
KCVN 300215Z AUTO 05007KT 10SM CLR 12/M03 A3025 RMK AO1
KCVO 300215Z AUTO 31006KT 10SM CLR 17/09 A3018 RMK AO1
KCVS 300058Z AUTO 09012KT 10SM CLR 19/M03 A3021 RMK AO2 SLP195 T01861033 $
KCVW 300215Z AUTO 18007KT 10SM 20/19 A3019 RMK A01
KCVX 300215Z AUTO 26022G25KT 7SM -RA OVC013 02/01 A2957 RMK AO2 T00160012
KCWA 300145Z 30005KT 10SM OVC047 02/00 A2980
KCWC 300215Z AUTO 01009KT 10SM CLR 21/07 A3009 RMK AO2 T02110071
KCWF 292255Z 21015G23KT 10SM SCT033 23/16 A3015
KCWI 300215Z 30008KT 10SM CLR 03/M02 A2997 RMK AO1
KCWN 300156Z AUTO 19018G26KT 10SM CLR 11/M07 A2992 RMK AO2 SLP096 T01051067
KCWV 300215Z AUTO 00000KT 10SM CLR 08/02 A3034 RMK AO2
KCXE 300155Z AUTO 16003KT 10SM CLR 06/M06 A3021 RMK AO1 T00561056
KCXO 300153Z 16008KT 10SM CLR 22/14 A3010 RMK AO2 SLP192 T02170139
KCXP 300215Z AUTO 06012G15KT 10SM CLR 19/M13 A3014 RMK AO2
KCXY 300156Z AUTO 17008KT 10SM CLR 04/M13 A3011 RMK AO2 SLP200 T00391133
KCYS 300153Z 21012KT 10SM CLR 11/M06 A3017 RMK AO2 SLP191 T01061061
KCZT 300215Z AUTO 14004KT 10SM CLR 24/14 A2999 RMK AO2
KCZZ 300152Z AUTO 21008KT 20/06 A3001 RMK AO1 SLP143 T02000056
KD07 300156Z AUTO 29004KT 11/M04 A3001 RMK AO1 SLP176 T01111039
KD25 300155Z AUTO 31013KT 10SM SCT046 BKN050 02/00 A2975 RMK AO2 T00151005
KD39 300212Z AUTO 27006KT 10SM BKN090 03/M02 A2994 RMK AO2 T00331025
KD50 300155Z AUTO 11005KT 10SM SCT080 07/02 A2989 RMK AO2
KD57 300215Z AUTO 00000KT 10SM CLR 04/M01 A2995 RMK AO2
KD60 300155Z AUTO 21005KT 10SM OVC070 06/01 A2993 RMK AO2
KD95 300214Z AUTO 23017G25KT 10SM BKN029 OVC035 03/M01 A2970 RMK AO2 T00321014
KDAA 300158Z AUTO 13006KT 10SM CLR 02/M09 A3017 RMK AO2 SLP220 T00161094
KDAB 300153Z 33004KT 10SM SCT045 13/06 A3037 RMK AO2 SLP281 T01280061
KDAG 300150Z AUTO 01010KT 10SM CLR 29/M10 A2992 RMK AO2 SLP112 T02891100
KDAL 300153Z 17010KT 10SM FEW080 SCT250 25/12 A3001 RMK AO2 SLP155 T02500122
KDAN 300153Z AUTO 20005KT 10SM CLR 08/M11 A3021 RMK AO2 SLP227 T00781111
KDAW 300151Z AUTO 00000KT 10SM CLR M01/M13 A3007 RMK AO2 SLP182 T10061133
KDAY 300156Z 21007KT 10SM OVC044 06/01 A2996 RMK AO2 RAE42 SLP151 P0001 T00560006
KDBN 300155Z AUTO 00000KT 10SM CLR 11/05 A3033 RMK AO2
KDBQ 300153Z 31015G25KT 10SM CLR 08/M02 A2993 RMK AO2 PK WND 30029/0056 SLP143 T00781017
KDCA 300152Z 17010KT 10SM BKN240 06/M09 A3018 RMK AO2 SLP219 T00611094 $
KDCM 300215Z AUTO 18004KT 10SM CLR 08/M08 A3027 RMK AO2
KDCU 300153Z AUTO 14009KT 10SM CLR 11/04 A3014 RMK AO2 SLP206 T01060044
KDCY 300155Z AUTO 25008KT 10SM OVC046 10/05 A3001 RMK AO2 T00990046
KDDC 300152Z AUTO 01005KT 10SM CLR 12/M06 A3019 RMK AO2 SLP215 T01171056
KDDH 300154Z AUTO 00000KT 10SM CLR M03/M10 A3003 RMK AO2 SLP181 T10331100 $
KDEC 300154Z 24010KT 10SM FEW047 OVC060 11/05 A2996 RMK AO2 SLP149 T01060050
KDED 300215Z AUTO 05004KT 10SM A3035 RMK AO1
KDEH 300155Z AUTO 30008G14KT 270V330 10SM CLR 06/M01 A2993 RMK AO2
KDEN 300153Z 12007KT 10SM SCT220 09/M01 A3016 RMK AO2 SLP189 T00941011
KDEQ 300153Z AUTO 00000KT 10SM BKN080 OVC100 19/14 A3001 RMK AO2 SLP159 T01940139
KDET 300153Z 21020G28KT 10SM OVC044 07/M05 A2976 RMK AO2 PK WND 21030/0112 SLP083 T00671050
KDEW 300153Z AUTO 23005KT 10SM CLR 12/03 A3013 RMK AO2 SLP213 T01220033
KDFI 300153Z AUTO 20012G20KT 10SM OVC070 05/M01 A2984 RMK AO2 SLP111 T00501011 $
KDFW 300153Z 15007KT 10SM FEW060 BKN100 23/13 A3000 RMK AO2 SLP155 T02280128
KDGW 300153Z AUTO 00000KT 10SM CLR 10/M08 A3012 RMK AO2 SLP187 T01001083
KDHN 300153Z AUTO 20006KT 10SM CLR 12/05 A3032 RMK AO2 SLP267 T01220050 $
KDHT 300153Z AUTO 08006KT 10SM FEW047 15/M03 A3022 RMK AO2 SLP200 T01501033
KDIJ 300156Z AUTO 00000KT 10SM CLR 09/M06 A3024 RMK AO2 T00881061 SLP223
KDIK 300156Z AUTO 27003KT 10SM CLR 07/M02 A2995 RMK AO2 SLP156 T00721017 $
KDKB 300215Z AUTO 30008KT 10SM SCT048 03/00 A2990 RMK AO2 T00320000
KDKK 300153Z AUTO 20023G34KT 10SM -SN BKN055 OVC065 03/M06 A2992 RMK AO2 PK WND 21038/0119 RAB18E46SNB51 SLP139 P0000 T00331056
KDKR 300215Z AUTO 19007KT 10SM CLR 23/16 A3010 RMK AO2
KDLF 300158Z AUTO 15003KT 10SM CLR 24/14 A3000 RMK AO2 SLP150 T02430140 $
KDLH 300155Z 32013G19KT 10SM FEW055 05/M04 A2980 RMK AO2 SLP108 T00501044
KDLL 300150Z AUTO 00000KT 10SM CLR 02/00 A2984 RMK AO2 T00180002
KDLN 300153Z AUTO 27010KT 10SM FEW085 12/M06 A3014 RMK AO2 SLP205 T01171056
KDLP 300215Z AUTO 17009KT 10SM FEW004 BKN048 21/19 A3024 RMK A01
KDLS 300153Z AUTO 30012KT 10SM CLR 19/01 A3011 RMK AO2 SLP198 T01890011
KDLZ 300216Z AUTO 20007KT 10SM -RA OVC047 02/00 A2996 RMK AO2
KDMA 300058Z AUTO 31006KT 10SM CLR 30/M06 A3002 RMK AO2 SLP129 T02971061 $
KDMN 300153Z AUTO 28004KT 10SM CLR 22/M06 A3013 RMK AO2 SLP156 T02221061 $
KDMO 300153Z AUTO 33011KT 10SM CLR 13/05 A3011 RMK AO2 SLP197 T01280050
KDMW 300210Z AUTO 15007KT 10SM SCT085 03/M18 A3010 RMK AO2
KDNL 300153Z AUTO 19003KT 10SM CLR 11/M08 A3030 RMK AO2 SLP260 T01111083
KDNN 300155Z AUTO 00000KT 10SM OVC044 13/M01 A3022 RMK AO2
KDNS 300215Z AUTO 00000KT 10SM CLR 07/M05 A3008 RMK AO2
KDNV 300215Z AUTO 22014KT 10SM BKN049 OVC055 08/05 A2990 RMK AO2 T00780046
KDOV 300158Z AUTO 18004KT 10SM CLR 00/M09 A3021 RMK AO2 SLP234 T00031093 $
KDPA 300152Z 28011KT 10SM CLR 06/01 A2987 RMK AO2 PK WND 30032/0100 SLP122 T00610006
KDPL 300215Z AUTO 00000KT 10SM CLR 00/M02 A3031 RMK AO2 T00031025
KDQH 300215Z AUTO 15004KT 10SM CLR 11/03 A3035 RMK AO2
KDRA 300152Z AUTO 28005KT 10SM CLR 26/M12 A3002 RMK AO2 SLP127 T02561122
KDRI 300215Z AUTO 00000KT 10SM SCT027 20/16 A3016 RMK AO2 T01950161
KDRM 300216Z AUTO 21006KT 3SM -SN OVC004 00/00 A2948 RMK AO2 T00020001
KDRO 300153Z AUTO 27010KT 10SM CLR 17/M14 A3020 RMK AO2 SLP190 T01671139
KDRT 300153Z AUTO 10005KT 10SM CLR 26/12 A2998 RMK AO2 SLP141 T02560122
KDSM 300154Z 32010KT 10SM CLR 12/M06 A3005 RMK AO2 SLP177 T01221061
KDSV 300154Z AUTO 15011KT 10SM CLR 05/M12 A2991 RMK AO2 SLP145 T00501117
KDTA 300155Z AUTO 00000KT 10SM CLR 18/M14 A3016 RMK AO1 T01801141
KDTL 300215Z AUTO 27004KT 10SM CLR 06/M01 A2992 RMK AO2
KDTN 300153Z 19011KT 10SM CLR 23/13 A3005 RMK AO2 SLP175 T02280128
KDTO 300153Z 14008KT 10SM OVC085 26/12 A3003 RMK AO2 SLP161 T02560122
KDTS 300153Z AUTO 16007KT 140V200 10SM BKN038 17/11 A3030 RMK AO2 SLP258 T01720111 TSNO
KDTW 300153Z 19025G32KT 10SM BKN040 OVC050 06/M04 A2978 RMK AO2 PK WND 20032/0150 SLP089 T00611039
KDUA 300215Z AUTO 33006KT 10SM BKN090 OVC120 21/13 A3007 RMK AO2
KDUB 300155Z AUTO 29016KT 10SM CLR 06/M11 A3017 RMK AO2
KDUC 300215Z AUTO 03011KT 10SM CLR 20/06 A3010 RMK AO2
KDUG 300156Z AUTO 24005KT 10SM CLR 23/M04 A3012 RMK AO2 SLP153 T02281044
KDUH 300215Z AUTO 20016G23KT 10SM BKN050 OVC070 06/M01 A2981 RMK AO2
KDUJ 300153Z AUTO 22007KT 10SM BKN080 OVC095 03/M13 A2996 RMK AO2 SLP164 T00331133
KDUX 300215Z AUTO 07007KT 10SM CLR 13/M05 A3022 RMK AO2 T01281055
KDVK 300215Z AUTO 23008G14KT 10SM OVC060 12/M01 A3004 RMK AO2
KDVL 300215Z AUTO 29006KT 10SM CLR 06/M01 A2992 RMK AO1
KDVN 300152Z AUTO 30009KT 10SM CLR 06/M01 A2995 RMK AO2 SLP148 T00561006
KDVO 300215Z AUTO 00000KT 10SM CLR 19/11 A3001 RMK AO2
KDVP 300213Z AUTO 00000KT 10SM CLR 04/M06 A3004 RMK AO2 T00371061
KDVT 300153Z AUTO 00000KT 10SM CLR 30/M09 A2994 RMK AO2 SLP117 T03001094
KDWH 300153Z 19009G17KT 10SM CLR 22/16 A3012 RMK AO2 SLP196 T02170156
KDWU 300215Z AUTO 00000KT 10SM OVC065 08/M04 A2998 RMK AO1
KDWX 300155Z AUTO 00000KT 7SM CLR 12/M08 A3022 RMK AO2 T01211085
KDXR 300153Z 00000KT 10SM CLR M02/M09 A3012 RMK AO2 SLP202 T10171094 PWINO FZRANO
KDXX 300213Z AUTO 26004KT 10SM CLR 06/M03 A3000 RMK AO2
KDYA 300155Z AUTO 17009G14KT 10SM CLR 18/11 A3019 RMK AO2 T01780105
KDYB 300215Z AUTO 15003KT 10SM CLR 06/01 A3034 RMK AO1
KDYL 300154Z AUTO 20003KT 10SM CLR 01/M12 A3015 RMK AO2 SLP217 T00111117
KDYR 300215Z 00000KT 10SM SCT060 BKN110 15/05 A3008 RMK AO1
KDYS 300158Z AUTO 01011KT 10SM CLR 22/10 A3008 RMK AO2 SLP155 T02150100 $
KDYT 300214Z AUTO 00000KT 10SM CLR 06/M03 A2984 RMK AO2
KDZB 300215Z AUTO 00000KT 10SM CLR 22/13 A3006 RMK AO2 T02230133
KE11 300155Z AUTO 07008KT 10SM CLR 20/01 A3014 RMK AO2 T01990009
KE16 300215Z AUTO 28005KT 10SM CLR 23/03 A3002 RMK AO2
KE38 300155Z AUTO 00000KT 10SM CLR 18/02 A3021 RMK AO2 T01840015
KE80 300215Z AUTO 16003KT 10SM CLR 18/M10 A3014 RMK AO2 T01761103
KEAR 300215Z 30003KT 10SM CLR 10/M11 A3017 RMK AO1
KEAT 300155Z AUTO 31008KT 10SM CLR 17/03 A3009 RMK AO2 SLP190 T01720028
KEAU 300156Z AUTO 29008KT 10SM CLR 06/M04 A2986 RMK AO2 SLP119 T00611039 $
KEBG 300215Z AUTO 15008KT 10SM CLR 22/17 A3009 RMK AO2 T02230172
KEBS 300155Z AUTO 31010KT 10SM CLR 05/M03 A3001 RMK AO2
KECG 300154Z 16005KT 10SM CLR 02/M04 A3029 RMK AO2 SLP257 T00171044 $
KECP 300153Z 00000KT 10SM CLR 13/08 A3030 RMK AO2 SLP273 T01330083
KECS 300215Z AUTO 36007KT 10SM CLR 11/M06 A3008 RMK AO2
KECU 300150Z AUTO 17005KT 10SM CLR 21/13 A3010 RMK AO2
KEDC 300215Z AUTO 17006KT 10SM 21/13 A3008 RMK AO2
KEDE 300215Z AUTO 18006KT 10SM CLR 05/M04 A3028 RMK AO2 T00451036
KEDJ 300210Z AUTO 18010KT 10SM OVC037 02/00 A2993 RMK AO1
KEDN 300215Z AUTO 22004KT 10SM CLR 12/06 A3030 RMK AO2
KEDU 300215Z AUTO 21006KT 10SM CLR 25/09 A2997 RMK AO1
KEDW 300058Z AUTO 25007KT 10SM CLR 30/M11 A2996 RMK AO2 SLP129 T02991108
KEED 300156Z AUTO 14004KT 10SM CLR 31/M09 A2990 RMK AO2 SLP099 T03061089
KEEN 300215Z AUTO 19004KT 10SM CLR M03/M10 A3006 RMK AO1
KEEO 300153Z AUTO 34005KT 10SM CLR 12/M08 A3020 RMK AO2 SLP194 T01221078 $
KEET 300153Z AUTO 14005KT 10SM CLR 14/04 A3020 RMK AO2 SLP226 T01440044
KEFD 300150Z 17007KT 10SM FEW030 21/17 A3014
KEFK 300155Z AUTO 18004KT 10SM CLR M01/M12 A2996 RMK AO2 T10121121
KEFT 300155Z AUTO 26015KT 10SM CLR 05/01 A2986 RMK AO2
KEGE 300153Z 21005KT 10SM SKC 14/M13 A3021
KEGI 300158Z AUTO 16003KT M M M M M RMK AO2 SLPNO PWINO PNO FZRANO TSNO $
KEGV 300155Z AUTO 32012G18KT 10SM SCT011 SCT016 OVC023 02/M01 A2972 RMK AO2 T00151010
KEHA 300208Z AUTO 08006KT 12/M04 RMK AO1 PK WND 08 000 T01221038
KEHC 300215Z AUTO 17011KT 10SM CLR 24/18 A3018 RMK A01
KEHO 300215Z AUTO 17006KT 10SM CLR 08/M08 A3024 RMK AO2 T00751085
KEHR 300215Z AUTO 26008KT 10SM FEW047 BKN065 OVC095 12/04 A3005 RMK AO1
KEHY 300215Z AUTO 28011G18KT 10SM CLR 10/M16 A3018 RMK AO2
KEIK 300215Z AUTO 08004KT 10SM CLR 12/M04 A3015 RMK AO2 T01161041
KEIR 300025Z AUTO 18008KT 10SM CLR 22/19 A3022 RMK A01
KEKM 292152Z 21010G18KT 10SM -RA OVC044 04/M06 A2986 RMK AO2 LAST
KEKN 300151Z AUTO 00000KT 10SM OVC090 06/M12 A3000 RMK AO2 SLP179 T00611117 TSNO
KEKO 300156Z AUTO 24003KT 10SM CLR 17/M17 A3015 RMK AO2 SLP203 T01671167
KEKQ 300156Z AUTO 18009KT 10SM CLR 13/M04 A3006 RMK AO2 T01271044 SLP184
KELA 300155Z AUTO 18011G15KT 10SM SCT025 20/18 A3010 RMK AO2 T02020177
KELD 300153Z AUTO 21004KT 10SM CLR 22/12 A3005 RMK AO2 SLP174 T02170122
KELK 300215Z AUTO 03007KT 10SM CLR 13/M01 A3020 RMK AO2
KELM 300153Z AUTO 21010KT 10SM CLR 04/M13 A2996 RMK AO2 SLP154 T00391128
KELN 300153Z AUTO 31010KT 10SM CLR 16/05 A3012 RMK AO2 SLP203 T01560050
KELO 300213Z AUTO 28006KT 10SM SCT060 SCT070 03/M04 A2977 RMK AO2
KELP 300151Z 27005KT 10SM FEW100 BKN250 27/M12 A3010 RMK AO2 SLP135 T02721117
KELY 300153Z AUTO 21007KT 10SM CLR 16/M11 A3018 RMK AO2 SLP190 T01611106
KELZ 300156Z AUTO 20011KT 10SM CLR 02/M14 A2990 RMK AO2 SLP147 T00221139
KEMK 300215Z AUTO 16022KT 10SM FEW020 BKN026 23/17 A3017 RMK A01
KEMM 300155Z AUTO 32008KT 10SM CLR 06/M10 A3027 RMK AO2
KEMP 300153Z AUTO 01007KT 10SM CLR 13/02 A3014 RMK AO2 SLP211 T01280017 $
KEMT 300145Z 21006KR 10SM CLR 25/12 A2998
KEMV 300155Z AUTO 12003KT 10SM CLR 01/M05 A3026 RMK AO2
KEND 300158Z AUTO 04003KT 10SM CLR 15/01 A3012 RMK AO2 SLP199 T01530008 $
KENL 300155Z AUTO 22005KT 10SM CLR 09/05 A3002 RMK AO2 T00880045
KENV 300215Z AUTO 00000KT 10SM CLR 14/M11 A3019 RMK AO1
KENW 300153Z AUTO 29012G22KT 10SM SCT034 OVC050 07/02 A2983 RMK AO2 PK WND 29027/0056 SLP107 T00670017
KEOE 300155Z AUTO 17003KT 10SM CLR A3031 RMK AO2
KEOK 300155Z AUTO 30006KT 10SM CLR 11/01 A3000 RMK AO2
KEPH 300153Z AUTO 21004KT 10SM CLR 16/06 A3010 RMK AO2 SLP196 T01560056
KEQA 300215Z AUTO 02005KT 10SM CLR 12/02 A3014 RMK AO2
KEQY 300153Z AUTO 19004KT 10SM CLR 07/M09 A3026 RMK AO2 SLP266 T00671089
KERI 300151Z 18014G24KT 10SM OVC060 04/M06 A2990 RMK AO2 PK WND 22028/0056 SLP131 T00391061
KERV 300155Z AUTO 15007KT 10SM CLR 21/15 A3007 RMK AO2 T02050150
KERY 300215Z AUTO 27012KT 2 1/2SM -SN OVC007 00/00 A2948 RMK AO2 T00000000
KESC 300215Z AUTO 29010G16KT 10SM FEW027 BKN038 BKN050 02/00 A2962 RMK AO1
KESF 300153Z AUTO 21008KT 10SM CLR 21/14 A3014 RMK AO2 SLP204 T02060139
KESN 300229Z AUTO 19006KT 10SM CLR 03/M07 A3024 RMK AO2 T00261075
KEST 300152Z AUTO 31010KT 10SM CLR 06/M04 A3003 RMK AO2 SLP175 T00611039
KETB 300150Z AUTO 28015G22KT 10SM OVC050 04/00 A2979 RMK AO2
KETC 300155Z AUTO 18005KT 10SM CLR 05/M04 A3028 RMK AO2 T00481039
KETH 300215Z AUTO 24004KT 10SM CLR 04/M03 A2998 RMK AO2
KEUF 300158Z AUTO 00000KT 10SM CLR 09/04 A3027 RMK AO2 SLP250 T00940039 $
KEUG 300154Z 03004KT 10SM FEW055 FEW210 BKN300 17/09 A3016 RMK AO2 SLP215 T01670094 $
KEUL 300215Z AUTO 00000KT 10SM CLR 16/M03 A3016 RMK AO1
KEVB 300147Z 36008KT 10SM SKC 12/05 A3037 RMK LAST
KEVM 300212Z AUTO 29005KT 10SM CLR 02/M03 A2982 RMK AO2
KEVV 300154Z 25010KT 10SM -RA FEW041 OVC060 13/06 A3004 RMK AO2 RAE03B13 SLP172 P0000 T01280056
KEVW 300153Z AUTO 28008KT 10SM CLR 09/M09 A3027 RMK AO2 SLP225 T00891089
KEWB 300153Z AUTO 22004KT 10SM CLR M01/M05 A3014 RMK AO2 SLP207 T10111050
KEWK 300215Z AUTO 04006KT 10SM CLR 12/M01 A3018 RMK AO1
KEWN 300154Z AUTO 00000KT 10SM CLR 01/M03 A3033 RMK AO2 SLP271 T00111033
KEWR 300151Z 21008KT 10SM SCT250 04/M13 A3015 RMK AO2 SLP209 T00441128
KEXX 300155Z AUTO 18003KT 10SM CLR 06/M09 A3023 RMK AO2 T00641086
KEYE 300153Z AUTO 24008KT 10SM FEW110 07/02 A2994 RMK AO2 SLP146 T00670017
KEYF 300215Z AUTO 17003KT 10SM CLR 04/M04 A3031 RMK AO2 T00401040
KEYW 300153Z AUTO 08007KT 10SM CLR 22/15 A3026 RMK AO2 SLP248 T02170150
KEZF 300155Z AUTO 16008KT 10SM CLR 05/M11 A3017 RMK AO2 T00491107
KEZM 300215Z AUTO 00000KT 10SM CLR 07/02 A3033 RMK AO2 T00690017
KEZS 300215Z AUTO 29007G14KT 10SM OVC050 05/01 A2977 RMK AO2 T00460008
KF05 300215Z AUTO 04003KT 10SM CLR 18/01 A3013 RMK AO1 T01780012
KF17 300155Z AUTO 17011G17KT 10SM CLR 21/14 A3006 RMK AO2 T02100144
KF44 300215Z AUTO 18005KT 10SM CLR 22/12 A3006 RMK AO2
KF46 300215Z AUTO 00000KT 10SM CLR 21/13 A3003 RMK AO2 T02130127
KF70 300155Z AUTO 22006KT 10SM CLR 23/02 A3000 RMK AO1
KFAF 300158Z AUTO 21005KT 10SM CLR 05/M06 A3023 RMK AO2 SLP240 T00451057 $
KFAM 300215Z AUTO 25004KT 10SM CLR 12/04 A3009 RMK AO1
KFAR 300153Z AUTO 26004KT 10SM FEW095 07/M02 A2992 RMK AO2 SLP141 T00721022 TSNO
KFAT 300153Z 30009KT 10SM FEW090 FEW150 27/04 A2998 RMK AO2 SLP150 CU BLDUP OMTNS DSNT N-E-SE MTNS OBSC T02720044
KFAY 300153Z AUTO 18007KT 10SM CLR 06/M07 A3028 RMK AO2 SLP250 T00611072
KFBG 300158Z AUTO 18004KT 10SM CLR 07/M08 A3027 RMK AO2 SLP255 T00671078 $
KFBL 300214Z AUTO 27008KT 10SM CLR 06/M02 A2997 RMK AO2
KFBR 300155Z AUTO 32007KT 10SM CLR 10/M09 A3029 RMK AO2 T01001093
KFCM 300153Z 27007KT 10SM CLR 07/M03 A2993 RMK AO2 SLP143 T00721033
KFCS 300058Z AUTO 16009KT 10SM CLR 14/M05 A3021 RMK AO2 SLP219 T01371050 $
KFDK 300210Z AUTO 18004KT 10SM CLR 05/M17 A3014 RMK AO2
KFDR 300153Z AUTO 04008KT 10SM CLR 17/05 A3008 RMK AO2 SLP179 T01670050 $
KFDW 300215Z AUTO 16006KT 10SM CLR 06/M06 A3028 RMK AO1
KFDY 300153Z AUTO 19018KT 10SM OVC044 04/M01 A2988 RMK AO2 RAE0055 SLP120 P0000 T00441011
KFEP 300215Z AUTO 25010KT 10SM CLR 05/01 A2992 RMK AO2 T00500005
KFET 300155Z AUTO 27003KT 10SM CLR 08/M06 A3012 RMK AO2 T00831056
KFEW 300156Z AUTO 22009KT 10SM SCT220 07/M06 A3013 RMK AO2 SLP195 T00681059 $
KFFA 300155Z AUTO 15003KT 10SM CLR 01/M05 A3030 RMK AO2 T00061046
KFFC 300153Z AUTO 17003KT 10SM OVC044 14/M02 A3027 RMK AO2 SLP254 T01441017 $
KFFL 300155Z AUTO 30009KT 10SM CLR 08/M02 A3001 RMK AO2
KFFM 300214Z AUTO 27003KT 10SM BKN090 06/M02 A2996 RMK AO2
KFFO 300158Z 22007KT 10SM -RA FEW015 BKN044 06/01 A2997 RMK AO2A SLP158 P0001 T00560009
KFFT 300153Z AUTO 19007KT 10SM OVC055 12/M05 A2997 RMK AO2 SLP151 T01221050 $
KFFX 300214Z AUTO 29016G22KT 10SM SCT012 SCT019 OVC033 03/02 A2970 RMK AO2 T00320015
KFFZ 292347Z 24006KT 30SM SCT250 34/M14 2994 RMK WIND ESTIMATED
KFGN 300214Z AUTO 27009KT 10SM CLR 06/M03 A2980 RMK AO2
KFGX 300215Z AUTO 19006KT 10SM OVC055 10/M06 A2998 RMK AO2 T01001062
KFHB 300215Z AUTO 11005KT 10SM CLR 14/04 A3035 RMK AO1
KFHR 300153Z AUTO 35003KT 10SM OVC055 12/10 A3015 RMK AO2 RAE05 SLP209 T01220100 PNO
KFHU 300158Z AUTO 25009KT 10SM CLR 23/M08 A3016 RMK AO2 SLP191 T02301078
KFIG 300154Z AUTO 22005KT 10SM FEW120 03/M13 A2998 RMK AO2 SLP167 T00331128
KFIN 300155Z AUTO 00000KT 10SM CLR 10/07 A3037 RMK AO2 T01000065
KFIT 300152Z AUTO 00000KT 10SM CLR M02/M09 A3009 RMK AO2 SLP194 T10221089
KFKA 300215Z AUTO 31015KT 10SM CLR 05/M02 A2994 RMK AO2 T00451016
KFKL 300215Z AUTO 17009KT 10SM BKN075 OVC090 01/M07 A2993 RMK AO1
KFKN 300155Z AUTO 15004KT 10SM CLR 03/M07 A3026 RMK AO2 T00271068
KFKR 300215Z AUTO 19015KT 10SM SCT060 06/03 A2992 RMK AO2 T00610033
KFKS 300211Z AUTO 30010G15KT 10SM BKN034 OVC050 04/00 A2965 RMK AO2 T00370001
KFLD 300153Z AUTO 30017G23KT 10SM BKN055 05/M01 A2979 RMK AO2 SLP096 T00501006
KFLG 300157Z 22003KT 10SM CLR 13/M07 A3027 RMK AO2 SLP201 T01331067 $
KFLL 300153Z 36007KT 10SM FEW045 17/08 A3028 RMK AO2 SLP254 T01720083
KFLO 300153Z AUTO 17004KT 10SM CLR 06/M04 A3031 RMK AO2 SLP264 T00561044
KFLP 300215Z 33004KT 10SM CLR 16/06 A3009 RMK AO1
KFLY 300215Z AUTO 17007KT 10SM CLR 07/M06 A3027 RMK AO2 T00671065
KFMH 300215Z AUTO 18006KT 10SM CLR M02/M05 A3015 RMK AO2
KFMM 300215Z AUTO 12006KT 10SM CLR A3017 RMK AO2
KFMN 300153Z 27004KT 10SM CLR 17/M12 A3015 RMK AO2 SLP186 T01721122
KFMY 300153Z 05011KT 10SM CLR 18/06 A3030 RMK AO2 SLP262 T01780061
KFNB 300153Z AUTO 32004KT 10SM CLR 10/M03 A3012 RMK AO2 SLP202 T01001028
KFNL 300215Z AUTO 14006KT 10SM CLR 11/M04 A3017 RMK AO1
KFNT 300153Z 22015G27KT 10SM BKN029 OVC036 04/M01 A2972 RMK AO2 PK WND 20030/0055 RAB02E47 SLP069 P0000 T00391011 $
KFOA 300215Z AUTO 23008KT 10SM CLR 09/05 A3002 RMK AO2 T00910051
KFOD 300215Z AUTO 00000KT 10SM CLR 08/M04 A3006 RMK AO1
KFOE 300153Z 34006KT 10SM CLR 12/02 A3014 RMK AO2 SLP207 T01220017 $
KFOK 300153Z 21005KT 10SM CLR 01/M05 A3016 RMK AO2 SLP214 T00111050
KFOT 300215Z AUTO 31009KT 10SM CLR 12/M44 A3018 RMK AO1
KFOZ 300213Z AUTO 25004KT 10SM CLR 03/M04 A2983 RMK AO2 TSNO
KFPK 300214Z AUTO 21013G24KT 3SM DZ SCT014 BKN020 OVC026 02/01 A2972 RMK AO2 T00240007
KFPR 300153Z 36004KT 10SM CLR 14/06 A3031 RMK AO2 SLP264 T01390061
KFQD 300155Z AUTO 19004KT 10SM CLR 07/M09 A3024 RMK AO2 T00701094
KFRG 300153Z 21008KT 10SM CLR 02/M04 A3016 RMK AO2 SLP212 T00171039
KFRI 300158Z AUTO 08002KT 10SM CLR 12/M01 A3016 RMK AO2 SLP213 T01201013
KFRM 300215Z AUTO 30010KT 10SM CLR 08/M06 A3001 RMK AO1
KFRR 300215Z AUTO 19003KT 10SM CLR 06/M13 A3007 RMK AO1
KFSD 300156Z 29004KT 10SM CLR 07/M07 A3005 RMK AO2 SLP184 T00671067
KFSE 300215Z AUTO 00000KT 10SM CLR 00/M03 A2989 RMK AO2
KFSI 300158Z AUTO 02008KT 10SM CLR 17/06 A3009 RMK AO2 SLP186 T01690062
KFSM 300153Z 32004KT 10SM CLR 18/07 A3009 RMK AO2 SLP187 T01780067
KFSO 300215Z AUTO 19006KT 10SM CLR 02/M11 A2996 RMK AO2 T00151115
KFST 300153Z AUTO 05007KT 10SM CLR 23/M01 A3007 RMK AO2 SLP140 T02331011
KFSW 300155Z AUTO 30008KT 10SM CLR 10/01 A3000 RMK AO2
KFTG 300150Z 12007KT 10SM SCT120 10/00 A3018
KFTK 300211Z AUTO 20011KT 10SM -RA BKN060 OVC095 13/00 A3000 RMK AO2 RAB11
KFTN 300310Z AUTO 13005KT 10SM CLR 24/14 A3001 RMK AO1
KFTW 300153Z 19007KT 10SM SCT085 24/13 A3001 RMK AO2 SLP156 T02390128
KFTY 300153Z 19006KT 10SM OVC046 15/M03 A3025 RMK AO2 SLP244 T01501033
KFUL 300153Z 19005KT 10SM CLR 21/12 A2997 RMK AO2 SLP146 T02110122
KFVE 300153Z AUTO 20006KT 10SM FEW120 M02/M13 A2987 RMK AO2 SLP128 T10171133
KFVX 300155Z AUTO 18006KT 10SM CLR 06/M08 A3018 RMK AO2 T00601083
KFWA 300154Z 21016KT 10SM OVC070 05/00 A2986 RMK AO2 SLP117 T00500000
KFWB 300215Z AUTO 00000KT 10SM 12/06 A3012 RMK AO2
KFWC 300155Z AUTO 22005KT 10SM CLR 10/07 A3001 RMK AO1 T01010065
KFWN 300153Z AUTO 25004KT 10SM CLR 01/M12 A3011 RMK AO2 SLP201 T00061117
KFWS 300155Z AUTO 17006KT 10SM SCT100 24/13 A3001 RMK AO2 T02370127
KFWZ 300215Z AUTO 31007KT 10SM CLR 07/M13 A3017 RMK AO2
KFXE 300153Z 36006KT 10SM CLR 18/07 A3029 RMK AO2 SLP260 T01780072
KFXY 300155Z AUTO 31007KT 10SM CLR 06/M01 A3000 RMK AO2
KFYG 300155Z AUTO 00000KT 10SM BKN060 10/04 A3004 RMK AO2
KFYJ 300215Z AUTO 13003KT 10SM CLR 01/M07 A3024 RMK AO2 T00081067
KFYM 300215Z AUTO 19010KT 10SM CLR 11/01 A3013 RMK
KFYV 300153Z 00000KT 10SM CLR 11/09 A3012 RMK AO2 SLP196 T01110089
KFZG 300155Z AUTO 00000KT 10SM CLR 09/04 A3034 RMK AO2 T00860038 PWINO
KFZY 300154Z AUTO 14005KT 10SM CLR 02/M12 A2993 RMK AO2 SLP140 T00221117
KGAD 300215Z 18004KT 10SM CLR 12/01 A3018 RMK AO1
KGAG 300153Z AUTO 04004KT 10SM CLR 14/M01 A3016 RMK AO2 SLP204 T01441011
KGAI 300215Z AUTO 15009KT 10SM CLR 04/M13 A3016 RMK AO1
KGAO 300215Z AUTO 16003KT 10SM SCT044 21/18 A3023 RMK AO2 T02050183
KGBD 300215Z AUTO 04005KT 10SM CLR 11/M07 A3018 RMK AO1
KGBG 300200Z AUTO 28010KT 10SM CLR 06/02 A2996 RMK AO2 T00590020
KGBK 300215Z AUTO 12011G18KT 10SM FEW038 SCT045 24/16 A3022 RMK A01
KGCC 300153Z AUTO 19003KT 10SM CLR 06/M02 A3007 RMK AO2 SLP186 T00561022 TSNO $
KGCD 300155Z AUTO 00000KT 10SM CLR 17/02 A3014 RMK AO2 T01660016
KGCK 300154Z AUTO 06007KT 10SM CLR 11/M04 A3018 RMK AO2 SLP213 T01111044
KGCM 300215Z AUTO 00000KT 10SM CLR 11/05 A3015 RMK AO2
KGCN 300154Z 00000KT 10SM CLR 13/M04 A3024 RMK AO2 SLP209 T01281044
KGDB 300213Z AUTO 25005KT 10SM CLR 03/M04 A3001 RMK AO2 T00341037
KGDJ 300215Z AUTO 00000KT 10SM 25/14 A3004 RMK AO2 T02490137
KGDP 300151Z AUTO 04011KT 10SM CLR 19/M05 A3023 RMK AO2 SLP173 T01941050
KGDV 300215Z AUTO 26007KT 10SM 08/M01 A2997 RMK AO1
KGED 300154Z AUTO 22003KT 10SM CLR 01/M09 A3023 RMK AO2 SLP236 T00061094
KGEG 300153Z 21008KT 10SM FEW060 BKN150 BKN200 14/02 A3012 RMK AO2 SLP206 T01390022
KGEU 300148Z 00000KT 20SM SCT180 SCT250 32/M07 A2993 RMK LAST
KGEV 300215Z AUTO 18003KT 10SM CLR 01/M11 A3012 RMK AO2 T00081111
KGEY 300153Z AUTO 19006KT 10SM CLR 13/M08 A3005 RMK AO2 SLP178 T01331078 $
KGEZ 300153Z AUTO 23007KT 10SM OVC042 07/02 A2996 RMK AO2 SLP151 T00720022
KGFA 300156Z AUTO 23016G24KT 10SM SCT220 13/M02 A3001 RMK AO2 SLP180 T01261021 TSNO $
KGFK 300153Z 28007KT 10SM SCT085 05/M01 A2989 RMK AO2 SLP132 T00501011
KGFL 300153Z AUTO 19007KT 10SM CLR M01/M11 A3005 RMK AO2 SLP184 T10061111
KGGE 300215Z AUTO 00000KT 10SM CLR 02/01 A3035 RMK AO2
KGGG 300153Z 21005KT 10SM CLR 22/14 A3005 RMK AO2 SLP172 T02220144
KGGI 300215Z AUTO 30008KT 10SM CLR 08/M03 A3003 RMK AO2 T00751028
KGGP 300155Z AUTO 22011G15KT 10SM BKN044 OVC050 05/02 A2988 RMK AO2
KGGW 300153Z AUTO 22005KT 10SM CLR 11/M01 A2990 RMK AO2 SLP141 T01111011
KGHB 300020Z AUTO 15007G14KT 120V180 10SM SCT038 24/16 A3021 RMK A01
KGHG 300155Z AUTO 22004KT 10SM CLR 00/M05 A3015 RMK AO2
KGHW 300214Z AUTO 27005KT 10SM BKN080 05/M03 A2996 RMK AO2
KGIC 300215Z AUTO 00000KT 7SM CLR 12/03 A3020 RMK AO1 T01180026
KGIF 300153Z AUTO 07007KT 10SM CLR 14/04 A3033 RMK AO2 SLP271 T01440039
KGJT 300153Z 35007KT 10SM CLR 17/M12 A3011 RMK AO2 SLP153 T01721122
KGKJ 300153Z AUTO 18008G17KT 10SM BKN060 OVC075 02/M07 A2991 RMK AO2 SLP141 T00221067 TSNO
KGKT 300215Z AUTO 00000KT 10SM CLR 06/M05 A3011 RMK
KGKY 300153Z AUTO 15006KT 10SM FEW095 24/12 A3000 RMK AO2 SLP151 T02440117
KGLD 300153Z AUTO 13006KT 10SM CLR 07/M07 A3019 RMK AO2 SLP217 T00721067
KGLE 300155Z AUTO 03003KT 10SM SCT070 SCT100 BKN120 22/11 A3007 RMK AO2 T02210114
KGLH 300153Z AUTO 19008KT 10SM CLR 19/14 A3004 RMK AO2 SLP179 T01940139
KGLR 300202Z AUTO 25016G26KT 3SM -SN BR BKN009 OVC013 01/00 A2952 RMK AO2 PK WND 24026/0155 CIG 006V011 P0000 T00060000
KGLS 300152Z AUTO 16010KT 10SM CLR 20/19 A3015 RMK AO2 SLP210 T02000189
KGLW 300150Z AUTO 25008KT 10SM SCT060 SCT120 12/01 A3009 RMK AO2 T01160005
KGLY 300215Z AUTO 34012KT 10SM CLR 13/06 A3013 RMK AO2
KGMJ 300215Z AUTO 00000KT 10SM CLR 11/08 A3014 RMK AO2
KGMU 300153Z 19006KT 10SM CLR 09/M09 A3026 RMK AO2 SLP249 T00941089
KGNA 300156Z AUTO VRB06G19KT 04/M02 A2969 RMK AO1 SLP063 T00441022
KGNC 300215Z AUTO 00000KT 10SM CLR 19/00 A3016 RMK AO2 T01891002
KGNR 300156Z AUTO 00000KT M04/M14 A2993 RMK AO1 SLP157 T10391139
KGNT 300215Z AUTO 25007KT 10SM CLR 13/M12 A3023 RMK AO2 T01281123
KGNV 300153Z 08004KT 10SM CLR 09/04 A3034 RMK AO2 SLP274 T00940044
KGOK 300153Z AUTO 05004KT 10SM CLR 15/02 A3012 RMK AO2 SLP198 T01500017
KGON 300156Z 22007KT 10SM CLR 01/M03 A3014 RMK AO2 SLP205 T00111033 $
KGOO 300215Z AUTO 00000KT 10SM CLR 19/05 A3009 RMK AO1
KGOP 300155Z AUTO 15007KT 10SM CLR 23/13 A3004 RMK AO2
KGOV 300215Z AUTO 24008KT 3SM -SN OVC009 01/00 A2956 RMK AO2 T00050000
KGPH 300215Z AUTO 00000KT 10SM CLR 10/02 A3012 RMK AO2
KGPI 300155Z 25006KT 10SM CLR 12/01 A3012 RMK AO2 SLP209 T01170006 $
KGPM 300050Z 16008G15KT 10SM SKC 26/13 A2998
KGPT 300153Z 16007KT 10SM OVC055 19/16 A3023 RMK AO2 SLP236 T01940161 $
KGPZ 300215Z AUTO 29008KT 10SM CLR 04/M04 A2985 RMK AO1
KGRB 300153Z 29013KT 10SM OVC055 04/01 A2974 RMK AO2 PK WND 29026/0123 RAB16E37 SLP078 P0000 T00390011
KGRD 300156Z AUTO 17004KT 10SM CLR 08/M07 A3029 RMK AO2 SLP258 T00781067
KGRF 300207Z AUTO 24002KT 10SM OVC046 15/09 A3017 RMK AO2 DZE07 $
KGRI 300153Z AUTO 00000KT 10SM CLR 07/M09 A3016 RMK AO2 SLP220 T00721089
KGRK 300158Z AUTO 16012KT 10SM CLR 21/14 A3002 RMK AO2 SLP160 T02100140
KGRR 300216Z 26017G28KT 10SM -RA SCT008 OVC016 05/03 A2973 RMK AO2 PK WND 25033/0205 P0001 T00500033
KGRY 300220Z AUTO 19011KT 10SM CLR 24/16 A3024 RMK A01
KGSB 300158Z AUTO 17004KT 10SM CLR 05/M06 A3026 RMK AO2 SLP251 T00531060 $
KGSH 300153Z AUTO 21015KT 10SM BKN041 BKN050 OVC060 06/00 A2981 RMK AO2 PK WND 20026/0111 SLP100 T00560000
KGSO 300154Z 20007KT 10SM SCT200 07/M11 A3021 RMK AO2 SLP234 T00671106
KGSP 300153Z 20005KT 10SM CLR 08/M08 A3024 RMK AO2 SLP242 T00781078
KGTB 300158Z AUTO 15012KT 10SM CLR 00/M13 A2990 RMK AO2 SLP134 T10021132
KGTF 300153Z 24024G29KT 10SM CLR 12/M02 A3000 RMK AO2 PK WND 24029/0153 SLP168 T01171017 $
KGTR 300215Z AUTO 17012KT 10SM CLR 17/08 A3011 RMK AO1
KGTU 300150Z 16010G15KT 10SM CLR 23/12 A3004
KGUC 300215Z 33010KT 10SM CLR 09/M19 A3028 RMK AO1
KGUL 300215Z AUTO 10SM FEW029 23/17 A3019 RMK A01
KGUP 300153Z AUTO 24003KT 9SM CLR 15/M09 A3022 RMK AO2 SLP172 T01501094
KGUR 300155Z AUTO 14008KT 10SM 15/M02 A3010 RMK AO2 T01541025
KGUS 300158Z AUTO 23016G22KT 10SM OVC044 06/02 A2986 RMK AO2 SLP121 T00600018
KGUY 300153Z AUTO 10005KT 10SM CLR 16/M03 A3019 RMK AO2 SLP199 T01561033 $
KGVE 300155Z AUTO 22003KT 10SM CLR 04/M10 A3015 RMK AO1 T00401101
KGVL 300153Z AUTO 17003KT 10SM OVC048 12/M07 A3026 RMK AO2 SLP246 T01221067
KGVT 300155Z AUTO 00000KT 10SM BKN095 20/13 A3004 RMK AO2
KGWB 300215Z AUTO 23014G18KT 10SM SCT039 OVC045 06/00 A2984 RMK AO2
KGWO 300153Z AUTO 19005KT 10SM CLR 18/11 A3007 RMK AO2 SLP181 T01830111 $
KGWR 300215Z AUTO 26009KT CLR 06/00 RMK A01 P000
KGWW 300215Z AUTO 16005KT 10SM CLR 05/M05 A3028 RMK AO2 T00451055
KGXA 300155Z AUTO 27008KT 10SM CLR 25/M04 A3001 RMK AO2 SLP146 T02541045 TSNO $
KGXF 300158Z AUTO 29003KT 10SM CLR 32/M06 A2989 RMK AO2 SLP111 T03151065
KGXY 300215Z 16004KT 10SM CLR 12/M06 A3014 RMK AO1
KGYB 300215Z AUTO 18008G15KT 10SM CLR 21/15 A3011 RMK AO2 T02050151
KGYH 300155Z AUTO 21006KT 10SM CLR 06/M10 A3026 RMK AO2
KGYI 300215Z AUTO 02005KT 10SM SCT110 22/15 A3007 RMK AO2 T02180153
KGYL 300215Z AUTO 25005KT 10SM CLR 06/00 A2996 RMK AO2 T00630000
KGYR 300147Z VRB05KT 10SM SCT180 BKN250 32/M04 A2992
KGYY 300145Z 30015G29KT 10SM OVC031 10/01 A2987 RMK PRESRR
KGZH 300153Z AUTO 18006KT 10SM CLR 13/09 A3028 RMK AO2 SLP252 T01330089
KGZL 300155Z AUTO 04004KT 10SM FEW110 16/04 A3010 RMK AO2
KHAE 300215Z AUTO 29006KT 10SM CLR 11/01 A3004 RMK AO2
KHAF 300215Z AUTO 34005KT 3SM BR CLR 13/10 A3006 RMK AO2
KHAI 300214Z AUTO 26008G14KT 10SM OVC031 05/01 A2981 RMK AO2 T00520007
KHAO 300153Z AUTO 35005KT 10SM -RA OVC048 06/03 A2997 RMK AO2 SLP152 P0004 T00610028
KHBG 300153Z AUTO 17008KT 10SM FEW022 BKN030 18/14 A3022 RMK AO2 SLP233 T01830144
KHBI 300215Z AUTO 17007KT 10SM CLR 07/M10 A3027 RMK AO2 T00701103
KHBR 300153Z AUTO 06008KT 10SM CLR 14/02 A3013 RMK AO2 SLP196 T01390017
KHCD 300212Z AUTO 27005KT 10SM CLR 04/00 A2998 RMK AO2 T00420000
KHCO 300214Z AUTO 28005KT 10SM CLR 04/01 A2987 RMK AO2
KHDC 300155Z AUTO 16003KT 10SM CLR 19/15 A3022 RMK AO2
KHDE 300155Z AUTO 00000KT 10SM CLR 08/M11 A3016 RMK AO2 T00781114
KHDN 300215Z AUTO 19003KT 10SM CLR 12/M11 A3021 RMK AO1
KHDO 300151Z AUTO 13007KT 10SM CLR 22/14 A3005 RMK AO2 SLP166 T02220144 $
KHEF 300215Z 16008KT 10SM CLR 04/M11 A3014 RMK AO1
KHEI 300153Z AUTO 00000KT 10SM CLR 08/M01 A3000 RMK AO2 SLP171 T00781011 $
KHEY 300153Z AUTO 21005KT 10SM CLR 13/06 A3029 RMK AO2 SLP244 T01330056
KHEZ 300215Z AUTO 20007KT 10SM CLR 21/13 A3016 RMK AO1
KHFD 300153Z 17006KT 10SM CLR 01/M09 A3011 RMK AO2 SLP194 T00061089
KHFF 300156Z AUTO 21007KT 10SM CLR 05/M06 A3032 RMK AO2 SLP272 T00531058 TSNO $
KHFJ 300155Z AUTO 21004KT 10SM CLR 11/06 A3011 RMK AO2
KHGR 300153Z AUTO 16012G17KT 10SM CLR 06/M14 A3007 RMK AO2 SLP197 T00561144
KHHF 300215Z AUTO 09005KT 10SM CLR 15/M01 A3018 RMK AO2 T01531012
KHHG 300155Z AUTO 23010G15KT 10SM BKN046 BKN060 OVC070 05/M02 A2986 RMK AO2 T00541016
KHHR 300153Z 29004KT 10SM CLR 19/14 A2998 RMK AO2 SLP152 T01940139 $
KHHV 300215Z AUTO 16015G25KT 10SM SCT024 22/18 A3017 RMK A01
KHHW 300155Z AUTO 36008KT 10SM BKN060 BKN070 OVC100 24/12 A3004 RMK AO2 T02370121
KHIB 300153Z AUTO 29005KT 10SM CLR 03/M04 A2981 RMK AO2 SLP112 T00281044
KHIE 300152Z AUTO 00000KT 10SM CLR M04/M10 A2998 RMK AO2 SLP168 T10391100
KHIF 300058Z AUTO 26002KT 10SM CLR 16/M09 A3021 RMK AO2 RAB01E05 SLP208 P0000 T01641090
KHII 300155Z AUTO 13003KT 10SM CLR 32/M06 A2989 RMK AO2
KHIO 300153Z 34003KT 10SM CLR 18/09 A3015 RMK AO2 SLP210 T01780089
KHJH 300215Z AUTO 00000KT 10SM CLR 06/M04 A3016 RMK AO2 T00631043
KHJO 300153Z AUTO 30007KT 10SM CLR 28/05 A2997 RMK AO2 SLP149 T02830050
KHKA 300153Z AUTO 21004KT 10SM CLR 14/10 A3006 RMK AO2 SLP179 T01440100
KHKS 300153Z 18013KT 10SM SCT055 21/13 A3012 RMK AO2 SLP192 T02110133
KHKY 300153Z 20011KT 10SM CLR 08/M12 A3021 RMK AO2 SLP225 T00831117
KHLC 300153Z AUTO 02004KT 10SM CLR 06/M09 A3017 RMK AO2 SLP218 T00611089
KHLG 300153Z AUTO 23010G18KT 10SM BKN050 OVC065 06/M14 A2998 RMK AO2 SLP164 T00611139
KHLN 300153Z 27012G22KT 10SM CLR 13/M03 A3009 RMK AO2 SLP208 T01281028
KHLR 300158Z AUTO 15013G19KT 10SM CLR 23/13 A3002 RMK AO2 SLP158 T02250133
KHLX 300215Z AUTO 19010G14KT 10SM CLR 04/M10 A3013 RMK AO2 T00381105
KHMN 300058Z AUTO 14003KT 10SM CLR 26/M12 A3008 RMK AO2 SLP137
KHNB 300215Z AUTO 26007KT 10SM CLR 10/05 A3003 RMK AO1
KHND 300156Z 07004KT 10SM CLR 28/M05 A2999 RMK AO2 SLP139 T02831050
KHNR 300155Z AUTO 31009KT 10SM CLR 06/M04 A3012 RMK AO2
KHNZ 300215Z AUTO 17006KT 10SM CLR 05/M11 A3022 RMK AO2 T00451113
KHOB 300215Z AUTO 06013KT 10SM CLR 21/M02 A3017 RMK AO2
KHOE 300215Z AUTO 13005KT 10SM CLR 11/06 A3034 RMK AO2
KHON 300155Z AUTO 26003KT 10SM CLR 06/M07 A3003 RMK AO2 SLP175 T00611072
KHOP 300158Z AUTO 23007KT 10SM BKN060 BKN160 13/06 A3009 RMK AO2 SLP193 T01260059
KHOT 300153Z AUTO 00000KT 10SM SCT090 21/11 A3004 RMK AO2 SLP169 T02110106
KHOU 300153Z 17009KT 10SM FEW030 21/17 A3012 RMK AO2 SLP205 T02060172
KHPN 300156Z 19005KT 10SM CLR 01/M07 A3011 RMK AO2 SLP206 T00061067
KHQI 300215Z AUTO 15012G20KT 130V200 10SM CLR 23/18 A3018 RMK A01
KHQM 300153Z AUTO 18010KT 5SM BR OVC008 12/11 A3017 RMK AO2 SLP221 T01220111
KHQU 300155Z AUTO 00000KT 10SM CLR 07/01 A3034 RMK AO1 T00740008
KHQZ 300215Z AUTO 16005KT 10SM CLR 22/12 A3003 RMK AO1 T02170120
KHRI 300153Z AUTO 21008KT 10SM CLR 18/03 A3010 RMK AO2 SLP194 T01780033
KHRJ 300215Z AUTO 19005KT 10SM CLR 06/M05 A3028 RMK AO2 T00601051
KHRL 300152Z 16014KT 10SM CLR 22/18 A3009 RMK AO2 SLP189 T02170178
KHRO 300153Z AUTO 30004KT 10SM CLR 14/07 A3010 RMK AO2 SLP192 T01390067
KHRT 300158Z 17009KT 10SM BKN031 OVC039 17/10 A3028 RMK AO2A SLP256 T01730101 $
KHRX 300155Z AUTO 08007KT 10SM CLR 12/M01 A3022 RMK AO2 T01231015
KHSA 300051Z 16007KT 10SM CLR 18/14 A3023
KHSB 300215Z AUTO 24007KT 10SM OVC050 13/07 A3006 RMK AO2 T01260073
KHSE 300151Z AUTO 12005KT 10SM CLR 02/M03 A3033 RMK AO2 SLP270 T00221033 TSNO
KHSI 300153Z AUTO 00000KT 10SM CLR 08/M10 A3015 RMK AO2 SLP214 T00831100 $
KHSP 300155Z AUTO 19012G20KT 10SM BKN110 01/M16 A3002 RMK AO2 T00101157
KHST 300158Z AUTO 01007KT 10SM CLR 18/11 A3028 RMK AO2 SLP257 T01830111
KHSV 300153Z 15008KT 10SM BKN130 12/04 A3014 RMK AO2 SLP206 T01220039
KHTL 300153Z AUTO 23013KT 5SM BR OVC009 01/M01 A2957 RMK AO2 SNE52 CIG 007V014 SLP027 P0001 T00061006
KHTS 300151Z 20004KT 10SM SCT060 BKN120 10/M14 A3001 RMK AO2 SLP165 T01001144
KHUA 300158Z AUTO 15007KT 10SM BKN120 12/03 A3014 RMK AO2 SLP209 T01210030
KHUF 300153Z AUTO 22009KT 10SM FEW070 08/04 A2997 RMK AO2 SLP153 T00780044
KHUL 300153Z AUTO 20005KT 10SM CLR M02/M14 A2996 RMK AO2 SLP152 T10171144
KHUM 300215Z AUTO 16004KT 10SM CLR 19/18 A3022 RMK AO2 T01910178
KHUT 300152Z 02006KT 10SM CLR 15/M02 A3015 RMK AO2 SLP200 T01501022
KHVE 300215Z AUTO 00000KT 10SM CLR 17/M10 A3011 RMK AO2
KHVN 300153Z AUTO 20008KT 10SM CLR 02/M04 A3013 RMK AO2 SLP202 T00171044
KHVR 300153Z AUTO 25017KT 10SM CLR 13/M01 A2990 RMK AO2 PK WND 26034/0101 SLP133 T01281006
KHVS 300215Z AUTO 19003KT 10SM CLR 05/M06 A3031 RMK AO2
KHWD 300154Z 28007KT 10SM CLR 20/09 A3001 RMK AO2 SLP171 T02000094 $
KHWO 300153Z AUTO 36007KT 10SM CLR 18/08 A3030 RMK AO2 SLP260 T01780078
KHWV 300156Z AUTO 21006KT 10SM CLR 01/M05 A3016 RMK AO2 SLP213 T00111050 TSNO
KHWY 300155Z AUTO 17007KT 130V190 10SM CLR 06/M08 A3013 RMK AO2 T00581077
KHXD 300215Z AUTO 18003KT 10SM CLR 09/M02 A3036 RMK AO2 P0000
KHYA 300156Z AUTO 20007KT 10SM CLR 00/M06 A3014 RMK AO2 SLP208 T00001061
KHYI 300215Z 17010KT 10SM CLR 22/16 A3008 RMK AO1
KHYR 300153Z AUTO 00000KT 10SM BKN060 03/M02 A2982 RMK AO2 SLP112 T00281022
KHYS 300215Z AUTO 01008KT 10SM CLR 09/M11 A3018 RMK AO1
KHYW 300215Z AUTO 00000KT 7SM CLR 05/00 A3034 RMK AO2
KHYX 300215Z AUTO 21017G26KT 7SM OVC024 03/00 A2966 RMK AO2
KHZE 300215Z AUTO 16005KT 10SM BKN028 03/M02 A2995 RMK AO2
KHZL 300215Z AUTO 17003KT 10SM CLR 01/M13 A3007 RMK AO2
KHZR 300155Z AUTO 17005KT 10SM CLR 20/15 A3018 RMK AO2 T02040151
KHZX 300214Z AUTO 28005KT 10SM CLR 05/M03 A2987 RMK AO2
KHZY 300153Z AUTO 20015G25KT 10SM OVC055 05/M09 A2991 RMK AO2 SLP135 T00501089
KI16 300155Z AUTO 10SM OVC110 07/M05 A3009 RMK AO2 T00691052
KI39 300215Z AUTO 21008KT 10SM BKN044 OVC060 12/M08 A3002 RMK AO2
KI67 300215Z AUTO 29005KT 10SM OVC046 05/02 A3000 RMK AO1
KI69 300215Z AUTO 32006KT 5SM -SN SCT046 BKN065 OVC075 08/01 A2992 RMK AO1 P0003
KI75 300155Z AUTO 28006KT 10SM CLR 08/M02 A3006 RMK AO2 T00801018
KIAB 300158Z AUTO 03008KT 10SM CLR 15/00 A3014 RMK AO2 SLP208 T01491001
KIAD 300152Z 16008KT 10SM SCT250 04/M13 A3013 RMK AO2 SLP206 T00441133
KIAG 300153Z 24027G38KT 10SM -RA BKN043 OVC070 03/M06 A2990 RMK AO2 PK WND 25038/0152 RAB49 SLP138 P0000 T00331056 $
KIAH 300153Z 18008KT 10SM FEW030 22/16 A3012 RMK AO2 SLP198 T02170156
KIBM 300215Z AUTO 17006KT 10SM CLR 07/M05 A3013 RMK AO2 T00691054
KICL 300215Z AUTO 30007KT 10SM CLR 09/M02 A3013 RMK AO2
KICR 300153Z AUTO 22004KT 10SM CLR 13/M07 A3007 RMK AO2 SLP185 T01331067
KICT 300153Z 01006KT 10SM CLR 17/M01 A3013 RMK AO2 SLP201 T01671006
KIDA 300153Z 21008KT 10SM CLR 12/M08 A3019 RMK AO2 SLP229 T01221078
KIDI 300215Z AUTO 17003KT 10SM FEW036 SCT046 OVC055 05/M13 A3001 RMK A01
KIDP 300155Z AUTO 00000KT 5SM HZ CLR 15/06 A3012 RMK AO2
KIEN 300152Z AUTO 07006KT 10SM CLR 08/M03 A3007 RMK AO2 SLP186 T00831028 $
KIER 300215Z AUTO 19009G16KT 10SM CLR 21/16 A3010 RMK AO2 T02130160
KIFA 300215Z AUTO 31009KT 10SM CLR 06/M01 A3003 RMK AO2 T00591010
KIFP 300215Z AUTO 14003KT 10SM CLR 30/M06 A2990 RMK AO2 PWINO
KIGM 300151Z AUTO 21009KT 10SM CLR 21/M03 A3006 RMK AO2 SLP130 T02061033 TSNO
KIGQ 300215Z AUTO 31009G21KT 10SM BKN032 OVC040 08/00 A2990 RMK AO2 T00830002
KIGX 300156Z AUTO 00000KT 10SM CLR 05/M09 A3024 RMK AO2 SLP243 T00501094 TSNO $
KIIB 300155Z AUTO 31010KT 10SM CLR 07/00 A2997 RMK AO2
KIIY 300155Z AUTO 18004KT 10SM CLR 09/00 A3028 RMK AO2
KIJD 300152Z AUTO 00000KT 10SM CLR M03/M08 A3011 RMK AO2 SLP200 T10281078 $
KIJX 300155Z AUTO 24007KT 10SM BKN046 11/05 A3000 RMK AO2 T01110051
KIKK 300155Z AUTO 29018G32KT 10SM BKN032 BKN038 OVC055 09/05 A2990 RMK AO2 T00910047
KIKT 300215Z AUTO VRB06G15KT 10SM CLR 21/15 A3026 RMK A01
KIKV 300155Z AUTO 32009G15KT 10SM CLR 12/M05 A3004 RMK AO2
KIKW 300214Z AUTO 21011G17KT 4SM BR OVC011 02/01 A2964 RMK AO2 T00200006
KILE 300215Z AUTO 10SM CLR 22/11 A3004 RMK AO1
KILG 300151Z 20005KT 10SM CLR 02/M11 A3020 RMK AO2 SLP226 T00221111
KILM 300153Z 16003KT 10SM CLR 05/M01 A3033 RMK AO2 SLP270 T00501011
KILN 300154Z AUTO 25008KT 7SM -RA BKN047 OVC060 06/M01 A2995 RMK AO2 SLP162 P0006 T00611006 $
KIML 300153Z AUTO 13005KT 10SM 09/M07 A3016 RMK AO2 SLP214 T00891072 $
KIMM 300215Z AUTO 00000KT 10SM CLR A3032 RMK A01 P000
KIMS 300214Z AUTO 28007KT 10SM OVC050 08/01 A3002 RMK AO1
KIMT 300154Z AUTO 30016G30KT 10SM FEW024 SCT028 OVC055 03/M01 A2964 RMK AO2 PK WND 30030/0145 SLP049 T00331011 TSNO
KIND 300154Z 23012KT 10SM SCT045 BKN250 06/02 A2994 RMK AO2 SLP144 T00610022
KINF 300155Z AUTO 00000KT 10SM CLR A3034 RMK AO2
KINJ 300155Z AUTO 14007KT 10SM CLR 22/13 A3001 RMK AO2 T02170125
KINK 300153Z AUTO 07017G24KT 10SM CLR 25/01 A3006 RMK AO2 SLP149 T02500006
KINL 300155Z AUTO 26004KT 10SM CLR 03/M04 A2979 RMK AO2 SLP100 T00281039
KINS 300158Z AUTO 11009KT 10SM CLR 27/M10 A3001 RMK AO2 SLP130 T02671099
KINT 300154Z AUTO 19006KT 10SM CLR 08/M12 A3022 RMK AO2 SLP237 T00781117
KINW 300156Z AUTO 24009KT 10SM CLR 21/M08 A3014 RMK AO2 SLP169 T02061083
KIOB 300155Z AUTO 24007KT 10SM OVC050 11/M07 A3002 RMK AO2
KIOW 300152Z AUTO 31010KT 10SM CLR 11/M02 A2999 RMK AO2 SLP158 T01061022
KIPJ 300215Z AUTO 19004KT 10SM CLR 07/M10 A3024 RMK AO2 T00701098
KIPL 300153Z AUTO 07004KT 10SM CLR 31/06 A2985 RMK AO2 SLP106 T03110056
KIPN 300215Z AUTO 14014KT 10SM FEW025 FEW032 21/15 A3028 RMK A01
KIPT 300154Z 16014G21KT 10SM CLR 05/M14 A3003 RMK AO2 SLP173 T00501139
KIRK 300155Z AUTO 27005KT 10SM CLR 09/02 A3005 RMK AO2 SLP185 T00940022 TSNO
KIRS 300215Z AUTO 22017KT 10SM OVC036 05/00 A2979 RMK AO2
KISM 300148Z 07006KT 10SM SKC 14/03 A3034 RMK LAST
KISN 300152Z AUTO 24006KT 10SM CLR 09/01 A2991 RMK AO2 SLP139 T00940011
KISO 300156Z 00000KT 10SM CLR 02/M02 A3030 RMK AO2
KISP 300156Z 21009KT 10SM FEW260 01/M06 A3014 RMK AO2 SLP207 T00111056
KISQ 300215Z AUTO 31011G19KT 10SM -SN OVC009 01/01 A2955 RMK AO2 T00100006
KISW 300154Z AUTO 26003KT 10SM CLR 03/M01 A2983 RMK AO2 SLP111 T00331011
KITH 300156Z 16010KT 10SM CLR 02/M11 A2996 RMK AO2 T00221111 SLP159
KITR 300153Z AUTO 14006KT 10SM CLR 09/M07 A3020 RMK AO2 SLP211 T00891072
KIWA 300147Z 34004KT 20SM SCT090 29/M06 A2996
KIWD 300215Z AUTO 29008G15KT 10SM FEW043 OVC060 03/M02 A2975 RMK AO1
KIWI 300153Z AUTO 00000KT 10SM CLR M03/M06 A3008 RMK AO2 SLP188 T10281056
KIXA 300155Z AUTO 18005KT 10SM CLR 03/M07 A3025 RMK AO2
KIXD 300153Z 33005KT 10SM CLR 10/03 A3014 RMK AO2 SLP208 T01000028
KIYA 300155Z AUTO 16004KT 10SM CLR 18/18 A3019 RMK AO2 T01820175
KIZA 300155Z AUTO 26008KT 10SM CLR 21/07 A2998 RMK AO2
KIZG 300154Z AUTO 00000KT 10SM CLR M03/M11 A3003 RMK AO2 SLP177 T10331106
KJAC 300151Z VRB04KT 10SM CLR 08/M06 A3022
KJAN 300154Z 17012KT 10SM CLR 21/13 A3012 RMK AO2 SLP196 T02060133
KJAS 300215Z AUTO 18009KT 10SM CLR 22/18 A3015 RMK AO2 T02150175
KJAX 300156Z 09005KT 10SM CLR 09/04 A3035 RMK AO2 SLP279 T00890039
KJBR 300153Z AUTO 00000KT 10SM CLR 12/10 A3005 RMK AO2 SLP177 T01220100
KJCT 300151Z AUTO 19009KT 10SM CLR 25/11 A3003 RMK AO2 SLP140 T02500111
KJDD 300215Z AUTO 17004KT 10SM CLR 24/10 A3006 RMK AO2
KJDN 300148Z AUTO 28003KT 09/00 A2995 RMK AO1 SLP160 T00940000
KJEF 300153Z 30007KT 10SM BKN060 13/06 A3007 RMK AO2 SLP172 T01330056 $
KJER 300153Z AUTO 28003KT 10SM CLR 14/M09 A3019 RMK AO2 SLP221 T01391089
KJES 300215Z AUTO 00000KT 10SM CLR 07/03 A3036 RMK AO2
KJFK 300151Z 20015KT 10SM SCT260 03/M02 A3017 RMK AO2 SLP215 T00281022 $
KJFX 300215Z AUTO 15004KT 10SM CLR 14/05 A3016 RMK A02 P-128
KJFZ 300215Z AUTO 19004KT 10SM SCT100 07/M37 A3005 RMK AO2 T00701373
KJGG 300155Z AUTO 19005KT 10SM CLR 06/M06 A3025 RMK AO1
KJHN 300215Z AUTO 12004KT 10SM CLR 10/M03 A3020 RMK AO2 T00961035
KJHW 300215Z 20015G29KT 10SM SCT041 BKN050 OVC055 01/M07 A2989 RMK AO1
KJKA 300215Z AUTO 16005KT 10SM BKN028 OVC033 19/15 A3027 RMK AO2 T01870153
KJKJ 300212Z AUTO 29005KT 10SM BKN100 07/M01 A2994 RMK AO2
KJKL 300153Z AUTO VRB06KT 10SM CLR 11/M11 A3003 RMK AO2 SLP172 T01061106
KJLN 300153Z 22003KT 10SM CLR 13/05 A3011 RMK AO2 SLP196 T01280050
KJMR 300216Z AUTO 31004KT 10SM CLR 04/M04 A2991 RMK AO2
KJMS 300156Z AUTO 29008KT 10SM FEW070 07/M01 A2993 RMK AO2 SLP149 T00721011
KJNX 300215Z AUTO 00000KT 10SM CLR 04/M03 A3027 RMK AO2
KJOT 300155Z AUTO 29010G15KT 10SM SCT046 08/02 A2990 RMK AO2 T00810015
KJQF 300156Z 20006KT 10SM CLR 08/M09 A3028
KJSO 300215Z AUTO 21005KT 10SM CLR 22/12 A3010 RMK AO2 T02260129
KJST 300154Z AUTO 18011KT 10SM BKN090 OVC110 03/M13 A2997 RMK AO2 SLP172 T00331133
KJSV 300215Z AUTO 00000KT 10SM CLR 17/07 A3010 RMK AO2
KJTC 300215Z AUTO 27007KT 10SM CLR 13/M12 A3030 RMK AO2
KJVL 300215Z AUTO 26005KT 10SM SCT040 SCT048 SCT060 05/01 A2987 RMK AO2
KJVW 300215Z AUTO 18008G16KT 10SM CLR 21/19 A3011 RMK AO2
KJWG 300215Z AUTO 02005KT 10SM CLR 12/04 A3016 RMK AO2 T01160041
KJWY 300215Z AUTO 16006KT 10SM CLR 21/14 A3003 RMK AO2 T02130140
KJXI 300215Z AUTO 00000KT 10SM CLR 22/13 A3006 RMK AO2 T02240128
KJXN 300156Z 22014G26KT 8SM OVC027 04/M01 A2975 RMK AO2 PK WND 22030/0127 RAB32E42 SLP084 P0000 T00391006 $
KJYG 300215Z AUTO 28008KT 10SM CLR 07/M04 A3002 RMK AO2
KJYL 300215Z AUTO 18003KT 10SM CLR 09/01 A3034 RMK AO2 T00860012
KJYM 300214Z AUTO 23013G22KT 7SM -RA OVC028 04/00 A2978 RMK AO2 T00430004
KJYO 300155Z AUTO 17007KT 10SM CLR 06/M10 A3014 RMK AO2
KJYR 300155Z AUTO 00000KT 10SM CLR 09/M06 A3015 RMK AO2
KJZI 300215Z AUTO 00000KT 10SM CLR 06/02 A3035 RMK A02 P000
KKLS 300215Z 31003KT 10SM CLR 16/08 A3021 RMK AO1
KL18 300215Z AUTO 22003KT 10SM CLR 17/13 A3000 RMK AO2
KL35 300155Z AUTO 26004KT 10SM CLR 13/M03 A3024 RMK AO2
KL38 300155Z AUTO 00000KT 10SM CLR 20/16 A3020 RMK AO2 T02010155
KLAA 300153Z AUTO 13009KT 10SM CLR 11/M07 A3017 RMK AO2 SLP199 T01111067
KLAF 300154Z AUTO 24007KT 10SM OVC060 07/03 A2991 RMK AO2 SLP130 T00670028 TSNO
KLAL 300150Z 07010G15KT 10SM SKC 14/05 A3032 RMK LAST
KLAM 300155Z AUTO 12008G15KT 10SM BKN120 16/M04 A3030 RMK AO2 T01601044
KLAN 300153Z 22019G26KT 9SM BKN025 OVC032 03/M01 A2972 RMK AO2 PK WND 23033/0110 RAE06 SLP072 P0000 T00331006
KLAR 300153Z AUTO 25007KT 10SM CLR 07/M11 A3020 RMK AO2 SLP202 T00721111
KLAS 300156Z 13003KT 10SM BKN250 30/M08 A2993 RMK AO2 SLP115 T03001083
KLAW 300153Z AUTO 03007KT 10SM CLR 18/06 A3010 RMK AO2 SLP188 T01780056
KLAX 300153Z 25006KT 10SM FEW008 SCT250 17/14 A2999 RMK AO2 SLP153 T01670139
KLBB 300153Z 06008KT 10SM SCT250 16/M05 A3018 RMK AO2 SLP194 T01561050
KLBE 300155Z 00000KT 10SM FEW043 05/M13 A3001 RMK LAST
KLBF 300153Z AUTO 13004KT 10SM CLR 08/M07 A3014 RMK AO2 SLP209 T00781072 $
KLBL 300215Z AUTO 06004KT 10SM CLR 15/M03 A3021 RMK AO1
KLBT 300154Z AUTO 17003KT 10SM CLR 05/M03 A3030 RMK AO2 SLP261 T00501033
KLBX 300153Z AUTO 17010KT 10SM CLR 19/18 A3013 RMK AO2 SLP204 T01890183
KLCG 300155Z AUTO 29006KT 10SM CLR 07/M07 A3011 RMK AO2 T00701071
KLCH 300153Z 19005KT 10SM CLR 19/17 A3016 RMK AO2 SLP219 T01940172
KLCI 300215Z AUTO 00000KT CLR M03/M09 A3002 RMK AO1
KLCK 300215Z AUTO 23006KT 10SM -DZ SCT041 OVC050 06/00 A2998 RMK AO2 T00551002
KLCQ 300155Z AUTO 11005KT 10SM CLR 09/05 A3033 RMK AO2
KLDJ 300215Z AUTO 00000KT 10SM CLR 06/M10 A3017 RMK AO2 T00601104
KLDM 300215Z AUTO 29011G15KT 10SM BKN033 OVC043 03/01 A2970 RMK AO2 T00330010
KLEB 300153Z AUTO 26004KT 10SM CLR M01/M09 A3002 RMK AO2 SLP176 T10111089
KLEE 300153Z AUTO 06009KT 10SM CLR 13/M01 A3034 RMK AO2 SLP273 T01331011
KLEW 300215Z AUTO 16006KT 10SM CLR M02/M09 A3003 RMK AO1
KLEX 300154Z 19006KT 10SM OVC050 12/M05 A3000 RMK AO2 SLP164 T01171050
KLFI 300158Z AUTO 20004KT 10SM CLR 04/M05 A3024 RMK AO2 SLP247 T00351048 $
KLFK 300153Z AUTO 17011G18KT 10SM CLR 23/16 A3007 RMK AO2 SLP181 T02280156
KLFT 300153Z AUTO 19006KT 10SM CLR 21/17 A3019 RMK AO2 SLP222 T02060167
KLGA 300151Z 20006KT 10SM SCT250 04/M05 A3014 RMK AO2 SLP207 T00441050
KLGB 300153Z 31007KT 10SM CLR 22/13 A2997 RMK AO2 SLP148 T02170133
KLGC 300155Z AUTO 19004KT 10SM CLR 14/03 A3026 RMK AO2 T01370031
KLGD 300215Z AUTO 21008KT 10SM CLR 16/00 A3012 RMK AO1
KLGU 300151Z AUTO 00000KT 10SM CLR 16/M09 A3019 RMK AO2 SLP214 T01561094
KLHB 300215Z AUTO 15010KT 10SM CLR 21/15 A3008 RMK AO2 T02100150
KLHM 300215Z AUTO 10005KT 10SM CLR 23/06 A2996 RMK AO1
KLHQ 300153Z AUTO 21012G21KT 10SM -RA OVC065 08/M04 A2997 RMK AO2 PK WND 22041/0116 PRESRR SLP153 P0002 T00831044
KLHW 300158Z AUTO 00000KT 10SM CLR 08/01 A3034 RMK AO2 SLP277 T00750010
KLHX 300153Z AUTO 14009KT 10SM CLR 14/M06 A3018 RMK AO2 SLP189 T01441061
KLHZ 300155Z AUTO 19003KT 10SM CLR 03/M07 A3025 RMK AO2
KLIC 300155Z AUTO 16006KT 10SM CLR 07/M05 A3021 RMK AO2 SLP212 T00721050
KLIT 300153Z 36006KT 10SM FEW070 SCT180 BKN250 20/09 A3004 RMK AO2 SLP174 T02000094
KLJF 300213Z AUTO 00000KT 10SM CLR 06/M02 A2997 RMK AO2
KLKR 300215Z AUTO 16004KT 10SM CLR 05/M07 A3028 RMK AO2
KLKU 300155Z AUTO 15004KT 10SM CLR 05/M12 A3015 RMK AO2
KLKV 300215Z 21005KT 10SM CLR 14/M01 A3017 RMK AO1
KLLJ 300155Z AUTO 24007KT 10SM CLR 14/M06 A3015 RMK AO2 SLP202 T01391061
KLLQ 300153Z AUTO 19004KT 10SM CLR 21/14 A3003 RMK AO2 SLP167 T02060144
KLMO 300215Z AUTO 29003KT 10SM CLR 11/M03 A3018 RMK AO2 T01141030
KLMT 300153Z 29003KT 10SM CLR 18/02 A3015 RMK AO2 SLP197 T01830017
KLNC 300215Z AUTO 16007KT 10SM CLR 22/12 A3002 RMK AO2 T02200117
KLND 300153Z AUTO 23007KT 10SM CLR 13/M12 A3008 RMK AO2 SLP168 T01331122
KLNK 300154Z 33003KT 10SM CLR 07/M04 A3014 RMK AO2 SLP211 T00721044
KLNL 300155Z AUTO 31010G18KT 10SM SCT021 BKN029 OVC045 02/00 A2972 RMK AO2 T00211002
KLNN 300215Z AUTO 24017G28KT 10SM OVC050 06/M06 A2989 RMK AO1 T00601065
KLNP 300215Z AUTO 21015G21KT 10SM BKN110 08/M12 A3005 RMK AO2
KLNR 300156Z AUTO 28009KT 10SM CLR 06/M01 A2986 RMK AO2 SLP113 T00611006
KLNS 300153Z 19006KT 10SM CLR 02/M12 A3013 RMK AO2 SLP205 T00221122
KLOL 300153Z AUTO 03005KT 10SM CLR 22/M12 A3009 RMK AO2 SLP184 T02171122
KLOM 300215Z AUTO 00000KT 10SM CLR 02/M10 A3015 RMK AO1
KLOR 300153Z AUTO 18003KT 10SM CLR 13/06 A3028 RMK AO2 SLP252 T01330061
KLOT 300155Z AUTO 31015G19KT 10SM CLR 07/01 A2989 RMK AO2 T00660011
KLOU 300153Z 21007KT 10SM -RA SCT065 BKN090 OVC110 14/M02 A2998 RMK AO2 RAB12E22B52 SLP152 P0000 T01391017
KLOZ 300153Z AUTO 19004KT 10SM CLR 12/M09 A3005 RMK AO2 SLP177 T01171089
KLPC 300215Z AUTO 26007KT 8SM CLR 14/10 A3002 RMK AO1
KLPR 300153Z AUTO 24017G29KT 9SM -SN SCT030 OVC037 03/M01 A2993 RMK AO2 PK WND 24043/0127 RAB01E46SNB46 SLP141 P0000 T00331006 TSNO
KLQK 300215Z AUTO 20006KT 10SM CLR 07/M06 A3025 RMK AO2 T00721058
KLRD 300156Z AUTO 14011G19KT 10SM CLR 26/16 A3003 RMK AO2 T02550161 SLP159
KLRF 300158Z AUTO 35004KT 10SM SCT150 19/12 A3004 RMK AO2 SLP175 T01850120
KLRJ 300155Z AUTO 00000KT 10SM CLR 06/M05 A3008 RMK AO2
KLRO 300155Z AUTO 00000KT 10SM -RA CLR 05/03 A3035 RMK AO2
KLRU 300155Z AUTO 23005KT 10SM CLR 23/M09 A3015 RMK AO2 T02281091
KLSB 300155Z AUTO 21004KT 10SM CLR 20/M06 A3012 RMK AO2
KLSE 300153Z AUTO 29009KT 10SM CLR 09/M02 A2987 RMK AO2 SLP123 T00891022
KLSF 300158Z AUTO 12002KT 10SM CLR 12/04 A3028 RMK AO2 SLP257 T01230037
KLSV 300158Z AUTO 05001KT 10SM CLR 30/M07 A2994 RMK AO2 SLP121 T02991072
KLTS 300158Z AUTO 04009KT 10SM CLR 14/06 A3011 RMK AO2 SLP193 T01430055 $
KLUA 300215Z AUTO 22008KT 10SM CLR 07/M09 A3008 RMK AO2
KLUD 300215Z AUTO 03009G15KT 10SM CLR 24/10 A3005 RMK AO2 T02350101
KLUF 300158Z AUTO 01005KT 10SM CLR 30/M01 A2990 RMK AO2 SLP116 T03001006 $
KLUK 300153Z 23006KT 6SM RA OVC065 08/01 A2994 RMK AO2 SLP140 P0004 T00780011
KLUM 300215Z AUTO 28010G18KT 10SM CLR 08/M03 A2988 RMK AO2 T00751034
KLUX 300215Z AUTO 18004KT 10SM CLR 06/M01 A3027 RMK AO2
KLVJ 300153Z AUTO 17005KT 10SM CLR 21/18 A3015 RMK AO2 SLP207 T02110178
KLVK 300153Z 27007KT 10SM CLR 24/07 A2999 RMK AO2 SLP154 T02440067
KLVL 300215Z AUTO 18005KT 10SM CLR 03/M08 A3023 RMK AO1 T00261077
KLVM 300153Z AUTO 25021G25KT 10SM SCT110 15/M08 A3005 RMK AO2 PK WND 25026/0153 SLP168 T01501078
KLVN 300214Z AUTO 26006KT 10SM CLR 06/M02 A2995 RMK AO2
KLVS 300153Z AUTO 14010KT 10SM CLR 12/M04 A3032 RMK AO2 SLP199 T01221044
KLWA 300215Z AUTO 27011G17KT 10SM SCT027 BKN039 OVC047 05/02 A2982 RMK AO2 T00520015
KLWB 300155Z AUTO 19006KT 10SM BKN110 07/M12 A3006 RMK AO2 T00651124
KLWC 300152Z AUTO 36003KT 10SM CLR 09/02 A3014 RMK AO2 SLP208 T00940017
KLWD 300153Z AUTO 28008KT 10SM CLR 07/M01 A3007 RMK AO2 SLP191 T00721006
KLWM 300154Z 18004KT 10SM CLR 01/M13 A3011 RMK AO2 SLP197 T00061128
KLWS 300156Z 00000KT 10SM CLR 17/04 A3013 RMK AO2 SLP206 T01720044
KLWT 300154Z AUTO 28010KT 10SM CLR 12/M03 A3000 RMK AO2 SLP161 T01171028
KLWV 300153Z AUTO 23013G20KT 10SM FEW100 11/06 A3001 RMK AO2 SLP162 T01060061
KLXL 300215Z AUTO 30003KT 10SM CLR 06/M06 A2993 RMK AO2
KLXN 300155Z AUTO 09004KT 10SM CLR 09/M11 A3016 RMK AO2 T00931108
KLXT 300153Z AUTO 34007KT 10SM CLR 12/03 A3013 RMK AO2 SLP205 T01170028 $
KLXV 300153Z AUTO 00000KT 10SM CLR 05/M17 A3035 RMK AO2 SLP202 T00501172
KLXY 300215Z AUTO 17003KT 10SM CLR 21/14 A3006 RMK AO2 T02050136
KLYH 300154Z 19008KT 10SM CLR 06/M11 A3018 RMK AO2 SLP224 T00561111
KLYV 300216Z AUTO 31005KT 10SM CLR 05/M06 A3005 RMK AO2
KLZU 300045Z 00000KT 10SM OVC050 13/M05 A3023 RMK SU
KLZZ 300155Z AUTO 16008KT 10SM CLR 24/14 A3002 RMK AO2 T02420140
KM19 300156Z AUTO 15004KT 10SM FEW120 14/12 A3007 RMK AO2 T01440116 SLP183
KM25 300235Z AUTO 10SM SCT120 13/07 A3006 RMK AO2
KM30 300215Z AUTO 26006KT 10SM SCT046 SCT060 BKN110 14/08 A3008 RMK AO2 T01350082
KM40 300155Z AUTO 14006KT 10SM CLR 17/08 A3011 RMK AO2
KM63 300156Z AUTO 21011KT 10SM SCT230 25/M11 A3010 RMK AO2 SLP134 T02491111
KM91 300215Z AUTO 24007KT 10SM CLR 13/06 A3010 RMK
KMAE 300153Z AUTO 29004KT 10SM CLR 25/07 A2999 RMK AO2 SLP153 T02500067 $
KMAF 300153Z 05016KT 10SM CLR 23/03 A3011 RMK AO2 PK WND 05027/0143 SLP161 T02330033
KMAI 300153Z AUTO 21006KT 10SM CLR 14/07 A3030 RMK AO2 SLP261 T01390072
KMAN 300155Z AUTO 33004KT 10SM CLR 17/M03 A3016 RMK AO1
KMAO 300215Z AUTO 00000KT 10SM CLR 03/M01 A3033 RMK AO2
KMBG 300152Z AUTO 36004KT 10SM CLR 07/M01 A2997 RMK AO2 SLP160 T00671011
KMBL 300215Z AUTO 28019G23KT 10SM FEW028 BKN035 OVC045 03/M01 A2968 RMK AO1
KMBS 300153Z 22020G31KT 10SM OVC022 03/M01 A2966 RMK AO2 PK WND 22031/0151 UPE02 SLP049 P0000 T00331006
KMCB 300153Z AUTO 16009KT 10SM CLR 19/16 A3018 RMK AO2 SLP217 T01890156
KMCC 300215Z AUTO 00000KT 10SM CLR 27/01 A2998 RMK AO2
KMCD 300216Z AUTO 24011G22KT 2SM -SN OVC002 01/01 A2949 RMK AO2 T00050005
KMCE 300153Z AUTO 34007KT 10SM CLR 27/05 A2998 RMK AO2 SLP150 T02670050
KMCF 300158Z AUTO 03004KT 10SM CLR 15/06 A3031 RMK AO2 SLP267 T01520055
KMCI 300153Z 31005KT 10SM CLR 12/02 A3013 RMK AO2 SLP203 T01170022
KMCJ 300215Z AUTO 15008G14KT 10SM CLR 21/17 A3010 RMK AO1
KMCK 300153Z AUTO 08004KT 10SM CLR 13/M08 A3016 RMK AO2 SLP208 T01281083
KMCN 300153Z AUTO 00000KT 10SM CLR 08/00 A3029 RMK AO2 SLP258 T00830000 TSNO
KMCO 300153Z 07006KT 10SM CLR 12/02 A3034 RMK AO2 SLP273 T01220017
KMCW 300153Z AUTO 30011KT 10SM CLR 07/M01 A3000 RMK AO2 SLP164 T00671011 $
KMCX 300215Z AUTO 22013G19KT 10SM BKN043 OVC055 07/03 A2988 RMK AO2 T00650030
KMDD 300155Z AUTO 06007KT 10SM CLR 22/03 A3012 RMK AO2 T02200030
KMDH 300152Z AUTO 25007KT 10SM SCT049 12/06 A3005 RMK AO2 SLP175 T01170056
KMDJ 300215Z AUTO 20010KT 10SM CLR 24/17 A3027 RMK A01
KMDQ 300215Z AUTO 15006KT 10SM CLR 12/M01 A3014 RMK AO2
KMDS 300215Z AUTO 28004KT 10SM CLR 07/M07 A3004 RMK AO2
KMDT 300156Z 18010KT 10SM BKN250 04/M11 A3011 RMK AO2 SLP200 T00441111 $
KMDW 300153Z COR 29011G21KT 10SM FEW030 BKN038 BKN049 09/02 A2987 RMK AO2 PK WND 32029/0104 SLP122 T00890022
KMDZ 300155Z AUTO 29006KT 10SM CLR 02/00 A2980 RMK AO2 T00201005
KMEB 300152Z AUTO 19007KT 10SM CLR 06/M06 A3030 RMK AO2 SLP260 T00561061
KMEH 300156Z AUTO 00000KT 10SM CLR 11/04 A3018 RMK AO2 SLP230 T01110039
KMEI 300158Z 19016G24KT 10SM CLR 18/12 A3017 RMK AO2 SLP215 T01780122
KMEM 300154Z 00000KT 10SM OVC065 17/11 A3006 RMK AO2 SLP178 T01720106
KMER 300145Z 34009KT 10SM SKC 26/04 A2998
KMEV 300215Z AUTO 32010KT 10SM BKN100 18/M08 A3014 RMK AO2
KMEZ 300215Z AUTO 31005KT 10SM CLR 21/11 A3009 RMK AO2
KMFD 300152Z 20019G28KT 10SM FEW029 OVC048 02/01 A2993 RMK AO2 PK WND 20038/0101 RAB0056E0059SNB0059E45 SLP148 P0001 T00220006
KMFE 300153Z 14014KT 10SM CLR 23/18 A3008 RMK AO2 SLP185 T02280178
KMFR 300153Z 00000KT 10SM CLR 22/02 A3011 RMK AO2 SLP195 T02220022
KMFV 300155Z AUTO 14006KT 10SM CLR 00/M08 A3024 RMK AO2
KMGC 300155Z AUTO 30012G23KT 10SM BKN029 OVC034 07/00 A2987 RMK AO2
KMGE 300158Z 18005KT 10SM OVC043 14/M03 A3024 RMK AO2A SLP243 T01431034 $
KMGG 300216Z AUTO 27004KT 10SM CLR 07/M02 A2995 RMK AO2 T00651021
KMGJ 300154Z AUTO 21003KT 10SM CLR M03/M08 A3009 RMK AO2 SLP192 T10281083 TSNO
KMGM 300153Z 10SM CLR 16/05 A3025 RMK AO2 SLP242 T01560050 $
KMGN 300215Z AUTO 24014G19KT 5SM -RA OVC007 00/00 A2953 RMK AO2 T00070001
KMGR 300215Z AUTO 00000KT 10SM CLR 11/06 A3032 RMK AO2
KMGW 300153Z VRB03KT 10SM OVC080 07/M14 A3001 RMK AO2 SLP171 T00671144
KMGY 300153Z AUTO 27003KT 8SM -RA OVC047 06/01 A2995 RMK AO2 SLP150 P0003 T00610006
KMHE 300153Z AUTO 24004KT 10SM CLR 09/M06 A3006 RMK AO2 SLP184 T00941061
KMHK 300152Z 00000KT 10SM CLR 10/M01 A3015 RMK AO2 SLP212 T01001006
KMHL 300215Z AUTO 31005KT 10SM CLR 11/05 A3012 RMK AO2
KMHR 300154Z 00000KT 10SM SKC 27/05 A2997
KMHS 300156Z AUTO 29004KT 10SM CLR 18/00 A3012 RMK AO2 SLP208 T01780000
KMHT 300153Z 15003KT 10SM FEW200 00/M11 A3007 RMK AO2 SLP199 T00001106
KMHV 300215Z AUTO 27015G21KT 10SM CLR 23/05 A3002 RMK AO1
KMIA 300153Z VRB04KT 10SM CLR 19/08 A3029 RMK AO2 SLP256 T01890078
KMIB 300158Z AUTO 05002KT 10SM CLR 08/02 A2990 RMK AO2 SLP142 T00800024 $
KMIC 300153Z 28007KT 10SM CLR 08/M03 A2992 RMK AO2 SLP137 T00781028
KMIE 300153Z AUTO 21011KT 10SM FEW047 SCT120 06/00 A2991 RMK AO2 SLP133 T00560000
KMIS 300215Z AUTO 19016KT 10SM CLR 21/16 A3025 RMK A01
KMIV 300154Z AUTO 00000KT 10SM CLR M02/M07 A3021 RMK AO2 SLP228 T10171072
KMIW 300153Z AUTO 31009KT 10SM CLR 06/M02 A3000 RMK AO2 SLP165 T00611017
KMJQ 300213Z AUTO 31009KT 10SM CLR 07/M05 A3004 RMK AO2
KMJX 300215Z AUTO 00000KT 10SM CLR M02/M06 A3019 RMK AO1
KMKC 300154Z 00000KT 10SM CLR 14/02 A3012 RMK AO2 SLP201 T01390022
KMKE 300152Z 30014G23KT 10SM FEW042 OVC050 07/01 A2982 RMK AO2 SLP103 T00670006
KMKG 300155Z 28019G30KT 10SM FEW024 OVC035 05/01 A2974 RMK AO2 PK WND 27030/0143 RAE09 SLP075 P0000 T00500011
KMKJ 300155Z AUTO 00000KT 10SM CLR 06/M12 A3012 RMK AO2 T00591118
KMKL 300153Z AUTO 16003KT 10SM BKN065 13/06 A3008 RMK AO2 SLP185 T01330056
KMKN 300215Z AUTO 27008KT 10SM CLR 25/12 A3004 RMK AO2 T02460115
KMKO 300153Z AUTO 33003KT 10SM CLR 16/07 A3012 RMK AO2 SLP196 T01610067
KMKS 300215Z AUTO 00000KT 10SM CLR 05/00 A3034 RMK AO2
KMKT 300215Z AUTO 29009KT 10SM CLR 07/M01 A2999 RMK AO1
KMKY 300215Z AUTO 06007KT 10SM CLR 17/08 A3030 RMK AO1
KMLB 300153Z 01006KT 10SM CLR 13/06 A3032 RMK AO2 SLP267 T01330056
KMLC 300153Z AUTO 03007KT 10SM FEW110 19/07 A3010 RMK AO2 SLP187 T01940067
KMLE 300155Z AUTO 00000KT 10SM CLR 12/M05 A3011 RMK AO2 T01211053
KMLF 300152Z AUTO 36007KT 10SM CLR 15/M07 A3014 RMK AO2 SLP189 T01501072 TSNO
KMLI 300152Z 30011KT 10SM CLR 10/M01 A2994 RMK AO2 SLP144 T01001006 $
KMLJ 300155Z AUTO 00000KT 10SM CLR 08/00 A3029 RMK AO2
KMLP 300201Z AUTO 25005KT 10SM FEW023 SCT110 03/M01 A3018 RMK AO2 T00331006
KMLS 300153Z AUTO 27005KT 10SM CLR 12/M03 A2998 RMK AO2 SLP158 T01221033
KMLT 300153Z AUTO 00000KT 10SM CLR M03/M09 A3000 RMK AO2 SLP170 T10331089
KMLU 300153Z 19006KT 10SM CLR 23/14 A3008 RMK AO2 PRESRR SLP185 T02280139
KMMH 300215Z AUTO 30007KT 260V320 10SM CLR 14/M06 A3024 RMK AO1
KMMI 300215Z AUTO 19006KT 10SM SCT044 12/M04 A3016 RMK
KMMK 300153Z AUTO 00000KT 10SM CLR M01/M09 A3011 RMK AO2 SLP199 T10111089 TSNO
KMML 300215Z AUTO 26010KT 10SM CLR 06/M05 A3002 RMK AO1
KMMT 300158Z AUTO 15004KT 10SM CLR 06/M05 A3031 RMK AO2 SLP268 T00641054
KMMU 300145Z 24007KT 7SM FEW200 03/M13 A3015 RMK LAST
KMMV 300153Z AUTO 15004KT 10SM CLR 17/09 A3017 RMK AO2 SLP215 T01720089 $
KMNE 300155Z AUTO 18008KT 10SM CLR 24/13 A3007 RMK AO2 T02350133
KMNH 300217Z AUTO 18013KT 10SM CLR 07/M06 A3023 RMK AO2
KMNI 300215Z AUTO 00000KT 10SM -SN CLR 01/M02 A3032 RMK AO2
KMNM 300215Z AUTO 30012G20KT 10SM OVC060 04/M01 A2968 RMK AO1
KMNN 300153Z AUTO 21015KT 10SM OVC044 04/M02 A2995 RMK AO2 PK WND 21037/0105 RAE51 SLP152 P0001 T00441022 TSNO
KMNZ 300215Z AUTO 18013G18KT 10SM CLR 23/11 A3002 RMK AO2 T02270113
KMOB 300156Z 14007KT 10SM FEW031 16/13 A3026 RMK AO2 SLP246 T01560133
KMOD 300153Z 32008KT 10SM CLR 27/02 A2997 RMK AO2 SLP149 T02670017
KMOP 300214Z AUTO 21008G18KT 3SM -RA BKN008 OVC013 02/01 A2963 RMK AO2 T00200010
KMOR 300155Z AUTO 23005KT 10SM SCT050 09/M06 A3012 RMK
KMOT 300154Z AUTO 00000KT 10SM CLR 04/M01 A2992 RMK AO2 SLP145 T00441011
KMOX 300213Z AUTO 27006KT 10SM CLR 04/M02 A2996 RMK AO2
KMPO 300153Z AUTO 23007KT 10SM CLR M01/M14 A3004 RMK AO2 SLP196 T10061139
KMPV 300151Z AUTO 20005KT 10SM CLR 00/M13 A3001 RMK AO2 SLP179 T00001133 $
KMPZ 300155Z AUTO 30009KT 10SM CLR 11/M02 A3000 RMK AO2 T01101024
KMQB 300215Z AUTO 29009KT 10SM CLR 06/02 A3001 RMK AO2 T00640021
KMQE 300154Z AUTO 19010KT M01/M08 A3008 RMK AO1 SLP205 T10111083
KMQI 300215Z AUTO 17004KT 10SM CLR 02/M03 A3031 RMK AO2 T00161035
KMQJ 300216Z AUTO 22010KT 10SM CLR 06/M01 A2994 RMK AO1
KMQS 300215Z AUTO 24003KT 10SM CLR 00/M09 A3014 RMK AO2
KMQY 300156Z AUTO 20007KT 10SM CLR 13/02 A3011 RMK AO2 T01270022 PRESRR SLP207
KMRB 300153Z AUTO 16009KT 10SM CLR 06/M13 A3008 RMK AO2 SLP189 T00611128 TSNO
KMRC 300215Z AUTO 19005KT 10SM CLR 12/04 A3009 RMK
KMRF 300215Z AUTO 07006KT 10SM CLR 18/M04 A3021 RMK AO1
KMRH 300158Z AUTO 00000KT 10SM CLR 03/M02 A3033 RMK AO2 SLP270 T00281017 TSNO
KMRJ 300150Z AUTO 27011KT 10SM CLR 05/00 A2987 RMK AO2
KMRN 300215Z AUTO 16003KT 10SM CLR A3025 RMK AO2
KMRT 300214Z AUTO 23010KT 10SM OVC044 03/00 A2996 RMK AO2 T00321005
KMRY 300154Z 30005KT 9SM CLR 16/09 A3005 RMK AO2 SLP187 T01560094
KMSL 300153Z AUTO 12004KT 10SM CLR 12/04 A3013 RMK AO2 SLP202 T01170044 $
KMSN 300153Z 00000KT 10SM SCT036 BKN050 04/01 A2985 RMK AO2 SLP115 T00390011
KMSO 300153Z 29005KT 10SM CLR 11/01 A3017 RMK AO2 SLP234 T01060011
KMSP 300153Z 29010KT 10SM CLR 08/M03 A2993 RMK AO2 SLP140 T00781028
KMSS 300153Z AUTO 18006KT 10SM CLR M01/M12 A2994 RMK AO2 SLP145 T10061117
KMSV 300215Z AUTO 21004KT 10SM CLR M01/M13 A3005 RMK AO1
KMSY 300153Z 16007KT 10SM FEW050 20/17 A3021 RMK AO2 SLP234 T02000167
KMTC 300158Z AUTO 20016G26KT 10SM BKN043 OVC080 06/M04 A2972 RMK AO2 PK WND 21028/09 SLP072 T00551042 20027 $
KMTH 300153Z AUTO 06012KT 10SM CLR 22/13 A3026 RMK AO2 SLP248 T02170133
KMTJ 300153Z AUTO 00000KT 10SM CLR 17/M11 A3018 RMK AO2 SLP174 T01671111
KMTN 300218Z AUTO 15009KT 10SM CLR 03/M02 A3019 RMK AO2
KMTO 300153Z AUTO 22009KT 10SM OVC060 09/05 A2996 RMK AO2 SLP150 T00890050
KMTP 300154Z AUTO 22005KT 02/M05 A3016 RMK AO1 SLP213 T00221050
KMTV 300155Z AUTO 20003KT 10SM CLR 06/M11 A3021 RMK AO2 T00631113
KMTW 300156Z AUTO 30018G25KT 10SM OVC050 04/02 A2974 RMK AO2 SLP095 T00440017
KMUI 300158Z AUTO 01001KT 10SM CLR M01/M10 A3011 RMK AO2 SLP204 T10091100
KMUO 300058Z AUTO 36005KT 10SM CLR 19/M06 A3016 RMK AO2 SLP216 T01891060 $
KMUT 300155Z AUTO 30010KT 10SM CLR 09/M01 A2997 RMK AO2
KMVE 300214Z AUTO 29003KT 10SM CLR 07/M03 A3000 RMK AO2
KMVH 300215Z AUTO 00000KT 10SM CLR 07/M03 A3003 RMK A01
KMVL 300154Z AUTO 15003KT 10SM CLR M03/M08 A2999 RMK AO2 SLP167 T10281083 TSNO
KMVN 300215Z AUTO 21006KT 10SM CLR 08/04 A3004 RMK AO1
KMVY 300153Z AUTO 19005KT 10SM CLR M03/M08 A3016 RMK AO2 SLP214 T10281083 $
KMWA 300215Z AUTO 22006KT 10SM OVC050 13/07 A3006 RMK AO2
KMWC 300145Z AUTO 28015G24KT 10SM OVC080 05/02 A2978 RMK LAST
KMWH 300152Z 22006KT 10SM CLR 17/04 A3011 RMK AO2 SLP200 T01720044
KMWK 300155Z AUTO 20004KT CLR 07/M12 A3021 RMK AO2 T00711116 PWINO
KMWL 300153Z AUTO 36008KT 10SM CLR 24/11 A3001 RMK AO2 SLP151 T02440111
KMWM 300213Z AUTO 28008KT 10SM CLR 04/M04 A3003 RMK AO2
KMWN 300153Z 26027KT 120SM BKN100 BKN150 M08/M25 RMK
KMWO 300215Z AUTO 00000KT 10SM OVC049 06/02 A2999 RMK AO2 T00550020
KMWS 300200Z 17004G08KT 18/M10 RMK SNOW DEPTH 3.00
KMWT 300153Z AUTO 00000KT 10SM OVC085 18/13 A3003 RMK AO2 SLP170 T01830128
KMXF 300158Z AUTO 17009KT 10SM CLR 14/06 A3023 RMK AO2 SLP240 T01400059
KMXO 300155Z AUTO 31016KT 10SM CLR 08/M00 A2995 RMK AO2
KMYF 300153Z 23003KT 10SM CLR 18/14 A2999 RMK AO2 SLP154 T01830144
KMYL 300151Z AUTO 00000KT 10SM CLR 11/M02 A3020 RMK AO2 SLP234 T01111017
KMYR 300153Z 19005KT 10SM CLR 07/M01 A3036
KMYV 300153Z AUTO 10003KT 10SM CLR 27/05 A2995 RMK AO2 SLP147 T02670050
KMYZ 300155Z AUTO 00000KT 10SM CLR 08/00 A3015 RMK AO2
KMZH 300212Z AUTO 00000KT 10SM CLR 05/M03 A2984 RMK AO2
KMZZ 300155Z AUTO 21012KT 10SM BKN050 OVC070 04/00 A2990 RMK AO2 T00380003
KN03 300215Z AUTO 19008G15KT 10SM CLR 02/M10 A2996 RMK AO2
KN38 300215Z AUTO 19012G23KT 10SM SCT110 02/M14 A2994 RMK AO2
KN60 300152Z AUTO 29006KT 07/M01 A2993 RMK AO1 SLP150 T00671006
KNAK 300154Z AUTO 16008KT 10SM CLR 03/M03 A3019 RMK AO2 SLP224 T00331033
KNBC 300156Z AUTO 18003KT 10SM CLR 08/03 A3035 RMK AO2 SLP277 T00830028
KNBG 300155Z AUTO 17008KT 10SM CLR 19/17 A3021 RMK AO2 SLP230 T01890167 PNO $
KNBT 300156Z AUTO 16004KT CLR A3032 RMK AO2 SLP273 PNO $
KNCA 300156Z AUTO 20006KT 10SM CLR 04/M03 A3033 RMK AO2 SLP271 T00391028
KNDZ 300156Z 13006KT 10SM SCT041 14/09 A3029 RMK AO2 SLP245 T01440094 $
KNEW 300153Z AUTO 17010KT 10SM FEW041 21/16 A3022 RMK AO2 SLP227 T02110161 TSNO
KNFE 300156Z AUTO 16005KT 10SM CLR 03/M04 A3027 RMK AO2 SLP253 T00331039
KNFG 300154Z AUTO 22003KT 5SM HZ CLR 18/14 A2999 RMK AO2 SLP153 T01830139 $
KNFL 300156Z AUTO 36005KT 10SM CLR 22/M14 A3009 RMK AO2 SLP158 T02171139
KNFW 300152Z AUTO 22005KT 10SM FEW085 26/13 A3005 RMK AO2 SLP159 T02560133 $
KNGP 300156Z AUTO 16017G22KT 10SM CLR 21/19 A3009 RMK AO2 SLP189 T02060189
KNGU 300159Z 15008KT 10SM SCT260 06/M06 A3027 RMK SLP249 T00561061
KNHK 300152Z AUTO 16006KT 10SM CLR 02/M08 A3023 RMK AO2 SLP235 T00221083
KNID 300156Z AUTO 19008KT 10SM CLR 28/M11 A2996 RMK AO2 SLP135 T02781106 $
KNIP 300153Z 11008KT 10SM CLR 14/04 A3037 RMK AO2 SLP278 T01390039
KNJK 300156Z AUTO 07005KT 10SM CLR 30/03 A2985 RMK AO2 SLP122 T03000028
KNJM 300157Z AUTO 00000KT 10SM CLR 02/M04 A3034 RMK AO2 SLP276 T00171039
KNKT 300154Z 17003KT 10SM CLR 01/M03 A3033 RMK AO2 SLP267 T00111028 $
KNKX 300155Z 27004KT 10SM BKN200 19/13 A2999 RMK AO2 SLP150 T01940133
KNLC 300156Z 35008KT 10SM CLR 27/01 A2998 RMK AO2 SLP151 T02670011
KNMM 300156Z 19011G18KT 10SM FEW050 19/11 A3014 RMK SLPNO LAST T01930114
KNOG 300156Z AUTO 15012KT 10SM CLR 21/18 A3007 RMK AO2 SLP163 T02110178 $
KNPA 300156Z AUTO 15011KT 10SM FEW038 18/14 A3027 RMK AO2 SLP251 T01830139
KNQA 292350Z 18008KT 10SM SCT250 20/11 A3003
KNQI 300156Z AUTO 15016KT 10SM CLR 22/19 A3007 RMK AO2 SLP180 T02220189 TSNO $
KNQX 300153Z 07011KT 10SM FEW020 22/14 A3026 RMK AO2 SLP246 T02170139 $
KNRB 300152Z AUTO 10008KT 10SM CLR 12/04 A3036 RMK AO2 SLP279 T01220039 PNO $
KNRS 300156Z AUTO 29004KT CLR 18/15 A3000 RMK AO2 SLP159 T01830150
KNSE 300156Z 13004KT 10SM FEW029 BKN042 13/09 A3029 RMK AO2 SLP243 T01280094 $
KNSI 300157Z AUTO 29004KT 7SM CLR A2999 RMK AO2 SLPNO $
KNTD 300202Z 27005KT 1/4SM FG VV002 16/14 A2999 RMK AO2 T01560139 $
KNTU 300156Z 15009KT 10SM SCT260 04/M05 A3026 RMK AO2 SLP249 T00391050
KNUI 300153Z AUTO 15007KT 10SM CLR 03/M05 A3022 RMK AO2 SLP234 T00331050 $
KNUQ 300156Z 35008KT 10SM CLR 19/12 A3002 RMK AO2 SLP167 T01890117
KNUW 300156Z 17007KT 10SM SCT028 BKN070 OVC100 15/09 A3015 RMK AO2 SLP213 T01500089 VISNO E $
KNXF 300156Z AUTO 18013G16KT 160V240 5SM HZ BKN010 18/14 A2999 RMK AO2 SLP241 T01830144 $
KNXP 300156Z AUTO 20008KT 10SM CLR 28/M07 A3001 RMK AO2 SLP133 T02831072
KNY0 300155Z AUTO 15004KT 10SM CLR M01/M13 A3002 RMK AO2 T10131126
KNYC 300151Z AUTO 22007KT 180V250 10SM CLR 06/M13 A3016 RMK AO2 SLP205 T00561128 $
KNYG 300156Z AUTO 18013KT 10SM CLR 07/M07 A3019 RMK AO2 SLP223 T00671067
KNYL 300157Z AUTO 24004KT 10SM CLR 33/01 A2986 RMK AO2 SLP108 T03330006 $
KNZY 300152Z 28003KT 9SM FEW010 FEW200 BKN250 18/14 A2998 RMK AO2 SLP152 T01780144 $
KO22 300155Z AUTO 30003KT 10SM CLR 22/06 A3005 RMK AO1
KO54 300155Z AUTO 24005KT 10SM CLR 22/04 A3006 RMK AO1
KO69 300215Z AUTO 32004KT 10SM CLR 17/10 A3003 RMK AO1
KO86 300210Z AUTO 26005KT 10SM CLR 19/06 A3007 RMK AO1
KOAJ 300215Z AUTO 00000KT 10SM CLR 00/M04 A3032 RMK AO1
KOAK 300153Z 30007KT 10SM FEW250 17/11 A3001 RMK AO2 SLP163 T01720106
KOBE 300215Z AUTO 03006KT 10SM CLR 11/05 A3033 RMK AO2
KOCF 300215Z AUTO 08005KT 10SM CLR 12/01 A3034 RMK AO1
KOCH 300215Z AUTO 18011G16KT 10SM CLR 21/15 A3008 RMK AO1
KOCQ 300155Z AUTO 29011G17KT 10SM OVC050 04/00 A2971 RMK AO1 T00420002
KOCW 300215Z AUTO 17003KT 10SM CLR 03/M04 A3029 RMK AO2 T00291044
KODO 300153Z AUTO 06013KT 10SM CLR 22/02 A3012 RMK AO2 SLP166 T02170022
KODX 300153Z AUTO 00000KT 10SM CLR 05/M10 A3013 RMK AO2 SLP210 T00501100 $
KOEB 300215Z AUTO 24017G24KT 7SM OVC035 05/01 A2978 RMK AO2 T00490005
KOEO 300155Z AUTO 29006KT 10SM CLR 06/M03 A2993 RMK AO2 T00631026
KOFF 300158Z AUTO 31006KT 10SM CLR 06/M05 A3011 RMK AO2 SLP206 T00641048 $
KOFK 300156Z AUTO 28005KT 10SM CLR 08/M07 A3011 RMK AO2 SLP199 T00781067
KOFP 300154Z AUTO 15004KT 10SM CLR 01/M08 A3021 RMK AO2 SLP232 T00111083
KOGA 300155Z AUTO 00000KT 10SM CLR 09/M07 A3014 RMK AO2 T00921070
KOGB 300153Z AUTO 16003KT 10SM CLR 07/M04 A3031 RMK AO2 SLP265 T00721044
KOGD 300153Z 33003KT 10SM CLR 15/M08 A3019 RMK AO2 SLP206 T01501078
KOJA 300215Z AUTO 36005KT 10SM CLR 15/00 A3015 RMK AO2
KOJC 300153Z 34007KT 10SM CLR 13/03 A3012 RMK AO2 SLP202 T01280028
KOKB 300152Z AUTO 26004KT 8SM CLR 18/14 A2998 RMK AO2 SLP152 T01780144
KOKC 300152Z 06005KT 10SM CLR 19/06 A3011 RMK AO2 SLP192 T01890056
KOKK 300215Z AUTO 24018G23KT 10SM 06/02 A2990 RMK AO1
KOKM 300155Z AUTO 00000KT 10SM CLR 16/04 A3011 RMK AO2 T01600037
KOKV 300215Z AUTO 17007KT 10SM CLR 06/M20 A3007 RMK AO2
KOLE 300215Z AUTO 21013G22KT 10SM SCT060 BKN080 OVC090 01/M12 A2988 RMK AO2
KOLF 300153Z AUTO 27006KT 10SM CLR 11/01 A2992 RMK AO2 SLP145 T01110006
KOLG 300155Z AUTO 31006KT 10SM SCT055 05/M03 A2982 RMK AO1
KOLM 300154Z 24003KT 10SM OVC070 14/08 A3017 RMK AO2 SLP217 T01440078
KOLS 300154Z AUTO 28004KT 10SM CLR 24/M04 A3012 RMK AO2 SLP150 T02441044
KOLU 300215Z AUTO 26003KT 10SM CLR 06/M07 A3015 RMK AO1
KOLV 300215Z AUTO 00000KT 9SM BKN060 OVC065 16/11 A3007 RMK A01 P000
KOLY 300155Z AUTO 23003KT 10SM CLR 08/05 A3001 RMK AO2
KOLZ 300155Z AUTO 31017G22KT 10SM CLR 08/00 A2997 RMK AO2
KOMA 300152Z 29006KT 10SM CLR 13/M06 A3010 RMK AO2 SLP196 T01281061
KOMH 300155Z AUTO 16003KT 10SM CLR 05/M12 A3016 RMK AO2
KOMK 300153Z AUTO 16008KT 10SM CLR 17/02 A3007 RMK AO2 SLP185 T01670022
KOMN 292250Z 02010KT 10SM SKC 14/00 A3033 RMK LAST
KONA 300213Z AUTO 29010G16KT 10SM CLR 09/00 A2991 RMK AO2
KONL 300215Z AUTO 22004KT 10SM CLR 08/M05 A3012 RMK AO2 T00811051
KONM 300155Z AUTO 35006KT 170V140 10SM CLR 22/M11 A3010 RMK AO2 T02161112
KONO 300153Z AUTO 00000KT 10SM CLR 17/M01 A3016 RMK AO2 SLP220 T01721006
KONP 300215Z AUTO 00000KT 10SM OVC008 11/10 A3023 RMK AO2
KONT 300153Z 26011KT 10SM CLR 24/07 A2997 RMK AO2 SLP139 T02440067
KONX 300215Z AUTO 13003KT 10SM CLR 02/M04 A3028 RMK AO2 T00161044
KONZ 300214Z AUTO 20020G28KT 10SM OVC046 06/M02 A2977 RMK AO2
KOOA 300155Z AUTO 31005KT 10SM CLR 06/M03 A3002 RMK AO2 T00551029
KOPF 300153Z 02006KT 10SM CLR 19/08 A3029 RMK AO2 SLP258 T01890078
KOPL 300155Z AUTO 19007KT 10SM SCT035 20/16 A3017 RMK AO2 T01980162
KOPN 300215Z AUTO 18004KT 10SM SCT047 11/M01 A3030 RMK AO2
KOQT 300153Z AUTO 22010G19KT 190V260 10SM BKN044 14/M04 A3013 RMK AO2 SLP208 T01391044
KOQU 292150Z 19018KT 15SM SKC A3011 RMK LAST
KORB 300213Z AUTO 00000KT 10SM CLR 02/M04 A2978 RMK AO2
KORC 300155Z AUTO 32004KT 10SM CLR 09/M07 A3006 RMK AO2
KORD 300151Z 30012KT 10SM FEW038 SCT050 07/01 A2986 RMK AO2 PK WND 29026/0116 SLP114 T00720011
KORE 300152Z AUTO 00000KT 10SM CLR M04/M09 A3007 RMK AO2 SLP190 T10441094
KORF 300151Z AUTO 16009KT 10SM CLR 03/M05 A3026 RMK AO2 SLP245 T00281050 TSNO
KORG 300215Z AUTO 19008KT 10SM CLR 20/16 A3017 RMK AO2 T02020163
KORH 300154Z AUTO 21003KT 10SM CLR M01/M16 A3006 RMK AO2 SLP191 T10061161
KORL 300153Z AUTO 06008KT 10SM CLR 13/00 A3033 RMK AO2 SLP277 T01280000
KORS 300215Z AUTO 00000KT 5SM -RA OVC033 11/10 A3013 RMK AO2
KOSA 300155Z AUTO 20005KT 10SM CLR 23/11 A3006 RMK AO1 T02300111
KOSC 300214Z AUTO 21012G17KT 10SM OVC013 01/00 A2959 RMK AO2 T00120000
KOSH 300153Z 30014G24KT 10SM OVC050 05/M01 A2978 RMK AO2 SLP094 T00501011
KOSU 300153Z 17004KT 10SM -RA FEW036 OVC050 04/00 A2997 RMK AO2 PK WND 19028/0055 SLP155 P0002 T00440000
KOTG 300215Z AUTO 31008KT 10SM CLR 05/M07 A3005 RMK AO1
KOTH 300215Z 34006KT 10SM CLR 13/11 A3021 RMK AO1
KOTM 300153Z AUTO 29005KT 10SM CLR 08/M04 A3002 RMK AO2 SLP169 T00831044
KOUN 300155Z AUTO 07003KT 10SM CLR 17/07 A3013 RMK AO2
KOVE 300153Z AUTO 17005KT 10SM CLR 27/04 A2997 RMK AO2 SLP149 T02670044 $
KOVL 300213Z AUTO 27006KT 10SM CLR 02/M01 A2998 RMK AO2
KOVS 300153Z AUTO 25007KT 10SM CLR 08/M02 A2989 RMK AO2 SLP129 T00831017
KOWA 300215Z AUTO 28010KT 10SM CLR 05/M01 A2997 RMK AO2
KOWB 300156Z 24008KT 10SM -RA SCT045 OVC100 13/06 A3003 RMK AO2 T01330055 RAB52 P0000 SLP169
KOWD 300153Z AUTO 19004KT 10SM CLR 00/M08 A3012 RMK AO2 SLP200 T00001083
KOWP 300215Z AUTO 15004KT 10SM CLR 16/04 A3012 RMK AO2 T01610036
KOXB 300153Z AUTO 00000KT 10SM CLR 00/M03 A3024 RMK AO2 SLP240 T00001033 TSNO
KOXC 300215Z 20005KT 10SM CLR 00/M14 A3011 RMK AO1
KOXI 300215Z AUTO 24014KT 10SM 06/M03 A2984 RMK AO1
KOXR 300151Z 29007KT 1/4SM FG VV002 15/14 A2998 RMK AO2 SLP152 T01500139
KOXV 300155Z AUTO 30007KT 10SM CLR 10/M05 A3002 RMK AO2
KOZA 300155Z AUTO 19009KT 10SM CLR 23/07 A3005 RMK AO2
KOZR 300158Z AUTO 21005KT 10SM CLR 14/05 A3029 RMK AO2 SLP260 T01390052 $
KOZW 300214Z AUTO 21014G24KT 7SM OVC026 03/00 A2972 RMK AO2 T00300002
KP08 300215Z AUTO 36003KT 10SM CLR 29/M08 A2996 RMK AO2
KP28 300156Z AUTO 35004KT 14/M01 A3015 RMK AO1 SLP208 T01391006
KP53 300156Z AUTO 31013G26KT 03/00 A2956 RMK AO1 PK WND 33030/0111 SLP018 P0001 T00280000
KP58 300151Z AUTO 20010G17KT 170V230 02/M01 A2964 RMK AO1 SLP045 T00171011
KP59 300151Z AUTO 35021G30KT 02/M01 A2959 RMK AO1 PK WND 36030/0151 SLP030 T00171006 $
KP60 300156Z AUTO VRB03KT 03/M10 A3027 RMK AO1 SLP267 T00331100 $
KP68 300153Z AUTO 00000KT 18/M09 A3016 RMK AO1 SLP177 T01781094
KP69 300152Z AUTO 34003KT 10/07 A3014 RMK AO1 SLP214 T01000072 $
KP92 300153Z AUTO VRB04KT 19/18 A3020 RMK AO1 SLP224 T01890178 $
KPAE 300153Z 18012KT 10SM -RA SCT028 BKN049 OVC095 14/08 A3016 RMK AO2 RAB27 SLP215 P0000 T01390078
KPAH 300153Z 26006KT 10SM SCT044 BKN110 13/07 A3004 RMK AO2 SLP174 T01330067
KPAM 300158Z AUTO 17009KT 10SM CLR 15/09 A3031 RMK AO2 SLP267 T01480086 $
KPAN 300215Z AUTO 23004KT 10SM CLR 19/M09 A3019 RMK AO2
KPAO 300147Z 34012KT 10SM SKC 19/13 A3000
KPBF 300153Z AUTO 18003KT 10SM CLR 19/13 A3003 RMK AO2 SLP167 T01940133
KPBG 300153Z AUTO 21004KT 10SM CLR 01/M11 A2997 RMK AO2 SLP153 T00061111
KPBH 300215Z AUTO 29003KT 10SM SCT050 02/M01 A2979 RMK AO2 T00181012
KPBI 300153Z 34009KT 10SM FEW037 17/08 A3029 RMK AO2 SLP255 T01670078
KPBX 300155Z AUTO 00000KT 10SM SCT120 10/M13 A3004 RMK AO2 T01031131
KPCM 300215Z AUTO 09005KT 10SM CLR 15/06 A3034 RMK AO2
KPCW 300212Z AUTO 21016KT 10SM SCT035 OVC045 05/M01 A2985 RMK AO2 $
KPCZ 300215Z AUTO 30006KT 10SM BKN050 06/00 A2981 RMK AO2 T00551005
KPDC 300215Z AUTO 29014G18KT 10SM CLR 07/M03 A2992 RMK AO2 T00711027
KPDK 300153Z 19006KT 10SM OVC050 13/M03 A3025 RMK AO2 SLP249 T01331033
KPDT 300153Z 00000KT 10SM CLR 17/03 A3013 RMK AO2 SLP198 T01720028
KPDX 300153Z 32004KT 10SM FEW100 FEW200 19/06 A3016 RMK AO2 SLP212 T01890061
KPEA 300155Z AUTO 31006KT 10SM CLR 08/M02 A3004 RMK AO2 T00831016
KPEO 300153Z AUTO 18010KT 10SM CLR 04/M12 A2992 RMK AO2 SLP142 T00441122
KPEQ 300215Z AUTO 05016G21KT 10SM CLR 24/02 A3005 RMK AO2 T02420022
KPEX 300214Z AUTO 22006KT 10SM BKN085 01/M04 A2996 RMK AO2 T00091036
KPEZ 300215Z AUTO 13011G17KT 10SM CLR 22/17 A3005 RMK AO2 T02220168
KPGA 300153Z AUTO 11003KT 10SM CLR 22/M06 A3008 RMK AO2 SLP138 T02221056 TSNO
KPGD 300153Z AUTO 08009KT 10SM CLR 14/07 A3033 RMK AO2 SLP270 T01440067
KPGV 300155Z AUTO 19004KT 10SM CLR 05/M05 A3029 RMK AO2
KPHD 300216Z AUTO 23005KT 8SM -RA SCT031 OVC049 04/M01 A3000 RMK AO2 P0001 T00391006
KPHF 300154Z 18003KT 10SM CLR 03/M07 A3025 RMK AO2 SLP244 T00331072
KPHL 300154Z 20008KT 10SM FEW200 04/M11 A3019 RMK AO2 SLP224 T00391106
KPHN 300216Z AUTO 21013G24KT 10SM OVC043 04/M03 A2974 RMK AO2
KPHP 300155Z AUTO 25004KT 10SM CLR 11/M04 A3004 RMK AO2 SLP174 T01111044 $
KPHT 300215Z AUTO 18005KT 10SM SCT050 OVC060 12/04 A3008 RMK
KPHX 300151Z 33007KT 10SM FEW180 BKN250 33/M08 A2991 RMK AO2 SLP111 T03331083
KPIA 300154Z 30005KT 10SM CLR 11/03 A2996 RMK AO2 SLP147 T01110033
KPIB 300215Z AUTO 16012G15KT 10SM BKN019 BKN025 18/13 A3021 RMK AO1
KPIE 300153Z 36007KT 10SM CLR 17/09 A3031 RMK AO2 SLP262 T01720089
KPIH 300153Z 24008KT 10SM CLR 12/M09 A3019 RMK AO2 SLP225 T01221089 $
KPIL 300153Z AUTO 16011KT 7SM CLR 22/19 A3010 RMK AO2 SLP192 T02170189
KPIR 300153Z AUTO 21003KT 10SM CLR 12/M02 A3002 RMK AO2 SLP168 T01171022
KPIT 300151Z 18005KT 10SM OVC070 06/M13 A2996 RMK AO2 SLP164 T00561133
KPKB 300153Z AUTO 15003KT 10SM SCT075 OVC090 08/M14 A3002 RMK AO2 SLP171 T00781139
KPKD 300153Z AUTO 27005KT 10SM CLR 01/M04 A2989 RMK AO2 SLP137 T00111039
KPKV 300155Z AUTO 16008KT 10SM CLR 20/18 A3012 RMK AO2 T01980183
KPLN 300154Z AUTO 25013G25KT 4SM -SN BR OVC009 01/00 A2952 RMK AO2 CIG 007V013 SLP003 P0003 T00110000
KPLU 300155Z AUTO 00000KT 10SM OVC043 15/09 A3019 RMK AO2
KPMD 300153Z AUTO 26014KT 10SM CLR 24/M04 A3001 RMK AO2 SLP147 T02391039
KPMP 300153Z AUTO 35008KT 10SM CLR 18/07 A3029 RMK AO2 SLP258 T01780067
KPMV 300215Z AUTO 30005KT 10SM CLR 10/M08 A3013 RMK AO2 T01011085
KPNA 300155Z AUTO 00000KT 10SM BKN100 BKN120 05/M09 A3025 RMK AO2
KPNC 300153Z AUTO 00000KT 10SM CLR 13/02 A3012 RMK AO2 SLP195 T01330022 TSNO
KPNE 300154Z AUTO 22008KT 10SM CLR 04/M12 A3019 RMK AO2 SLP225 T00441117 TSNO
KPNM 300214Z AUTO 28008KT 10SM CLR 07/M03 A2992 RMK AO2
KPNS 300153Z AUTO 16008KT 10SM SCT028 17/13 A3028 RMK AO2 SLP254 T01670128
KPNT 300155Z AUTO 31011KT 10SM SCT033 BKN039 BKN048 10/06 A2993 RMK AO2 T01000061
KPOB 300158Z AUTO 20009KT 10SM FEW220 08/M07 A3027 RMK AO2 SLP254 T00841071
KPOC 300147Z 23010KT 10SM CLR 24/04 A3001
KPOE 300158Z AUTO 19010KT 10SM CLR 21/16 A3013 RMK AO2 SLP204 T02050159
KPOF 300153Z AUTO 00000KT 10SM FEW100 13/08 A3007 RMK AO2 SLP184 T01280083
KPOU 300153Z AUTO 00000KT 10SM CLR 00/M10 A3010 RMK AO2 SLP193 T00001100
KPOV 300215Z AUTO 23011G26KT 10SM -RA 05/M08 A2992 RMK AO2 T00531084
KPOY 300155Z AUTO 25013G21KT 10SM CLR 12/M11 A3006 RMK AO2
KPPA 300155Z AUTO 08007KT 10SM CLR 13/M04 A3021 RMK AO2 T01281039
KPPF 300152Z AUTO 00000KT 10SM CLR 13/07 A3013 RMK AO2 SLP200 T01330072
KPPO 300215Z AUTO 31011G17KT 10SM BKN030 BKN035 OVC044 08/03 A2987 RMK AO2 T00810030
KPPQ 300215Z AUTO 29005KT 10SM CLR 12/05 A3003 RMK AO2 T01150048
KPQI 300215Z AUTO 22005KT 10SM CLR 00/M14 A2994 RMK AO1
KPQL 300215Z AUTO 14004KT 10SM BKN031 BKN040 OVC055 18/16 A3025 RMK AO2 T01830156 TSNO
KPQN 300214Z AUTO 33003KT 10SM CLR 08/M06 A3004 RMK AO2
KPRB 300153Z AUTO 33005KT 10SM CLR 28/04 A2997 RMK AO2 SLP144 T02830039 TSNO $
KPRC 300153Z 25005KT 10SM CLR 19/M07 A3016 RMK AO2 SLP164 T01891072
KPRG 300155Z AUTO 22010KT 10SM OVC070 07/05 A2997 RMK AO2 T00710051
KPRN 300156Z AUTO 21006KT 10SM CLR 16/08 A3025 RMK AO2 SLP244 T01560078 $
KPRO 300215Z AUTO 30006KT 10SM CLR 08/M04 A3006 RMK AO2 T00771044
KPRS 300155Z AUTO 00000KT 10SM CLR 27/M04 A3003 RMK AO2 T02661037
KPSC 300153Z 24005KT 10SM CLR 19/03 A3010 RMK AO2 SLP193 T01940033
KPSF 300154Z AUTO 29003KT 10SM CLR M03/M11 A3002 RMK AO2 SLP184 T10331111
KPSK 300155Z AUTO 19006KT 10SM CLR 06/M10 A3014 RMK AO2 T00591096
KPSM 300158Z 18005KT 10SM CLR M01/M06 A3007 RMK AO2A SLP187 T10121062
KPSN 300215Z AUTO 19007KT 10SM CLR 22/12 A3009 RMK AO2 T02260123
KPSO 300215Z AUTO 00000KT 10SM CLR 09/M05 A3027 RMK AO2 T00941050
KPSP 300153Z 08006KT 10SM CLR 33/M05 A2989 RMK AO2 SLP118 T03281050
KPSX 300153Z AUTO 16012KT 10SM CLR 21/18 A3012 RMK AO2 SLP199 T02110183
KPTB 300155Z AUTO 00000KT 10SM CLR 01/M06 A3023 RMK AO2 T00061059
KPTK 300153Z 22014G24KT 10SM -RA OVC037 04/M04 A2973 RMK AO2 PK WND 20030/0113 RAB52 SLP077 P0000 T00441044 $
KPTN 300215Z AUTO 16005KT 10SM CLR 18/16 A3022 RMK AO1
KPTS 300215Z AUTO 26004KT 10SM CLR 12/07 A3012 RMK AO2 T01190073
KPTT 300215Z AUTO 03004KT 10SM CLR 11/M03 A3019 RMK AO2
KPTV 300215Z AUTO 28006KT 10SM CLR 23/06 A2999 RMK AO1
KPTW 300154Z AUTO 18003KT 10SM CLR 02/M12 A3016 RMK AO2 SLP214 T00171117
KPUB 300153Z AUTO 14007KT 10SM CLR 15/M05 A3018 RMK AO2 SLP190 T01501050 $
KPUC 300153Z AUTO 29008KT 10SM CLR 17/M16 A3016 RMK AO2 SLP182 T01721156
KPUJ 300215Z AUTO 19005KT 10SM SCT042 13/00 A3023 RMK AO2
KPUW 300153Z AUTO 00000KT 10SM CLR 13/03 A3017 RMK AO2 SLP223 T01330033
KPVB 300155Z AUTO 25011KT 10SM CLR 06/01 A2990 RMK AO1 T00550005
KPVC 300215Z 20010KT 10SM CLR 01/M06 A3015 RMK AO1
KPVD 300151Z 24005KT 10SM CLR 01/M08 A3014 RMK AO2 SLP206 T00061083
KPVE 300215Z AUTO 00000KT 10SM CLR 13/04 A3008 RMK
KPVF 300215Z AUTO 30003KT 10SM CLR 20/04 A3009 RMK AO1
KPVG 300215Z AUTO 18005KT 10SM CLR 02/M07 A3027 RMK AO1
KPVJ 300215Z AUTO 03007KT 10SM CLR 18/08 A3009 RMK AO2 T01780083
KPVU 300259Z 30010G15KT 15SM SCT160 14/01 A3018
KPVW 300155Z AUTO 06007KT 10SM CLR 16/M03 A3019 RMK AO2 T01551032
KPWA 300153Z 04004KT 10SM CLR 18/04 A3012 RMK AO2 SLP194 T01830039 PWINO
KPWC 300214Z AUTO 28004KT 10SM CLR 05/M03 A2993 RMK AO2
KPWG 300215Z AUTO 18015G20KT 10SM CLR 23/11 A3003 RMK AO1
KPWK 300152Z 29010KT 10SM FEW034 BKN055 07/01 A2987 RMK AO2 SLP119 T00720011
KPWM 300151Z 20006KT 10SM CLR 01/M04 A3008 RMK AO2 SLP187 T00111044
KPWT 300215Z AUTO 20011KT 10SM SCT035 12/11 A3019 RMK AO1
KPXE 300155Z AUTO 00000KT 10SM CLR 10/01 A3031 RMK AO2 T01000008
KPYM 300152Z AUTO 18004KT 10SM CLR M01/M06 A3014 RMK AO2 SLP208 T10111056
KPYX 300155Z AUTO 05005KT 10SM CLR 13/M02 A3019 RMK AO2 T01321019
KPZQ 300214Z AUTO 21009KT 5SM -SN SCT013 BKN019 OVC033 01/00 A2952 RMK AO2 T00080003
KQAJ 300155Z 11010KT 9999 SCT150 23/08 A2977 RMK SLP076 T02300079
KQAY 300155Z AUTO VRB02KT 8000 BR CLR 22/16 A2979 RMK AO2 SLP085 T02170157 $
KQBF 300155Z AUTO 34004KT 10SM CLR 26/M08 A3004 RMK AO2 SLP151 T02561081
KQBL 300206Z AUTO 14002KT 10SM FEW025 BKN030 BKN041 17/12 A3031 RMK AO2 BKN V SCT
KQCL 300209Z AUTO 21002KT 4800 BR CLR 08/06 A3005 RMK AO2 SLP187
KQEI 300210Z AUTO 22005G13KT 8000 HZ CLR 17/01 A3012 RMK A02 TSNO
KQEJ 300210Z AUTO 22004KT 8000 HZ BKN031 16/01 A3007 RMK A02 TSNO
KQEL 300210Z AUTO 24004KT 8000 HZ BKN030 15/03 A3016 RMK A02 TSNO
KQEN 300210Z AUTO 9999 CLR 00/M12 / RMK A02 TSNO
KQEP 300210Z AUTO 34001KT 6000 HZ CLR 17/04 A3007 RMK A02 TSNO
KQEQ 300210Z AUTO 19003KT 4000 HZ CLR 13/04 A2998 RMK A02 TSNO
KQER 300210Z AUTO 10002KT 8000 /OVC019 14/02 A3007 RMK A02 TSNO
KQES 300210Z AUTO 0400 FG CLR 06/04 A3016 RMK A02 TSNO
KQEV 300210Z AUTO 34002KT 4800 HZ CLR 18/05 A3011 RMK A02 TSNO
KQEW 300210Z AUTO 04003KT 9999 CLR 15/03 A3012 RMK A02 TSNO
KQEX 300210Z AUTO 20008G15KT 9000 HZ CLR 17/06 A3015 RMK A02 TSNO
KQEY 300210Z AUTO 15004KT 9999 BKN023 18/03 A3010 RMK A02 TSNO
KQFA 300155Z AUTO 02003KT 6000 HZ FEW120 17/04 A3013 RMK AO2 SLP204 T01730036 $
KQFB 300210Z AUTO 11004KT 9999 CLR 18/05 A3018 RMK A02 TSNO
KQFG 300155Z AUTO VRB01KT 8000 CLR 14/12 A3002 RMK AO2 SLP159 T01380119
KQFQ 300155Z AUTO 13007G14KT 3SM HZ FEW120 16/05 A3009 RMK AO2 SLP189 T01590054 $
KQFS 300156Z AUTO 24004KT 8000 0 0 13D8 M 17/06 A3013 RMK AO2 SLPNO T01700061 $
KQFT 300210Z AUTO 22003KT 6000 HZ FEW065 16/04 A3011 RMK A02 TSNO
KQFU 300210Z AUTO 32001KT 6000 HZ CLR 16/03 A3013 RMK A02 TSNO
KQFV 300210Z AUTO 19002KT 6000 HZ CLR 15/01 A3010 RMK A02 TSNO
KQFX 300210Z AUTO 01002KT 6000 HZ FEW055 18/03 A3012 RMK A02 TSNO
KQGV 300155Z 12014G19KT 9999 SCT070 BKN120 23/05 A2975 RMK SLPNO QNH1007 PA +631
KQGX 300158Z AUTO 17002KT 9999 CLR 15/11 A2989 RMK AO2 SLP124 T01450108 $
KQHN 300155Z VRB04KT 9999 BKN250 11/06 A3003 RMK SLP158 Q1017 DA3622
KQHY 300206Z AUTO 18004G11KT 10SM BKN029 17/12 A3031 RMK AO2
KQIR 300158Z 00000KT 9999 CLR 21/18 A2985 RMK AO2A SLP109 T02110175
KQL5 300155Z 00000KT 5000 BR FEW120 FEW200 13/12 A2998 RMK VIS N-NE 3200 SLP150 T01320116
KQQY 300155Z AUTO 27001KT 9999 BKN220 23/22 A3000 RMK AO2 SLP143 T02280221
KQRH 300156Z AUTO 25001KT 9999 CLR 25/20 A2987 RMK AO2 SLP108 T02460202
KQSA 300158Z 24002KT 8000 BR FEW200 07/06 A3001 RMK AO2A SLP103 T00730061 $
KQSF 300155Z AUTO 13001KT 4800 BR CLR 09/05 A3011 RMK AO2 SLP186 T00920051
KQTH 300155Z AUTO VRB06KT 9999 CLR 22/08 A2999 RMK AO2 SLP128 T02190076 $
KQTZ 300155Z 09007KT 9000 BR FEW120 SCT150 18/11 A2974 RMK LTG DSNT S SLP070 WND DATA ESTMD ALSTG/SLP ESTMD
KQVF 300155Z AUTO VRB01KT 26/24 A2991 RMK AO2 SLP127 T02620238 PWINO TSNO $
KQWM 300155Z 12011KT 8000 DU BKN095 BKN200 20/13 A2975 RMK SLP070 QNH1007
KQXT 300155Z 19005KT 9999 BKN200 11/03 A3002 RMK SLP156 WND DATA ESTMD ALSTG/SLP ESTMD Q1016
KRAC 300153Z AUTO 29011G20KT 10SM FEW029 OVC050 07/01 A2983 RMK AO2 PK WND 29026/0055 SLP107 T00670011
KRAL 300153Z 27008KT 10SM CLR 24/08 A2997 RMK AO2 SLP135 T02440083
KRAP 300152Z 05003KT 10SM CLR 10/M03 A3005 RMK AO2 SLP183 T01001028
KRAS 300155Z AUTO 16009KT 7SM CLR 20/19 A3010 RMK AO2 T01970189
KRBD 300153Z 16007KT 10SM CLR 24/13 A3000 RMK AO2 SLP152 T02390128
KRBG 300153Z AUTO 35005KT 10SM CLR 21/04 A3014 RMK AO2 SLP206 T02110044
KRBL 300154Z AUTO 00000KT 10SM CLR 27/04 A2995 RMK AO2 SLP140 T02720044
KRBO 300155Z 10SM CLR 22/18 A3008 RMK AO2 T02180178
KRBW 300215Z AUTO 16003KT 10SM CLR 06/01 A3034 RMK AO2
KRCA 300158Z AUTO 12002KT 10SM CLR 13/M03 A3004 RMK AO2 SLP178 T01281030 $
KRCE 300155Z AUTO 04007KT 10SM CLR 15/03 A3014 RMK AO2
KRCM 300155Z AUTO 32007KT 10SM CLR 12/03 A3012 RMK AO2
KRCR 300155Z AUTO 21011G14KT 10SM OVC041 07/02 A2985 RMK AO2
KRCV 300215Z AUTO 23017KT 10SM CLR 13/M08 A3027 RMK AO2 T01251084
KRCX 300215Z AUTO 28007KT 10SM BKN060 03/M01 A2984 RMK AO2 T00271014
KRCZ 300215Z AUTO 18005KT 10SM 06/M09 A3028 RMK AO2 T00621090
KRDD 300153Z 17003KT 10SM CLR 27/06 A2995 RMK AO2 SLP136 T02670061
KRDG 300154Z 18005KT 10SM CLR 02/M12 A3013 RMK AO2 SLP211 T00171117
KRDK 300155Z AUTO 30005KT 10SM CLR 07/M03 A3011 RMK AO2
KRDM 300156Z AUTO 35008KT 10SM CLR 16/02 A3013 RMK AO2 SLP208 T01610017
KRDR 300158Z AUTO 30005KT 10SM BKN075 OVC090 06/M01 A2990 RMK AO2 SLP138 T00631010
KRDU 300151Z 19006KT 10SM BKN200 07/M09 A3025 RMK AO2 SLP245 T00671094
KREO 300152Z AUTO 02009KT 18/M10 A3014 RMK AO1 SLP209 T01831100
KRFD 300154Z 28009KT 10SM FEW030 06/00 A2990 RMK AO2 SLP129 T00560000 $
KRFI 300155Z AUTO 00000KT 10SM CLR 23/14 A3007 RMK AO2 T02270140
KRGK 300211Z AUTO 30005KT 10SM CLR 08/M04 A2992 RMK AO2
KRHI 300153Z AUTO 30011G21KT 9SM FEW011 SCT022 OVC049 02/M01 A2975 RMK AO2 RAB0059E07B34E36SNB36E50 SLP092 P0001 T00221006
KRHP 300156Z AUTO 22004KT 10SM OVC046 11/M06 A3021 RMK AO2
KRHV 300147Z 31008KT 10SM SKC 30/05 A3001
KRIC 300154Z 18006KT 10SM BKN300 02/M08 A3022 RMK AO2 SLP238 T00221078
KRIL 300153Z AUTO 29008KT 10SM CLR 16/M11 A3014 RMK AO2 SLP176 T01611111 $
KRIV 300158Z AUTO 30005KT 10SM CLR 24/06 A2998 RMK AO2 SLP146 T02410058
KRIW 300153Z AUTO 28010KT 10SM CLR 14/M12 A3010 RMK AO2 SLP175 T01391122 $
KRKD 300215Z AUTO 23005KT 10SM CLR 00/M05 A3007 RMK AO1
KRKP 300153Z AUTO 15011KT 10SM CLR 21/18 A3009 RMK AO2 SLP192 T02110183 PNO $
KRKR 300215Z AUTO 00000KT 10SM BKN065 17/08 A3010 RMK AO2 T01730081
KRKS 300154Z AUTO 31008KT 10SM CLR 11/M11 A3022 RMK AO2 SLP212 T01061111
KRME 300153Z AUTO 09008KT 10SM CLR 00/M11 A3001 RMK AO2 SLP167 T00001111
KRMG 300153Z AUTO 20006KT 10SM OVC045 15/00 A3021 RMK AO2 SLP228 T01500000
KRMN 300155Z AUTO 15004KT 10SM CLR 03/M14 A3021 RMK AO2 T00291145
KRMY 300213Z AUTO 23015G20KT 5SM BR SCT017 OVC028 03/01 A2976 RMK AO2 T00310011
KRNC 300155Z AUTO 20007KT 10SM CLR 12/02 A3009 RMK
KRND 300158Z AUTO 15010KT 10SM CLR 22/17 A3006 RMK AO2 SLP175 T02170174
KRNH 300155Z AUTO 30008G15KT 10SM CLR 06/M03 A2990 RMK AO2 T00591033
KRNM 300153Z 27005KT 10SM CLR 21/07 A3000 RMK AO2 SLP152 T02060072
KRNO 300155Z 02010KT 10SM FEW090 FEW200 22/M09 A3012 RMK AO2 SLP171 CB DSNT S T02171094
KRNP 300215Z AUTO 22020G25KT 10SM OVC025 04/00 A2969 RMK AO2 T00370000
KRNT 300153Z 11003KT 10SM OVC043 14/08 A3017 RMK AO2 RAE43 SLP222 P0000 T01440083
KRNV 300215Z AUTO 19010KT 10SM CLR 20/16 A3005 RMK AO2 T02010156
KROA 300154Z 18007KT 10SM CLR 07/M13 A3016 RMK AO2 SLP219 T00721128
KROC 300154Z 20009KT 10SM BKN120 OVC160 05/M10 A2988 RMK AO2 SLP128 T00501100
KROG 300157Z AUTO 32004KT 10SM CLR 13/07 A3013 RMK AO2 SLP201 T01280067 TSNO
KROS 300215Z AUTO 29004KT 10SM SCT110 04/M03 A2990 RMK AO2 T00351031
KROW 300151Z 08010KT 10SM CLR 22/01 A3013 RMK AO2 SLP151 T02170006
KROX 300214Z AUTO 28006KT 10SM CLR 05/M02 A2984 RMK AO2
KRPD 300215Z AUTO 28009G15KT 10SM CLR 06/M03 A2987 RMK AO2 T00591035
KRPH 300155Z AUTO 36009KT 10SM CLR 22/12 A3004 RMK AO2 T02160120
KRPJ 300215Z AUTO 27008KT 10SM CLR 03/00 A2992 RMK AO2 T00320004
KRQB 300213Z AUTO 27014G23KT 10SM -RA BKN008 OVC013 03/02 A2964 RMK AO2 T00270016
KRQE 300153Z AUTO 34005KT 10SM CLR 16/M06 A3024 RMK AO2 SLP187 T01561061 TSNO
KRQO 300215Z AUTO 35008KT CLR 11/05 A3014 RMK AO2 PWINO
KRRL 300155Z AUTO 30010G15KT 10SM BKN048 OVC050 03/00 A2978 RMK AO2 T00320000
KRRT 300213Z AUTO 26007KT 10SM CLR 04/M02 A2983 RMK AO2
KRSL 300153Z AUTO 36007KT 10SM CLR 12/M09 A3016 RMK AO2 SLP210 T01171089
KRSN 300215Z AUTO 21006KT 10SM CLR 23/14 A3012 RMK AO2 T02250140
KRSP 300154Z AUTO 10SM CLR 02/M16 A3005 RMK AO2 SLP200 T00171156 $
KRST 300154Z 30014KT 10SM CLR 04/M02 A2993 RMK AO2 PK WND 30028/0057 SLP149 T00441017
KRSV 300215Z AUTO 23009KT 10SM CLR 09/05 A3001 RMK AO2 T00850050
KRSW 300153Z 06006KT 10SM CLR 16/07 A3031 RMK AO2 SLP260 T01560072
KRTN 300153Z AUTO 25012KT 10SM CLR 12/01 A3026 RMK AO2 SLP191 T01220006
KRTS 300210Z AUTO 05005KT 10SM CLR 16/M09 A3016 RMK AO2
KRUE 300153Z AUTO 00000KT 10SM OVC070 15/12 A3006 RMK AO2 SLP176 T01500122
KRUG 300155Z AUTO 26006KT 10SM CLR 04/00 A2992 RMK AO2
KRUQ 300155Z AUTO 19004KT 10SM CLR 06/M09 A3023 RMK AO2 T00631089
KRUT 300215Z AUTO 13005KT 10SM CLR M02/M11 A3002 RMK AO1
KRVS 300153Z 00000KT 10SM CLR 12/06 A3011 RMK AO2 SLP200 T01220056
KRWF 300153Z AUTO 31007KT 10SM CLR 09/M03 A2999 RMK AO2 SLP161 T00891028
KRWI 300153Z AUTO 18004KT 10SM CLR 04/M05 A3027 RMK AO2 SLP250 T00391050 $
KRWL 300153Z AUTO 28011KT 10SM CLR 11/M14 A3018 RMK AO2 SLP191 T01111139
KRWV 300150Z AUTO 16009KT 10SM CLR 21/13 A3010 RMK AO2
KRXE 300153Z AUTO 20007KT 10SM CLR 12/M09 A3018 RMK AO2 SLP225 T01221089
KRYN 300150Z 25005KT 10SM 28/M01 A3003
KRYT 300153Z AUTO 00000KT 10SM CLR 02/M10 A3007 RMK AO2 SLP200 T00171100 $
KRYV 300155Z AUTO 28007KT 10SM SCT050 05/01 A2984 RMK AO2 T00450013
KRYW 300215Z AUTO 16005KT 10SM CLR 22/14 A3008 RMK AO2 T02200135
KRYY 300147Z 00000KT 10SM BKN046 14/M03 A3026
KRZL 300215Z AUTO 23014G23KT 10SM BKN039 BKN047 BKN060 07/05 A2988 RMK AO2
KRZN 300150Z AUTO 31008KT 10SM SCT055 06/M04 A2987 RMK AO2 T00561040
KRZR 300215Z AUTO 19011KT 10SM OVC042 14/M06 A3016 RMK
KRZT 300215Z AUTO 21005KT 10SM RA OVC070 06/M02 A2994 RMK AO2 P0001
KS25 300155Z AUTO 26003KT 10SM 09/00 A2991 RMK AO2
KS39 300220Z AUTO 32007KT 10SM CLR 15/02 A3014 RMK AO2
KSAA 300215Z AUTO 27006KT 10SM CLR 06/M10 A3022 RMK AO2
KSAC 300153Z 22007KT 10SM CLR 25/10 A2996 RMK AO2 SLP146 T02500100
KSAD 300151Z AUTO 30010KT 10SM CLR 26/M08 A3003 RMK AO2 SLP135 T02611078
KSAF 300153Z 12018G27KT 10SM CLR 17/M03 A3022 RMK AO2 PK WND 12027/0150 SLP170 T01721033
KSAN 300151Z 31003KT 10SM FEW010 SCT200 BKN250 19/14 A3000 RMK AO2 SLP159 T01890139
KSAR 300215Z AUTO 20005KT 10SM CLR 10/05 A3005 RMK AO2 T01000053
KSAT 300151Z 15015KT 10SM CLR 24/17 A3005 RMK AO2 SLP162 T02390167
KSAV 300153Z 17005KT 10SM CLR 07/M01 A3036 RMK AO2 SLP281 T00721006
KSAW 300217Z AUTO 32013G21KT 10SM SCT014 SCT022 OVC060 02/00 A2960 RMK AO2 T00170000
KSAZ 300213Z AUTO 27005KT 10SM CLR 01/M04 A2992 RMK AO2
KSBA 300157Z 19004KT 6SM HZ SCT002 17/14 A2996 RMK AO2 T01670144
KSBD 300150Z 24010KT 10SM FEW200 26/03 A2997
KSBM 300153Z AUTO 28012G20KT 10SM SCT034 BKN047 OVC055 05/01 A2976 RMK AO2 PK WND 28026/0138 SLP084 T00500006
KSBN 300154Z 23015G23KT 10SM BKN040 BKN050 OVC065 07/02 A2983 RMK AO2 PK WND 24027/0144 RAB38E48 SLP107 P0000 T00670017
KSBO 300155Z AUTO 00000KT 10SM CLR 11/M08 A3031 RMK AO2
KSBP 300156Z 31012KT 10SM CLR 16/09 A2998 RMK AO2 SLP153 T01610094
KSBS 300215Z AUTO 00000KT 10SM CLR 10/M10 A3022 RMK AO1 T01041099
KSBY 300154Z 19004KT 10SM CLR M01/M08 A3023 RMK AO2 SLP240 T10111083 $
KSCD 300215Z AUTO 00000KT 10SM CLR 12/04 A3022 RMK AO2 T01230040
KSCF 300215Z AUTO 16007G13KT 10SM CLR 21/18 A3020 RMK A01
KSCH 300150Z 00000KT 10SM CLR M03/M09 A3006
KSCK 300155Z 31007KT 10SM CLR 27/04 A2997 RMK AO2 SLP147 T02670044
KSCR 300155Z AUTO 20005KT 10SM CLR 06/M09 A3025 RMK AO2 T00551087
KSDA 300155Z AUTO 30005KT 10SM CLR 07/M02 A3012 RMK AO2
KSDB 300148Z AUTO 33008KT 10SM CLR 18/05 A3014 RMK AO2 SLP164 T01830050 $
KSDF 300156Z 21009KT 10SM BKN065 BKN095 OVC110 14/M01 A2998 RMK AO2 RAB49E55 SLP155 P0000 T01441011
KSDL 300153Z 00000KT 10SM CLR 31/M08 A2996 RMK AO2 SLP123 T03111078
KSDM 300153Z 32004KT 10SM CLR 18/14 A2999 RMK AO2 SLP153 T01780139
KSDY 300215Z AUTO 22005KT 10SM CLR 10/01 A2994 RMK AO1
KSEA 300153Z 22007KT 10SM BKN046 BKN055 OVC095 14/07 A3018 RMK AO2 SLP228 T01440072
KSEE 300155Z AUTO 26005KT 10SM CLR 22/12 A3000 RMK AO2
KSEG 300153Z AUTO VRB05KT 10SM CLR 04/M11 A3007 RMK AO2 SLP187 T00391106
KSEM 300215Z AUTO 19010KT 10SM CLR 16/09 A3023 RMK AO2
KSEP 300215Z AUTO 27004KT 10SM CLR 24/11 A3006 RMK AO2 T02420108
KSET 300154Z AUTO 26006KT 10SM CLR 09/03 A3001 RMK AO2 SLP165 T00940028
KSEZ 300155Z AUTO 19004KT 10SM CLR 22/M07 A3014 RMK AO2
KSFB 300153Z 05010KT 10SM CLR 12/02 A3034 RMK AO2 SLP274 T01170022
KSFF 300153Z 17003KT 10SM CLR 15/03 A3013 RMK AO2 SLP205 T01500033
KSFM 300215Z AUTO 19006KT 10SM CLR M02/M09 A3007 RMK AO1
KSFO 300156Z 29018KT 10SM FEW200 16/10 A3001 RMK AO2 SLP162 T01610100
KSFQ 300155Z AUTO 18003KT 10SM CLR 01/M07 A3027 RMK AO2 T00071068
KSFY 300215Z AUTO 31006KT 10SM CLR 08/00 A2994 RMK AO2 T00801001
KSFZ 300215Z 22003KT 10SM CLR M01/M11 A3009 RMK AO1
KSGF 300152Z 18003KT 10SM CLR 09/05 A3010 RMK AO2 SLP194 T00940050
KSGH 300156Z AUTO 23010G17KT 5SM -RA 05/01 A2998 RMK AO2 T00500005 RAE21B45 P0002 SLP160 $
KSGJ 300158Z AUTO 08010KT 10SM CLR 13/06 A3036 RMK AO2 SLP282 T01330061
KSGR 300153Z 18010KT 10SM CLR 21/16 A3012 RMK AO2 SLP200 T02060161
KSGS 300211Z AUTO 28005KT 10SM CLR 08/M03 A2993 RMK AO2 T00841033
KSGT 300215Z AUTO 18004KT 10SM BKN075 OVC080 19/13 A3004 RMK AO1
KSGU 300215Z AUTO 23007KT 10SM CLR 25/M04 A3002 RMK AO1
KSHD 300155Z AUTO 17006KT 10SM CLR 06/M14 A3011 RMK AO2 T00621137
KSHL 300155Z AUTO 31006KT 10SM CLR 05/M05 A3005 RMK AO2
KSHM 300156Z AUTO 18007KT 10SM CLR 09/M07 A3024 RMK AO2 SLP232 T00871067
KSHN 300153Z AUTO 23003KT 10SM OVC012 12/11 A3016 RMK AO2 RAB07E25 SLP215 P0000 T01170106
KSHR 300153Z AUTO 21005KT 10SM CLR 06/M01 A3005 RMK AO2 SLP188 T00561011
KSHV 300156Z 19009KT 10SM CLR 23/14 A3005 RMK AO2 SLP173 T02330139
KSIF 300215Z AUTO 20003KT 10SM CLR 06/M09 A3021 RMK AO2 T00601089
KSIY 300153Z AUTO 28004KT 10SM CLR 20/06 A3011 RMK AO2 SLP205 T02000056
KSJC 300153Z 30011KT 10SM FEW200 21/11 A3001 RMK AO2 SLP160 T02060106
KSJN 300154Z AUTO 23011KT 10SM CLR 19/M11 A3017 RMK AO2 SLP157 T01941111
KSJS 300215Z AUTO 23006KT 10SM CLR 12/M12 A3003 RMK AO2 T01151122
KSJT 300151Z 03016G24KT 10SM CLR 25/09 A3005 RMK AO2 PK WND 03031/0128 SLP160 T02500089
KSJX 300217Z AUTO 27012KT 10SM BKN009 BKN014 OVC029 01/00 A2954 RMK AO2 T00100003
KSKA 300158Z AUTO 24005KT 10SM CLR 12/05 A3012 RMK AO2 SLP210 T01210054
KSKF 300158Z AUTO 14012KT 10SM CLR 23/17 A3003 RMK AO2 SLP165 T02280172 $
KSKX 300215Z AUTO 13015G20KT 10SM FEW065 SCT120 13/M03 A3028 RMK AO1
KSLB 300155Z AUTO 32009KT 10SM CLR 08/M06 A3007 RMK AO2
KSLC 300153Z 31008KT 10SM FEW200 16/M06 A3019 RMK AO2 SLP207 T01561056 $
KSLE 300156Z 00000KT 10SM CLR 19/02 A3015 RMK AO2 SLP210 T01890022
KSLG 300215Z AUTO 00000KT 10SM CLR 11/05 A3014 RMK AO1
KSLH 300218Z AUTO 25012G18KT 3SM -SN OVC010 01/00 A2950 RMK AO2 T00100001
KSLI 300058Z AUTO 17007KT 10SM CLR 21/15 A2996 RMK AO2 SLP148 T02070148
KSLK 300151Z AUTO 23006KT 10SM CLR M03/M12 A2991 RMK AO2 SLP153 T10281117 $
KSLN 300153Z 03007KT 10SM CLR 16/M06 A3016 RMK AO2 SLP209 T01561056
KSLO 300215Z AUTO 20007KT 10SM CLR 10/06 A3002 RMK AO2 T00950057
KSLR 300215Z AUTO 00000KT 10SM BKN075 OVC095 20/12 A3008 RMK AO2 T02030122
KSME 300155Z AUTO 20007KT 10SM CLR 11/M07 A3005 RMK AO2
KSMF 300153Z 00000KT 10SM FEW250 27/07 A2995 RMK AO2 SLP142 T02670067 $
KSMN 300215Z AUTO 17004KT 10SM SCT100 11/M03 A3014 RMK AO1
KSMO 300202Z 24005KT 10SM SCT010 18/14 A2998 RMK AO2 VIS NW 8 T01780144 $
KSMQ 300153Z AUTO 20003KT 10SM CLR 01/M11 A3013 RMK AO2 SLP206 T00111111 TSNO
KSMS 300215Z AUTO 00000KT 10SM CLR 03/00 A3032 RMK AO2
KSMX 300151Z 32007KT 7SM CLR 17/10 A3000 RMK AO2 SLP162 T01670100
KSNA 300153Z 20008KT 10SM CLR 18/14 A2998 RMK AO2 SLP152 T01830139 $
KSNC 300155Z AUTO 19006KT 10SM CLR 01/M09 A3011 RMK AO2
KSNH 300215Z AUTO 16003KT 10SM CLR 13/06 A3010 RMK
KSNK 300155Z AUTO 05013KT 10SM CLR 21/04 A3013 RMK AO2 T02120035 TSNO
KSNL 300215Z AUTO 00000KT 10SM CLR 17/08 A3014 RMK AO2
KSNS 300153Z 28008KT 10SM CLR 18/09 A3003 RMK AO2 SLP179 T01830094
KSNT 300151Z AUTO 22006KT 07/M05 A3023 RMK AO1 SLP219 T00721050
KSNY 300153Z AUTO 16007KT 10SM CLR 07/M04 A3015 RMK AO2 SLP206 T00721044
KSOA 300155Z AUTO 19006KT 10SM CLR 24/08 A3007 RMK AO2
KSOP 300215Z AUTO 22008KT 10SM CLR 06/M08 A3028 RMK AO1
KSOW 300215Z AUTO 17007KT 10SM CLR 12/M10 A3027 RMK AO2
KSPA 300235Z AUTO 00000KT 10SM CLR 08/M08 A3025 RMK AO2
KSPB 300153Z AUTO 00000KT 10SM CLR 17/07 A3016 RMK AO2 SLP211 T01720072
KSPD 300156Z AUTO 11004KT 10/M06 A3022 RMK AO1 SLP206 T01001056
KSPF 300215Z AUTO 20011KT 10SM CLR 07/M02 A3007 RMK AO2
KSPG 300153Z AUTO 35006KT 10SM CLR 18/09 A3029 RMK AO2 SLP257 T01780089
KSPI 300152Z 25009KT 10SM SCT048 10/04 A2998 RMK AO2 SLP154 T01000044
KSPL 300215Z AUTO 21006KT 3SM CLR 19/19 A3012 RMK AO1
KSPR 300215Z AUTO 19015KT 9SM CLR 23/18 A3021 RMK A01
KSPS 300152Z AUTO 02009KT 10SM CLR 17/09 A3007 RMK AO2 SLP178 T01670089
KSPW 300153Z AUTO 31006KT 10SM CLR 04/M04 A3005 RMK AO2 SLP184 T00441039 TSNO $
KSQE 300215Z AUTO VRB05G11KT 10SM CLR 24/15 A3024 RMK A01
KSQI 300215Z AUTO 32004KT 10SM CLR 04/01 A2994 RMK AO1
KSQL 300147Z 30010KT 10SM FEW200 22/07 A3001
KSRB 300215Z AUTO 19009KT 10SM CLR 12/00 A3007 RMK
KSRC 300156Z AUTO 35004KT 10SM CLR 16/12 A3007 RMK AO2 SLP190 T01610122 TSNO
KSRQ 300153Z 07004KT 10SM CLR 16/07 A3029 RMK AO2 SLP256 T01560072
KSRR 300155Z AUTO 14011KT 10SM CLR 16/M07 A3031 RMK AO2
KSSC 300158Z AUTO 20003KT 10SM CLR 06/M04 A3029 RMK AO2 SLP260 T00621041 $
KSSF 300153Z 15010KT 10SM CLR 23/17 A3003 RMK AO2 SLP164 T02280172
KSSI 300153Z AUTO 13010KT 10SM CLR 11/02 A3036 RMK AO2 SLP280 T01110022
KSTC 300153Z 31011KT 10SM CLR 06/M04 A2992 RMK AO2 SLP149 T00611039
KSTE 300155Z AUTO 30007KT 10SM BKN047 03/M01 A2981 RMK AO2 T00301010
KSTF 300215Z AUTO 17006KT 10SM CLR 17/10 A3011 RMK AO2
KSTJ 300153Z AUTO 30005KT 10SM CLR 08/00 A3013 RMK AO2 SLP204 T00830000
KSTK 300210Z AUTO 17004KT 10SM CLR 11/M05 A3015 RMK AO2
KSTL 300151Z 00000KT 10SM FEW130 SCT250 11/03 A3002 RMK AO2 SLP170 T01060033
KSTP 300153Z 30008KT 10SM CLR 08/M03 A2993 RMK AO2 SLP138 T00781033
KSTS 300153Z 15007KT 10SM SCT200 21/09 A2998 RMK AO2 SLP148 T02060089
KSUA 300215Z AUTO 35006KT 10SM CLR 16/08 A3032 RMK AO2
KSUE 300215Z AUTO 29014G17KT 10SM FEW031 BKN055 03/M01 A2971 RMK AO1
KSUN 300147Z 22008G15KT 10SM FEW140 13/M03 A3020
KSUS 300154Z 00000KT 10SM CLR 07/03 A3002 RMK AO2 SLP171 T00720033
KSUT 300215Z AUTO 00000KT 10SM CLR 04/00 A3034 RMK AO2 T00411003
KSUU 300158Z AUTO 24008KT 10SM CLR 23/10 A2996 RMK AO2 SLP152 T02270104 PWINO $
KSUW 300155Z AUTO 33007KT 10SM CLR 06/M03 A2984 RMK AO2 T00551033
KSUX 300152Z AUTO 30006KT 10SM CLR 08/M07 A3008 RMK AO2 SLP191 T00831072
KSVC 300155Z AUTO 34008KT 10SM CLR 16/M05 A3021 RMK AO2
KSVH 300155Z AUTO 20005KT 10SM CLR 07/M09 A3022 RMK AO2 T00671094
KSVN 300158Z AUTO 17002KT 10SM CLR 08/01 A3033 RMK AO2 SLP274 T00790011
KSWF 292245Z 27006KT 20SM SKC 06/M14 A3013
KSWO 300153Z AUTO 32003KT 10SM CLR 15/01 A3011 RMK AO2 SLP193 T01500011 TSNO
KSWW 300155Z AUTO 01010KT 10SM CLR 21/03 A3016 RMK AO2 T02060028
KSXS 300156Z AUTO 20006KT 10SM CLR 15/06 A3030 RMK AO2 SLP263 T01450062
KSXT 300156Z AUTO VRB04KT 10SM CLR 12/04 A3019 RMK AO2 SLP210 T01170044
KSYF 300155Z AUTO 14007KT 10SM CLR 08/M09 A3017 RMK AO2 T00781091
KSYI 300215Z AUTO 19013KT 10SM CLR 13/02 A3013 RMK
KSYM 300210Z AUTO 20009KT 10SM OVC050 12/M10 A3002 RMK AO2
KSYN 300215Z AUTO 26008KT 10SM CLR 06/M01 A2994 RMK AO2 T00621015
KSYR 300154Z 11007KT 10SM OVC200 02/M09 A2996 RMK AO2 SLP146 T00171094
KSZL 300158Z AUTO 35009KT 10SM CLR 12/04 A3011 RMK AO2 PRESRR SLP201 T01230043 $
KSZT 300215Z AUTO 24004KT 10SM SCT060 11/05 A3012 RMK AO2
KT20 300155Z AUTO 17013G20KT 10SM VCTS CLR 22/16 A3005 RMK AO2 T02150156
KT35 300155Z AUTO 19011G16KT 10SM CLR 22/14 A3006 RMK AO2 T02200135
KT65 300155Z AUTO 16010KT 10SM CLR 22/17 A3009 RMK AO2 T02160170
KT82 300155Z AUTO 18005KT 10SM CLR 21/13 A3006 RMK AO2 T02080128
KTAD 300154Z AUTO 34003KT 10SM CLR 14/M04 A3022 RMK AO2 SLP186 T01391044
KTAN 300152Z AUTO 20004KT 10SM CLR 00/M06 A3013 RMK AO2 SLP204 T00001061
KTAZ 300155Z AUTO 24009KT 10SM SCT048 BKN060 10/05 A2998 RMK AO2
KTBN 300158Z AUTO 23002KT 10SM CLR 11/06 A3007 RMK AO2 SLP189 T01060060 $
KTBR 300155Z AUTO 16007KT 10SM CLR 09/01 A3033 RMK AO2 T00900013
KTCC 300153Z AUTO 09007KT 10SM CLR 13/M04 A3022 RMK AO2 SLP201 T01331044
KTCL 300153Z AUTO 14006KT 10SM CLR 17/07 A3016 RMK AO2 SLP213 T01720072
KTCM 300058Z AUTO 23008KT 10SM OVC046 16/09 A3019 RMK AO2 SLP228 T01600088 $
KTCS 300153Z AUTO 25010KT 10SM CLR 23/M11 A3013 RMK AO2 SLP136 T02331106 TSNO
KTDF 300155Z AUTO 19005KT 10SM CLR 06/M11 A3024 RMK AO2
KTDR 300156Z AUTO 18007KT 10SM CLR 13/09 A3031 RMK AO2 SLP268 T01330092 TSNO $
KTDZ 300153Z AUTO 20018G29KT 10SM OVC045 05/M03 A2985 RMK AO2 PK WND 20029/0126 SLP112 T00501028 TSNO
KTEB 300151Z 21008KT 10SM CLR 04/M12 A3013 RMK AO2 SLP203 T00441122
KTEW 300214Z AUTO 22011G22KT 10SM OVC025 04/00 A2973 RMK AO2 T00351001
KTEX 300055Z AUTO 29008KT 10SM CLR 13/M20 A3035 RMK AO2 T01311201
KTFP 300155Z AUTO 16013G18KT 10SM CLR 21/19 A3009 RMK AO2 T02130190
KTGI 300152Z AUTO 17007KT 10SM CLR 04/M04 A3023 RMK AO1
KTHA 300215Z AUTO 18012KT 10SM CLR 11/00 A3011 RMK
KTHV 300153Z AUTO 19004KT 10SM CLR 03/M13 A3012 RMK AO2 SLP205 T00281133
KTIF 300155Z AUTO 00000KT 10SM CLR 10/M07 A3014 RMK AO2 T00961071
KTIK 300158Z AUTO 06006KT 10SM CLR 18/05 A3011 RMK AO2 SLP200 T01750050
KTIP 300215Z AUTO 23014KT 10SM SCT044 SCT060 08/06 A2993 RMK AO2 T00800055
KTIW 300153Z 20004KT 10SM OVC039 14/08 A3018 RMK AO2 SLP219 T01440078
KTIX 300047Z 02005KT 7SM SKC 13/02 A3034 RMK LAST
KTKC 300212Z AUTO 27004KT 10SM CLR 07/M04 A3002 RMK AO2 T00731036
KTKI 300153Z 15007KT 10SM SCT090 23/14 A3004 RMK AO2 SLP172 T02280139
KTKV 300215Z AUTO 30010G17KT 10SM SCT038 OVC045 03/M01 A2979 RMK AO2 T00271009
KTLH 300153Z 09003KT 10SM FEW055 13/05 A3031 RMK AO2 SLP261 T01280050
KTMA 300155Z AUTO 00000KT 10SM CLR 09/03 A3031 RMK AO2 T00890029
KTMB 300153Z AUTO 04008KT 10SM CLR 19/09 A3029 RMK AO2 SLP255 T01890089
KTME 300215Z AUTO 18010KT 10SM SCT026 19/17 A3013 RMK AO2
KTMK 300215Z AUTO 26005KT 10SM SCT021 12/10 A3022 RMK AO2
KTNB 300215Z AUTO 22009G14KT 180V240 10SM CLR 04/M13 A3014 RMK AO2 T00391135
KTNU 300155Z AUTO 31006KT 10SM CLR 10/M04 A3002 RMK AO2 PWINO
KTOA 300150Z 30008KT 10SM FEW020 19/12 A2998
KTOB 300213Z AUTO 30011KT 10SM CLR 06/M01 A2995 RMK AO2
KTOC 300215Z AUTO 00000KT 10SM OVC055 11/M04 A3025 RMK AO2 T01051037
KTOI 300153Z AUTO 19004KT 10SM CLR 14/06 A3027 RMK AO2 SLP250 T01390056
KTOL 300152Z 21017G27KT 10SM BKN044 OVC070 05/M02 A2982 RMK AO2 PK WND 21030/0125 SLP105 T00501022
KTOP 300153Z AUTO 31004KT 10SM CLR 12/01 A3014 RMK AO2 SLP209 T01220011 $
KTOR 300153Z AUTO 09008KT 10SM CLR 11/M06 A3010 RMK AO2 SLP186 T01061056 $
KTPA 300153Z 35003KT 10SM CLR 16/07 A3031 RMK AO2 SLP265 T01610067 $
KTPF 300215Z AUTO 05006KT 10SM CLR 17/07 A3032 RMK AO2
KTPH 300156Z AUTO 20007KT 10SM CLR 21/M16 A3013 RMK AO2 SLP160 T02061156
KTPL 300215Z AUTO 16018G21KT 10SM CLR 22/11 A3004 RMK AO1
KTQE 300154Z AUTO 27017G27KT 230V290 10SM CLR 08/M06 A3010 RMK AO2 PK WND 29027/0153 SLP193 T00781056
KTQH 300215Z AUTO 00000KT 10SM CLR 10/06 A3013 RMK AO2
KTRI 300153Z 00000KT 10SM FEW250 06/M07 A3012 RMK AO2 SLP197 T00561067
KTRK 300155Z AUTO 26009KT 10SM SCT085 17/00 A3019 RMK AO2
KTRL 300153Z AUTO 14005KT 10SM CLR 22/13 A3002 RMK AO2 SLP161 T02220128
KTRM 300152Z AUTO 12006KT 10SM CLR 30/01 A2983 RMK AO2 SLP102 T03000011 TSNO
KTSP 300215Z AUTO 31010KT 10SM CLR 17/04 A3013 RMK AO2
KTTA 300215Z AUTO 00000KT 10SM CLR 03/M04 A3026 RMK AO2 T00281039
KTTD 300153Z 00000KT 10SM CLR 19/03 A3015 RMK AO2 SLP208 T01890028
KTTF 300216Z AUTO 21018G26KT 10SM BKN050 BKN060 OVC080 06/M02 A2978 RMK AO2
KTTN 300153Z AUTO 23005KT 10SM CLR 03/M13 A3016 RMK AO2 SLP208 T00281128
KTUL 300153Z 16006KT 10SM FEW200 15/06 A3010 RMK AO2 SLP192 T01500056
KTUP 300153Z 19006KT 10SM CLR 16/07 A3009 RMK AO2 SLP189 T01610072
KTUS 300153Z 29005KT 10SM CLR 29/M05 A3004 RMK AO2 SLP134 T02891050
KTVC 300207Z AUTO 26014KT 10SM UP SCT016 BKN022 OVC028 03/01 A2959 RMK AO2 RAE01UPB01 P0000 T00280006 TSNO
KTVF 300215Z AUTO 24007KT 10SM CLR 04/M01 A2988 RMK AO1
KTVI 300215Z AUTO 21005KT 10SM OVC050 12/06 A3033 RMK AO2
KTVK 300155Z AUTO 28007KT 10SM CLR 06/00 A3005 RMK AO2
KTVL 300153Z AUTO 00000KT 10SM CLR 14/01 A3020 RMK AO2 SLP203 T01440006 $
KTVR 300153Z AUTO 20006KT 10SM CLR 22/12 A3009 RMK AO2 SLP197 T02220122 TSNO
KTWF 300153Z 31004KT 10SM CLR 14/M07 A3019 RMK AO2 SLP202 T01441072
KTWM 300214Z AUTO 30006G17KT 10SM CLR 07/M02 A2977 RMK AO2
KTXK 300153Z 21004KT 10SM CLR 22/12 A3004 RMK AO2 SLP169 T02170122
KTYQ 300215Z AUTO 22012G16KT 10SM BKN070 06/02 A2993 RMK AO2 T00630015
KTYR 300153Z 22009KT 10SM CLR 24/12 A3006 RMK AO2 SLP173 T02390117
KTYS 300153Z 23009KT 10SM OVC046 12/M03 A3012 RMK AO2 SLP200 T01171028
KTZR 300215Z AUTO 22020G24KT 10SM -RA BKN031 BKN037 OVC050 A2999 RMK AO2
KU16 292358Z AUTO 35004KT 10SM CLR 19/M17 A3019 RMK AO2 SLP841 T01891167 10189 20139 56018 $
KU68 300155Z AUTO 00000KT 10SM CLR 13/M08 A3006 RMK AO2
KUAO 300153Z AUTO 00000KT 10SM CLR 18/06 A3017 RMK AO2 SLP217 T01780056
KUBE 300155Z AUTO 30008KT 10SM CLR 05/M03 A2985 RMK AO2
KUCP 300156Z AUTO 15004KT 10SM SCT065 05/M11 A2994 RMK AO2 T00501111 RAE10 P0000 SLP164
KUCY 300215Z AUTO 21003KT 10SM FEW048 OVC060 13/09 A3007 RMK
KUDG 300215Z AUTO 18004KT 10SM CLR 05/M06 A3032 RMK AO1
KUES 300145Z 29015G25KT 10SM OVC050 04/01 A2983 RMK LAST
KUGN 300155Z AUTO 29011G19KT 10SM BKN050 06/02 A2983 RMK AO2 SLP111 T00610017
KUIL 300204Z AUTO VRB05KT 1 3/4SM -RA BR OVC002 12/12 A3012 RMK AO2 P0000 T01170117
KUIN 300154Z AUTO 30007KT 10SM CLR 09/03 A3001 RMK AO2 SLP167 T00890033 $
KUKF 300155Z AUTO 21003KT 10SM CLR 06/M09 A3025 RMK AO2
KUKI 300156Z AUTO 02005KT 10SM CLR 24/07 A3002 RMK AO2 SLP160 T02390067
KUKT 300215Z AUTO 21004KT 10SM 01/M12 A3014 RMK AO1
KULM 300214Z AUTO 31010KT 10SM CLR 08/M03 A2999 RMK AO2
KUNI 300155Z AUTO 00000KT 10SM BKN060 OVC080 07/M11 A2999 RMK AO2 T00741115
KUNO 300153Z AUTO 33003KT 10SM CLR 13/05 A3009 RMK AO2 SLP191 T01330050
KUNU 300155Z AUTO 29006G15KT 270V330 10SM BKN047 04/00 A2984 RMK AO2 T00430002
KUNV 300215Z AUTO 20009G14KT 10SM CLR 04/M15 A3001 RMK AO2 T00371148
KUOX 300155Z AUTO 15004KT 10SM SCT060 15/08 A3009 RMK AO2 PWINO PNO
KUSE 300215Z AUTO 22016G24KT 10SM BKN045 BKN050 OVC065 05/M01 A2981 RMK AO2
KUTA 300215Z AUTO 15006KT 10SM SCT075 15/12 A3006 RMK AO2
KUTS 300153Z AUTO 17007KT 10SM CLR 22/14 A3007 RMK AO2 SLP180 T02170144
KUUU 300153Z AUTO VRB05KT 10SM CLR 01/M06 A3014 RMK AO2 SLP207 T00111056
KUVA 300215Z AUTO 12005KT 10SM CLR 23/14 A3003 RMK AO2 T02260137
KUXL 300155Z AUTO 19007KT 10SM CLR 21/18 A3017 RMK AO2 T02050175
KUYF 300215Z AUTO 23020G26KT 7SM -RA SCT025 SCT035 OVC048 04/00 A2996 RMK AO2 P0001
KUZA 300154Z AUTO 19006KT 10SM CLR 06/M07 A3026 RMK AO2 SLP254 T00561067 $
KVAD 300158Z AUTO 15002KT 10SM CLR 10/03 A3030 RMK AO2 SLP263 T01040032
KVAF 300215Z AUTO 18021KT 8SM SCT025 23/17 A3017 RMK A01
KVAY 300154Z AUTO 19003KT 10SM CLR 01/M10 A3018 RMK AO2 SLP220 T00061100
KVBG 300155Z AUTO 32008KT 9SM CLR 14/12 A3002 RMK AO2 SLP158 T01440117 TSNO
KVBS 300215Z AUTO VRB04KT 10SM 20/20 A3017 RMK A01
KVBT 300215Z AUTO 00000KT 10SM CLR 11/06 A3013 RMK AO1
KVBW 300215Z AUTO 19007G14KT 10SM CLR 06/M12 A3009 RMK AO2 T00551122
KVCB 300153Z AUTO 21007KT 10SM CLR 26/07 A2998 RMK AO2 SLP151 T02610067
KVCT 300151Z 16014KT 10SM FEW019 21/19 A3010 RMK AO2 SLP191 T02060189 $
KVCV 300215Z AUTO 18013KT 10SM CLR 24/M08 A3001 RMK AO2
KVDF 300215Z AUTO 08005KT 10SM CLR 13/07 A3033 RMK AO2
KVDI 300215Z AUTO 15005KT 10SM CLR 10/02 A3033 RMK AO2
KVEL 300153Z AUTO 21003KT 10SM CLR 16/M09 A3015 RMK AO2 SLP178 T01611089
KVER 300155Z AUTO 32009G16KT 10SM CLR 13/04 A3008 RMK AO2 T01300035
KVES 300155Z AUTO 21008KT 10SM OVC039 04/00 A2992 RMK AO2
KVGT 300153Z 12004KT 10SM CLR 28/M11 A2996 RMK AO2 SLP145 T02781106
KVIH 300153Z AUTO 22008KT 10SM CLR 07/03 A3005 RMK AO2 SLP178 T00720033
KVIS 300215Z AUTO 31005KT 10SM CLR 24/09 A2997 RMK AO1
KVJI 300215Z AUTO 00000KT 10SM CLR 04/M08 A3011 RMK AO2 T00441082
KVKY 300215Z AUTO 18009G16KT 100V210 10SM CLR 21/16 A3026 RMK A01
KVLD 300153Z 00000KT 10SM CLR 09/04 A3032 RMK AO2 SLP275 T00940044
KVLL 300215Z AUTO 21016G25KT 10SM OVC040 06/M04 A2977 RMK AO2 T00591045
KVNC 300155Z AUTO 05005KT 10SM CLR 17/07 A3031 RMK AO2
KVNY 300151Z 14007KT 10SM CLR 25/01 A2996 RMK AO2 SLP140 T02500006
KVOA 300215Z AUTO 16016KT 10SM BKN042 21/15 A3026 RMK A01
KVOK 300158Z AUTO 00000KT 10SM CLR M01/M01 A2983 RMK AO2 SLP115 T10101010
KVPC 300153Z AUTO 19004KT 10SM OVC042 14/M02 A3024 RMK AO2 SLP237 T01391022
KVPS 300157Z 17008KT 10SM BKN033 17/11 A3029 RMK AO2A SLP264 T01680109 $
KVPZ 300156Z AUTO 25017G22KT 10SM BKN037 OVC065 08/03 A2985 RMK AO2 SLP114 T00780028 TSNO
KVQQ 300155Z AUTO 00000KT 10SM CLR 07/05 A3036 RMK AO2
KVQT 300215Z AUTO 00000G12KT 10SM FEW037 23/18 A3020 RMK A01
KVRB 300153Z 01005KT 10SM CLR 13/06 A3032 RMK AO2 SLP266 T01330061
KVSF 300154Z AUTO 00000KT 10SM CLR M03/M09 A3004 RMK AO2 SLP182 T10281094 TSNO
KVTA 300154Z AUTO 28005KT 10SM -RA FEW043 OVC055 04/M01 A2999 RMK AO2 PK WND 19032/0104 RAB01 SLP161 P0002 T00441006
KVTI 300215Z AUTO 30006KT 10SM CLR 06/M01 A2999 RMK AO2 T00601015
KVTN 300152Z AUTO 20005KT 10SM CLR 08/M06 A3010 RMK AO2 SLP201 T00781061
KVTP 300215Z AUTO 19006KT 10SM CLR 04/M05 A3038 RMK AO2
KVUJ 300155Z AUTO 21003KT 10SM CLR 06/M07 A3030 RMK AO2 T00571074
KVUO 300153Z AUTO 00000KT 10SM CLR 19/04 A3015 RMK AO2 SLP211 T01940044
KVVG 300155Z AUTO 04006KT 9SM 12/M00 A3024 RMK A01
KVVV 300214Z AUTO 00000KT 10SM CLR 07/M03 A2998 RMK AO2
KVWU 300214Z AUTO 00000KT 10SM CLR 02/M02 A2984 RMK AO2
KVYS 300155Z AUTO 33007KT 10SM CLR 06/03 A2992 RMK AO2 T00610032
KW13 300215Z AUTO 18010G14KT 10SM CLR 06/M15 A3010 RMK AO1 T00551150
KW22 300155Z AUTO 00000KT 10SM CLR 06/M13 A2999 RMK AO2
KW29 300212Z AUTO 16008KT 10SM 03/M07 A3019 RMK AO1
KW31 300215Z AUTO 16004KT 10SM CLR 04/M10 A3020 RMK AO1 T00371099
KW43 300215Z AUTO 22005KT 10SM CLR 10/M03 A3007 RMK AO2
KW63 300215Z AUTO 18004KT 10SM CLR 05/M08 A3021 RMK AO1
KW75 300155Z AUTO 18006KT 10SM CLR 01/M05 A3024 RMK AO1 T00111051
KW78 300155Z AUTO 00000KT 10SM CLR 05/M11 A3021 RMK AO1 T00521114
KW81 300155Z AUTO 10SM CLR 04/M10 A3020 RMK AO1 T00421105
KW96 300157Z AUTO 00000KT 10SM CLR 02/M08 A3022 RMK AO2
KW99 300155Z AUTO 15003KT 10SM BKN120 06/M13 A3004 RMK AO2 T00611130
KWAL 300154Z AUTO 23005KT 10SM CLR 00/M09 A3026 RMK AO2 SLP243 T00001089
KWDG 300150Z 36005KT 10SM FEW200 12/03 A3012 RMK LAST
KWDR 300215Z AUTO 19004KT 10SM OVC050 12/M02 A3029 RMK AO1
KWHP 292347Z 12007KT 20SM SKC 28/M02 A3000
KWJF 300156Z AUTO 25014KT 10SM CLR 24/01 A3001 RMK AO2 SLP154 T02390011 TSNO
KWLD 300154Z AUTO 02006KT 10SM CLR 14/01 A3014 RMK AO2 SLP205 T01440011 $
KWMC 300156Z AUTO 31007KT 10SM CLR 18/M13 A3014 RMK AO2 SLP202 T01781128
KWRB 300158Z AUTO 16003KT 10SM CLR 10/01 A3024 RMK AO2 SLP244 T00960007
KWRI 300158Z AUTO 21006KT 10SM CLR 00/M10 A3016 RMK AO2 SLP218 T10041102
KWRL 300153Z AUTO 15009KT 10SM CLR 09/M06 A3005 RMK AO2 SLP184 T00941061
KWST 300153Z AUTO 00000KT 10SM CLR 01/M05 A3015 RMK AO2 SLP210 T00111050
KWVI 300153Z AUTO 17007KT 10SM CLR 16/12 A3003 RMK AO2 SLP169 T01560117 $
KWVL 300215Z 19003KT CLR M02/M10 A3001 RMK AO1
KWWD 300215Z AUTO 18004KT 10SM CLR 01/M09 A3022 RMK AO1
KWWR 300155Z AUTO 03006KT 10SM CLR 16/M02 A3019 RMK AO2
KXBP 300215Z AUTO 02007KT 10SM CLR 24/12 A3006 RMK AO2 T02350120
KXIH 300215Z AUTO 20014KT 7SM CLR 20/18 A3015 RMK A01
KXLL 300215Z AUTO 20005KT 10SM CLR 02/M12 A3014 RMK AO2
KXMR 300158Z AUTO 35005KT 10SM CLR 12/05 A3032 RMK AO2 SLP270 T01230052 $
KXNA 300153Z 27003KT 10SM CLR 12/07 A3011 RMK AO2 SLP195 T01170067
KXPY 300215Z AUTO 18005KT 10SM CLR 22/19 A3026 RMK A01
KXSA 300215Z AUTO 16004KT 10SM CLR 03/M14 A3021 RMK AO2 T00261145
KXVG 300216Z AUTO 28006KT 10SM CLR 03/M03 A2987 RMK AO2
KY19 300155Z AUTO 33005KT 10SM CLR 09/M02 A2998 RMK AO2
KY23 300155Z AUTO 29006KT 10SM CLR 05/M02 A2985 RMK AO2 T00521023
KY49 300155Z AUTO 28004KT 10SM CLR 04/M05 A2987 RMK AO2 T00381047
KY50 300156Z AUTO 30006KT 10SM CLR 04/00 A2982 RMK AO2 TSNO T00440000 SLP103
KY51 300155Z AUTO 29010KT 10SM CLR 06/M01 A2986 RMK AO1 T00561011
KY63 300217Z AUTO 32004KT 10SM BKN100 05/M02 A2995 RMK AO2 T00481022 TSNO
KY70 300214Z AUTO 25022G30KT 4SM DZ OVC010 04/03 A2969 RMK AO2 T00390029
KYIP 300153Z 21023G30KT 10SM OVC043 07/M04 A2977 RMK AO2 PK WND 21030/0152 SLP082 T00671039
KYKM 300153Z 25003KT 10SM FEW070 20/03 A3011 RMK AO2 SLP196 T02000033
KYKN 300215Z AUTO 27008KT 10SM CLR 10/M07 A3009 RMK AO1
KYNG 300151Z 17009KT 10SM BKN055 OVC070 05/M11 A2992 RMK AO2 SLP141 VIRGA T00501106
KZPH 300215Z AUTO 00000KT 10SM CLR 11/05 A3034 RMK AO2
KZZV 300153Z AUTO 21013G32KT 10SM -RA BKN032 OVC050 06/M03 A2999 RMK AO2 PK WND 22034/0128 SLP161 P0000 T00561033 TSNO